PWSweather.com
Personal Weather Stations
Station Observations
WHAKATANE1
Whakatane, WhakataneNZ

WhakataneWhakataneNZ

Lat: -37.960954, Lon: 176.9768

Elevation: 10

Station Type: Lacrosse

Latest ConditionsUpdated 3:15:00 PM GMT+12:12 Friday, Apr 25, 2014
Currently Today's Max Today's Min Today's Average
Temperature 64.6°F18.1°C 71.6°F22.0°C 47.5°F8.6°C 55.9°F13.3°C
Dew Point 64.0°F17.8°C 65.4°F18.6°C 47.2°F8.4°C 53.4°F11.9°C
Winds 1.3 mph WSW2.1 kmh WSW 9.8 mph ENE15.8 kmh ENE - 2.6 mph 4.2 kmh
Wind Gusts 3.1 mph5.0 kmh 14.5 mph23.3 kmh - -
Humidity 98% 99% 68% 92%
Pressure 29.56 in1001.0 mb 29.64 in1003.7 mb 29.55 in1000.7 mb -
Precipitation - 0.05 in1.3 mm - -
Hour Temp Dew Point Humidity Winds Wind Gusts Pressure Precip Precip Rate Daily Precip Total
03:15 PM 64.6°F18.1°C 64.0°F17.8°C 98% 1.3 mph WSW2.1 kmh WSW 3.1 mph5.0 kmh 29.56 in1001.0 mb 0.01 in0.3 mm 0.00 in/hr0.0 mm/hr 0.05 in1.3 mm
03:14 PM 64.6°F18.1°C 64.0°F17.8°C 98% 1.1 mph WNW1.8 kmh WNW 2.2 mph3.5 kmh 29.55 in1000.7 mb 0.04 in1.0 mm 0.00 in/hr0.0 mm/hr 0.05 in1.3 mm
03:13 PM 64.6°F18.1°C 64.0°F17.8°C 98% 1.1 mph WNW1.8 kmh WNW 2.2 mph3.5 kmh 29.55 in1000.7 mb 0.05 in1.3 mm 0.00 in/hr0.0 mm/hr 0.05 in1.3 mm
03:12 PM 64.6°F18.1°C 64.0°F17.8°C 98% 1.2 mph NW1.9 kmh NW 3.1 mph5.0 kmh 29.55 in1000.7 mb 0.05 in1.3 mm 0.00 in/hr0.0 mm/hr 0.05 in1.3 mm
03:11 PM 64.6°F18.1°C 64.0°F17.8°C 98% 1.4 mph NW2.3 kmh NW 3.1 mph5.0 kmh 29.55 in1000.7 mb 0.05 in1.3 mm 0.00 in/hr0.0 mm/hr 0.05 in1.3 mm
03:10 PM 64.6°F18.1°C 64.0°F17.8°C 98% 1.7 mph NNW2.7 kmh NNW 3.8 mph6.1 kmh 29.55 in1000.7 mb 0.05 in1.3 mm 0.00 in/hr0.0 mm/hr 0.05 in1.3 mm
03:09 PM 64.6°F18.1°C 64.0°F17.8°C 98% 2.0 mph N3.2 kmh N 3.8 mph6.1 kmh 29.55 in1000.7 mb 0.05 in1.3 mm 0.00 in/hr0.0 mm/hr 0.05 in1.3 mm
03:08 PM 64.6°F18.1°C 64.0°F17.8°C 98% 2.1 mph N3.4 kmh N 3.8 mph6.1 kmh 29.55 in1000.7 mb 0.05 in1.3 mm 0.00 in/hr0.0 mm/hr 0.05 in1.3 mm
03:07 PM 64.6°F18.1°C 64.0°F17.8°C 98% 2.2 mph N3.5 kmh N 3.8 mph6.1 kmh 29.56 in1001.0 mb 0.05 in1.3 mm 0.00 in/hr0.0 mm/hr 0.05 in1.3 mm
03:06 PM 64.6°F18.1°C 64.0°F17.8°C 98% 2.2 mph N3.5 kmh N 3.8 mph6.1 kmh 29.56 in1001.0 mb 0.05 in1.3 mm 0.00 in/hr0.0 mm/hr 0.05 in1.3 mm
03:05 PM 64.6°F18.1°C 64.0°F17.8°C 98% 2.1 mph NNE3.4 kmh NNE 3.8 mph6.1 kmh 29.56 in1001.0 mb 0.05 in1.3 mm 0.00 in/hr0.0 mm/hr 0.05 in1.3 mm
03:04 PM 64.6°F18.1°C 64.0°F17.8°C 98% 2.0 mph NNE3.2 kmh NNE 3.8 mph6.1 kmh 29.56 in1001.0 mb 0.05 in1.3 mm 0.00 in/hr0.0 mm/hr 0.05 in1.3 mm
03:03 PM 64.6°F18.1°C 64.0°F17.8°C 98% 1.9 mph NE3.1 kmh NE 3.8 mph6.1 kmh 29.56 in1001.0 mb 0.05 in1.3 mm 0.00 in/hr0.0 mm/hr 0.05 in1.3 mm
03:02 PM 64.6°F18.1°C 64.0°F17.8°C 98% 1.7 mph NE2.7 kmh NE 3.8 mph6.1 kmh 29.56 in1001.0 mb 0.05 in1.3 mm 0.00 in/hr0.0 mm/hr 0.05 in1.3 mm
03:01 PM 64.4°F18.0°C 63.8°F17.7°C 98% 1.6 mph NE2.6 kmh NE 3.8 mph6.1 kmh 29.56 in1001.0 mb 0.05 in1.3 mm 0.00 in/hr0.0 mm/hr 0.05 in1.3 mm
03:00 PM 64.4°F18.0°C 63.8°F17.7°C 98% 1.6 mph ENE2.6 kmh ENE 3.8 mph6.1 kmh 29.56 in1001.0 mb 0.05 in1.3 mm 0.00 in/hr0.0 mm/hr 0.05 in1.3 mm
02:59 PM 64.4°F18.0°C 63.6°F17.6°C 97% 1.4 mph ENE2.3 kmh ENE 3.1 mph5.0 kmh 29.56 in1001.0 mb 0.05 in1.3 mm 0.00 in/hr0.0 mm/hr 0.05 in1.3 mm
02:58 PM 64.4°F18.0°C 63.6°F17.6°C 97% 1.3 mph NE2.1 kmh NE 3.1 mph5.0 kmh 29.56 in1001.0 mb 0.05 in1.3 mm 0.00 in/hr0.0 mm/hr 0.05 in1.3 mm
02:57 PM 64.4°F18.0°C 63.6°F17.6°C 97% 1.2 mph NE1.9 kmh NE 3.1 mph5.0 kmh 29.56 in1001.0 mb 0.05 in1.3 mm 0.00 in/hr0.0 mm/hr 0.05 in1.3 mm
02:56 PM 64.4°F18.0°C 63.6°F17.6°C 97% 1.1 mph NE1.8 kmh NE 3.1 mph5.0 kmh 29.56 in1001.0 mb 0.05 in1.3 mm 0.00 in/hr0.0 mm/hr 0.05 in1.3 mm
02:55 PM 64.4°F18.0°C 63.3°F17.4°C 96% 1.3 mph ENE2.1 kmh ENE 3.1 mph5.0 kmh 29.56 in1001.0 mb 0.05 in1.3 mm 0.00 in/hr0.0 mm/hr 0.05 in1.3 mm
02:54 PM 64.4°F18.0°C 63.3°F17.4°C 96% 1.5 mph ENE2.4 kmh ENE 3.1 mph5.0 kmh 29.56 in1001.0 mb 0.05 in1.3 mm 0.00 in/hr0.0 mm/hr 0.05 in1.3 mm
02:53 PM 64.4°F18.0°C 63.3°F17.4°C 96% 1.6 mph ENE2.6 kmh ENE 3.1 mph5.0 kmh 29.56 in1001.0 mb 0.05 in1.3 mm 0.00 in/hr0.0 mm/hr 0.05 in1.3 mm
02:52 PM 64.4°F18.0°C 63.0°F17.2°C 95% 1.7 mph ENE2.7 kmh ENE 3.1 mph5.0 kmh 29.56 in1001.0 mb 0.05 in1.3 mm 0.00 in/hr0.0 mm/hr 0.05 in1.3 mm
02:51 PM 64.4°F18.0°C 63.0°F17.2°C 95% 1.8 mph ENE2.9 kmh ENE 3.1 mph5.0 kmh 29.56 in1001.0 mb 0.05 in1.3 mm 0.00 in/hr0.0 mm/hr 0.05 in1.3 mm
02:50 PM 64.4°F18.0°C 63.0°F17.2°C 95% 1.7 mph NE2.7 kmh NE 3.1 mph5.0 kmh 29.57 in1001.4 mb 0.05 in1.3 mm 0.00 in/hr0.0 mm/hr 0.05 in1.3 mm
02:49 PM 64.4°F18.0°C 62.7°F17.1°C 94% 1.6 mph NE2.6 kmh NE 3.1 mph5.0 kmh 29.56 in1001.0 mb 0.05 in1.3 mm 0.00 in/hr0.0 mm/hr 0.05 in1.3 mm
02:48 PM 64.4°F18.0°C 62.7°F17.1°C 94% 1.8 mph NE2.9 kmh NE 3.1 mph5.0 kmh 29.56 in1001.0 mb 0.05 in1.3 mm 0.00 in/hr0.0 mm/hr 0.05 in1.3 mm
02:47 PM 64.6°F18.1°C 62.8°F17.1°C 94% 1.9 mph NE3.1 kmh NE 3.1 mph5.0 kmh 29.56 in1001.0 mb 0.05 in1.3 mm 0.00 in/hr0.0 mm/hr 0.05 in1.3 mm
02:46 PM 64.6°F18.1°C 62.8°F17.1°C 94% 2.1 mph NE3.4 kmh NE 3.1 mph5.0 kmh 29.56 in1001.0 mb 0.05 in1.3 mm 0.00 in/hr0.0 mm/hr 0.05 in1.3 mm
02:45 PM 64.8°F18.2°C 62.7°F17.1°C 93% 2.2 mph ENE3.5 kmh ENE 3.1 mph5.0 kmh 29.56 in1001.0 mb 0.05 in1.3 mm 0.00 in/hr0.0 mm/hr 0.05 in1.3 mm
02:44 PM 64.8°F18.2°C 62.7°F17.1°C 93% 2.2 mph ENE3.5 kmh ENE 3.1 mph5.0 kmh 29.56 in1001.0 mb 0.05 in1.3 mm 0.00 in/hr0.0 mm/hr 0.05 in1.3 mm
02:43 PM 64.9°F18.3°C 62.9°F17.2°C 93% 2.3 mph ENE3.7 kmh ENE 3.1 mph5.0 kmh 29.56 in1001.0 mb 0.05 in1.3 mm 0.00 in/hr0.0 mm/hr 0.05 in1.3 mm
02:42 PM 64.9°F18.3°C 62.9°F17.2°C 93% 2.4 mph NE3.9 kmh NE 3.1 mph5.0 kmh 29.56 in1001.0 mb 0.05 in1.3 mm 0.00 in/hr0.0 mm/hr 0.05 in1.3 mm
02:41 PM 65.1°F18.4°C 63.1°F17.3°C 93% 2.3 mph NE3.7 kmh NE 3.1 mph5.0 kmh 29.56 in1001.0 mb 0.05 in1.3 mm 0.00 in/hr0.0 mm/hr 0.05 in1.3 mm
02:40 PM 65.1°F18.4°C 62.8°F17.1°C 92% 2.3 mph NE3.7 kmh NE 3.1 mph5.0 kmh 29.56 in1001.0 mb 0.05 in1.3 mm 0.00 in/hr0.0 mm/hr 0.05 in1.3 mm
02:39 PM 65.1°F18.4°C 62.8°F17.1°C 92% 2.4 mph NE3.9 kmh NE 3.1 mph5.0 kmh 29.56 in1001.0 mb 0.05 in1.3 mm 0.00 in/hr0.0 mm/hr 0.05 in1.3 mm
02:38 PM 65.3°F18.5°C 62.6°F17.0°C 91% 2.5 mph NE4.0 kmh NE 3.1 mph5.0 kmh 29.56 in1001.0 mb 0.05 in1.3 mm 0.00 in/hr0.0 mm/hr 0.05 in1.3 mm
02:37 PM 65.5°F18.6°C 62.8°F17.1°C 91% 2.6 mph NNE4.2 kmh NNE 3.8 mph6.1 kmh 29.56 in1001.0 mb 0.05 in1.3 mm 0.00 in/hr0.0 mm/hr 0.05 in1.3 mm
02:36 PM 65.5°F18.6°C 62.8°F17.1°C 91% 2.6 mph NNE4.2 kmh NNE 3.8 mph6.1 kmh 29.56 in1001.0 mb 0.05 in1.3 mm 0.00 in/hr0.0 mm/hr 0.05 in1.3 mm
02:35 PM 65.7°F18.7°C 62.7°F17.1°C 90% 2.6 mph N4.2 kmh N 4.5 mph7.2 kmh 29.56 in1001.0 mb 0.05 in1.3 mm 0.00 in/hr0.0 mm/hr 0.05 in1.3 mm
02:34 PM 65.8°F18.8°C 62.8°F17.1°C 90% 2.8 mph N4.5 kmh N 5.4 mph8.7 kmh 29.56 in1001.0 mb 0.05 in1.3 mm 0.00 in/hr0.0 mm/hr 0.05 in1.3 mm
02:33 PM 65.8°F18.8°C 62.5°F16.9°C 89% 3.2 mph N5.1 kmh N 6.9 mph11.1 kmh 29.56 in1001.0 mb 0.05 in1.3 mm 0.00 in/hr0.0 mm/hr 0.05 in1.3 mm
02:32 PM 65.8°F18.8°C 62.2°F16.8°C 88% 3.5 mph N5.6 kmh N 6.9 mph11.1 kmh 29.56 in1001.0 mb 0.05 in1.3 mm 0.00 in/hr0.0 mm/hr 0.05 in1.3 mm
02:31 PM 66.0°F18.9°C 62.4°F16.9°C 88% 3.7 mph NNE6.0 kmh NNE 6.9 mph11.1 kmh 29.56 in1001.0 mb 0.05 in1.3 mm 0.00 in/hr0.0 mm/hr 0.05 in1.3 mm
02:30 PM 66.2°F19.0°C 62.2°F16.8°C 87% 3.9 mph NNE6.3 kmh NNE 6.9 mph11.1 kmh 29.56 in1001.0 mb 0.05 in1.3 mm 0.00 in/hr0.0 mm/hr 0.05 in1.3 mm
02:29 PM 66.4°F19.1°C 62.4°F16.9°C 87% 4.1 mph NNE6.6 kmh NNE 6.9 mph11.1 kmh 29.57 in1001.4 mb 0.05 in1.3 mm 0.00 in/hr0.0 mm/hr 0.05 in1.3 mm
02:28 PM 66.4°F19.1°C 62.4°F16.9°C 87% 4.0 mph NNE6.4 kmh NNE 6.9 mph11.1 kmh 29.57 in1001.4 mb 0.05 in1.3 mm 0.00 in/hr0.0 mm/hr 0.05 in1.3 mm
02:27 PM 66.6°F19.2°C 62.3°F16.8°C 86% 4.2 mph NNE6.8 kmh NNE 6.9 mph11.1 kmh 29.57 in1001.4 mb 0.05 in1.3 mm 0.00 in/hr0.0 mm/hr 0.05 in1.3 mm
02:26 PM 66.9°F19.4°C 62.3°F16.8°C 85% 4.8 mph NE7.7 kmh NE 11.4 mph18.3 kmh 29.57 in1001.4 mb 0.05 in1.3 mm 0.00 in/hr0.0 mm/hr 0.05 in1.3 mm
02:25 PM 67.1°F19.5°C 62.5°F16.9°C 85% 5.5 mph NNE8.9 kmh NNE 11.4 mph18.3 kmh 29.57 in1001.4 mb 0.05 in1.3 mm 0.00 in/hr0.0 mm/hr 0.05 in1.3 mm
02:24 PM 67.3°F19.6°C 62.3°F16.8°C 84% 6.1 mph NNE9.8 kmh NNE 11.4 mph18.3 kmh 29.57 in1001.4 mb 0.05 in1.3 mm 0.00 in/hr0.0 mm/hr 0.05 in1.3 mm
02:23 PM 67.5°F19.7°C 62.5°F16.9°C 84% 6.3 mph NE10.1 kmh NE 11.4 mph18.3 kmh 29.57 in1001.4 mb 0.05 in1.3 mm 0.00 in/hr0.0 mm/hr 0.05 in1.3 mm
02:22 PM 67.8°F19.9°C 62.5°F16.9°C 83% 6.4 mph NE10.3 kmh NE 11.4 mph18.3 kmh 29.57 in1001.4 mb 0.05 in1.3 mm 0.00 in/hr0.0 mm/hr 0.05 in1.3 mm
02:21 PM 68.0°F20.0°C 62.3°F16.8°C 82% 6.5 mph NE10.5 kmh NE 11.4 mph18.3 kmh 29.57 in1001.4 mb 0.05 in1.3 mm 0.00 in/hr0.0 mm/hr 0.05 in1.3 mm
02:20 PM 68.2°F20.1°C 62.2°F16.8°C 81% 6.8 mph NE10.9 kmh NE 13.0 mph20.9 kmh 29.57 in1001.4 mb 0.05 in1.3 mm 0.00 in/hr0.0 mm/hr 0.05 in1.3 mm
02:19 PM 68.4°F20.2°C 62.0°F16.7°C 80% 7.8 mph ENE12.6 kmh ENE 13.6 mph21.9 kmh 29.57 in1001.4 mb 0.05 in1.3 mm 0.00 in/hr0.0 mm/hr 0.05 in1.3 mm
02:18 PM 68.7°F20.4°C 62.0°F16.7°C 79% 8.5 mph ENE13.7 kmh ENE 13.6 mph21.9 kmh 29.57 in1001.4 mb 0.05 in1.3 mm 0.00 in/hr0.0 mm/hr 0.05 in1.3 mm
02:17 PM 68.9°F20.5°C 61.8°F16.6°C 78% 8.5 mph ENE13.7 kmh ENE 13.6 mph21.9 kmh 29.57 in1001.4 mb 0.05 in1.3 mm 0.60 in/hr15.2 mm/hr 0.05 in1.3 mm
02:16 PM 69.1°F20.6°C 62.0°F16.7°C 78% 8.2 mph ENE13.2 kmh ENE 13.6 mph21.9 kmh 29.57 in1001.4 mb 0.04 in1.0 mm 1.80 in/hr45.7 mm/hr 0.04 in1.0 mm
02:15 PM 69.3°F20.7°C 61.4°F16.3°C 76% 8.0 mph E12.9 kmh E 13.6 mph21.9 kmh 29.57 in1001.4 mb 0.01 in0.3 mm 0.60 in/hr15.2 mm/hr 0.01 in0.3 mm
02:14 PM 69.4°F20.8°C 60.8°F16.0°C 74% 7.9 mph E12.7 kmh E 13.6 mph21.9 kmh 29.57 in1001.4 mb 0.00 in0.0 mm 0.00 in/hr0.0 mm/hr 0.00 in0.0 mm
02:13 PM 69.6°F20.9°C 60.6°F15.9°C 73% 8.2 mph E13.2 kmh E 13.6 mph21.9 kmh 29.56 in1001.0 mb 0.00 in0.0 mm 0.00 in/hr0.0 mm/hr 0.00 in0.0 mm
02:12 PM 69.6°F20.9°C 60.6°F15.9°C 73% 8.4 mph E13.5 kmh E 13.6 mph21.9 kmh 29.56 in1001.0 mb 0.00 in0.0 mm 0.00 in/hr0.0 mm/hr 0.00 in0.0 mm
02:11 PM 69.6°F20.9°C 60.2°F15.7°C 72% 8.7 mph E14.0 kmh E 13.6 mph21.9 kmh 29.56 in1001.0 mb 0.00 in0.0 mm 0.00 in/hr0.0 mm/hr 0.00 in0.0 mm
02:10 PM 69.8°F21.0°C 60.4°F15.8°C 72% 8.9 mph E14.3 kmh E 13.6 mph21.9 kmh 29.56 in1001.0 mb 0.00 in0.0 mm 0.00 in/hr0.0 mm/hr 0.00 in0.0 mm
02:09 PM 70.0°F21.1°C 60.6°F15.9°C 72% 8.3 mph E13.4 kmh E 13.6 mph21.9 kmh 29.56 in1001.0 mb 0.00 in0.0 mm 0.00 in/hr0.0 mm/hr 0.00 in0.0 mm
02:08 PM 70.0°F21.1°C 60.2°F15.7°C 71% 8.4 mph E13.5 kmh E 12.1 mph19.5 kmh 29.56 in1001.0 mb 0.00 in0.0 mm 0.00 in/hr0.0 mm/hr 0.00 in0.0 mm
02:07 PM 70.0°F21.1°C 60.2°F15.7°C 71% 8.5 mph E13.7 kmh E 12.1 mph19.5 kmh 29.56 in1001.0 mb 0.00 in0.0 mm 0.00 in/hr0.0 mm/hr 0.00 in0.0 mm
02:06 PM 70.2°F21.2°C 59.9°F15.5°C 70% 8.8 mph E14.2 kmh E 12.1 mph19.5 kmh 29.56 in1001.0 mb 0.00 in0.0 mm 0.00 in/hr0.0 mm/hr 0.00 in0.0 mm
02:05 PM 70.3°F21.3°C 60.1°F15.6°C 70% 9.2 mph E14.8 kmh E 12.1 mph19.5 kmh 29.56 in1001.0 mb 0.00 in0.0 mm 0.00 in/hr0.0 mm/hr 0.00 in0.0 mm
02:04 PM 70.5°F21.4°C 59.9°F15.5°C 69% 9.0 mph E14.5 kmh E 12.1 mph19.5 kmh 29.56 in1001.0 mb 0.00 in0.0 mm 0.00 in/hr0.0 mm/hr 0.00 in0.0 mm
02:03 PM 70.7°F21.5°C 60.1°F15.6°C 69% 8.9 mph E14.3 kmh E 14.5 mph23.3 kmh 29.56 in1001.0 mb 0.00 in0.0 mm 0.00 in/hr0.0 mm/hr 0.00 in0.0 mm
02:02 PM 70.9°F21.6°C 60.6°F15.9°C 70% 8.9 mph E14.3 kmh E 14.5 mph23.3 kmh 29.56 in1001.0 mb 0.00 in0.0 mm 0.00 in/hr0.0 mm/hr 0.00 in0.0 mm
02:01 PM 71.1°F21.7°C 60.8°F16.0°C 70% 9.0 mph E14.5 kmh E 14.5 mph23.3 kmh 29.57 in1001.4 mb 0.00 in0.0 mm 0.00 in/hr0.0 mm/hr 0.00 in0.0 mm
02:00 PM 71.1°F21.7°C 60.8°F16.0°C 70% 9.1 mph E14.6 kmh E 14.5 mph23.3 kmh 29.56 in1001.0 mb 0.00 in0.0 mm 0.00 in/hr0.0 mm/hr 0.00 in0.0 mm
01:59 PM 71.1°F21.7°C 60.8°F16.0°C 70% 9.4 mph E15.1 kmh E 14.5 mph23.3 kmh 29.56 in1001.0 mb 0.00 in0.0 mm 0.00 in/hr0.0 mm/hr 0.00 in0.0 mm
01:58 PM 71.1°F21.7°C 60.4°F15.8°C 69% 9.4 mph E15.1 kmh E 14.5 mph23.3 kmh 29.56 in1001.0 mb 0.00 in0.0 mm 0.00 in/hr0.0 mm/hr 0.00 in0.0 mm
01:57 PM 71.1°F21.7°C 60.4°F15.8°C 69% 9.6 mph E15.4 kmh E 14.5 mph23.3 kmh 29.56 in1001.0 mb 0.00 in0.0 mm 0.00 in/hr0.0 mm/hr 0.00 in0.0 mm
01:56 PM 71.1°F21.7°C 60.4°F15.8°C 69% 9.5 mph ENE15.3 kmh ENE 14.5 mph23.3 kmh 29.56 in1001.0 mb 0.00 in0.0 mm 0.00 in/hr0.0 mm/hr 0.00 in0.0 mm
01:55 PM 71.2°F21.8°C 60.6°F15.9°C 69% 9.4 mph ENE15.1 kmh ENE 14.5 mph23.3 kmh 29.56 in1001.0 mb 0.00 in0.0 mm 0.00 in/hr0.0 mm/hr 0.00 in0.0 mm
01:54 PM 71.2°F21.8°C 60.6°F15.9°C 69% 9.7 mph NE15.6 kmh NE 14.5 mph23.3 kmh 29.57 in1001.4 mb 0.00 in0.0 mm 0.00 in/hr0.0 mm/hr 0.00 in0.0 mm
01:53 PM 71.4°F21.9°C 60.7°F15.9°C 69% 9.7 mph ENE15.6 kmh ENE 14.5 mph23.3 kmh 29.57 in1001.4 mb 0.00 in0.0 mm 0.00 in/hr0.0 mm/hr 0.00 in0.0 mm
01:52 PM 71.4°F21.9°C 60.7°F15.9°C 69% 9.4 mph ENE15.1 kmh ENE 11.4 mph18.3 kmh 29.57 in1001.4 mb 0.00 in0.0 mm 0.00 in/hr0.0 mm/hr 0.00 in0.0 mm
01:51 PM 71.4°F21.9°C 60.3°F15.7°C 68% 9.2 mph ENE14.8 kmh ENE 11.4 mph18.3 kmh 29.57 in1001.4 mb 0.00 in0.0 mm 0.00 in/hr0.0 mm/hr 0.00 in0.0 mm
01:50 PM 71.4°F21.9°C 60.7°F15.9°C 69% 9.4 mph NE15.1 kmh NE 13.6 mph21.9 kmh 29.57 in1001.4 mb 0.00 in0.0 mm 0.00 in/hr0.0 mm/hr 0.00 in0.0 mm
01:49 PM 71.4°F21.9°C 60.7°F15.9°C 69% 9.5 mph NE15.3 kmh NE 13.6 mph21.9 kmh 29.56 in1001.0 mb 0.00 in0.0 mm 0.00 in/hr0.0 mm/hr 0.00 in0.0 mm
01:48 PM 71.6°F22.0°C 61.3°F16.3°C 70% 9.5 mph NE15.3 kmh NE 13.6 mph21.9 kmh 29.57 in1001.4 mb 0.00 in0.0 mm 0.00 in/hr0.0 mm/hr 0.00 in0.0 mm
01:47 PM 71.4°F21.9°C 61.2°F16.2°C 70% 9.5 mph NE15.3 kmh NE 13.6 mph21.9 kmh 29.56 in1001.0 mb 0.00 in0.0 mm 0.00 in/hr0.0 mm/hr 0.00 in0.0 mm
01:46 PM 71.4°F21.9°C 61.2°F16.2°C 70% 9.7 mph NE15.6 kmh NE 13.6 mph21.9 kmh 29.56 in1001.0 mb 0.00 in0.0 mm 0.00 in/hr0.0 mm/hr 0.00 in0.0 mm
01:45 PM 71.4°F21.9°C 61.2°F16.2°C 70% 9.6 mph ENE15.4 kmh ENE 13.6 mph21.9 kmh 29.56 in1001.0 mb 0.00 in0.0 mm 0.00 in/hr0.0 mm/hr 0.00 in0.0 mm
01:44 PM 71.4°F21.9°C 61.2°F16.2°C 70% 9.2 mph ENE14.8 kmh ENE 13.6 mph21.9 kmh 29.56 in1001.0 mb 0.00 in0.0 mm 0.00 in/hr0.0 mm/hr 0.00 in0.0 mm
01:43 PM 71.4°F21.9°C 61.2°F16.2°C 70% 9.0 mph NE14.5 kmh NE 13.6 mph21.9 kmh 29.57 in1001.4 mb 0.00 in0.0 mm 0.00 in/hr0.0 mm/hr 0.00 in0.0 mm
01:42 PM 71.4°F21.9°C 61.2°F16.2°C 70% 8.9 mph NE14.3 kmh NE 13.6 mph21.9 kmh 29.57 in1001.4 mb 0.00 in0.0 mm 0.00 in/hr0.0 mm/hr 0.00 in0.0 mm
01:41 PM 71.4°F21.9°C 61.2°F16.2°C 70% 8.7 mph NE14.0 kmh NE 13.6 mph21.9 kmh 29.57 in1001.4 mb 0.00 in0.0 mm 0.00 in/hr0.0 mm/hr 0.00 in0.0 mm
01:40 PM 71.6°F22.0°C 61.3°F16.3°C 70% 8.3 mph NE13.4 kmh NE 13.6 mph21.9 kmh 29.57 in1001.4 mb 0.00 in0.0 mm 0.00 in/hr0.0 mm/hr 0.00 in0.0 mm
01:39 PM 71.6°F22.0°C 61.7°F16.5°C 71% 8.1 mph ENE13.0 kmh ENE 10.7 mph17.2 kmh 29.57 in1001.4 mb 0.00 in0.0 mm 0.00 in/hr0.0 mm/hr 0.00 in0.0 mm
01:38 PM 71.6°F22.0°C 61.7°F16.5°C 71% 7.6 mph NE12.2 kmh NE 10.7 mph17.2 kmh 29.57 in1001.4 mb 0.00 in0.0 mm 0.00 in/hr0.0 mm/hr 0.00 in0.0 mm
01:37 PM 71.6°F22.0°C 61.7°F16.5°C 71% 7.4 mph NE11.9 kmh NE 10.7 mph17.2 kmh 29.57 in1001.4 mb 0.00 in0.0 mm 0.00 in/hr0.0 mm/hr 0.00 in0.0 mm
01:36 PM 71.6°F22.0°C 61.7°F16.5°C 71% 7.1 mph ENE11.4 kmh ENE 10.7 mph17.2 kmh 29.57 in1001.4 mb 0.00 in0.0 mm 0.00 in/hr0.0 mm/hr 0.00 in0.0 mm
01:35 PM 71.4°F21.9°C 62.0°F16.7°C 72% 6.6 mph ENE10.6 kmh ENE 10.7 mph17.2 kmh 29.57 in1001.4 mb 0.00 in0.0 mm 0.00 in/hr0.0 mm/hr 0.00 in0.0 mm
01:34 PM 71.4°F21.9°C 62.0°F16.7°C 72% 6.7 mph ENE10.8 kmh ENE 10.7 mph17.2 kmh 29.57 in1001.4 mb 0.00 in0.0 mm 0.00 in/hr0.0 mm/hr 0.00 in0.0 mm
01:33 PM 71.2°F21.8°C 61.8°F16.6°C 72% 6.8 mph ENE10.9 kmh ENE 10.7 mph17.2 kmh 29.57 in1001.4 mb 0.00 in0.0 mm 0.00 in/hr0.0 mm/hr 0.00 in0.0 mm
01:32 PM 71.2°F21.8°C 61.4°F16.3°C 71% 7.1 mph ENE11.4 kmh ENE 10.7 mph17.2 kmh 29.57 in1001.4 mb 0.00 in0.0 mm 0.00 in/hr0.0 mm/hr 0.00 in0.0 mm
01:31 PM 71.1°F21.7°C 61.2°F16.2°C 71% 7.4 mph ENE11.9 kmh ENE 10.7 mph17.2 kmh 29.57 in1001.4 mb 0.00 in0.0 mm 0.00 in/hr0.0 mm/hr 0.00 in0.0 mm
01:30 PM 71.1°F21.7°C 61.6°F16.4°C 72% 7.3 mph ENE11.7 kmh ENE 10.7 mph17.2 kmh 29.57 in1001.4 mb 0.00 in0.0 mm 0.00 in/hr0.0 mm/hr 0.00 in0.0 mm
01:29 PM 71.1°F21.7°C 61.6°F16.4°C 72% 7.3 mph E11.7 kmh E 9.2 mph14.8 kmh 29.57 in1001.4 mb 0.00 in0.0 mm 0.00 in/hr0.0 mm/hr 0.00 in0.0 mm
01:28 PM 71.1°F21.7°C 61.2°F16.2°C 71% 7.6 mph E12.2 kmh E 9.2 mph14.8 kmh 29.57 in1001.4 mb 0.00 in0.0 mm 0.00 in/hr0.0 mm/hr 0.00 in0.0 mm
01:27 PM 70.9°F21.6°C 61.0°F16.1°C 71% 7.6 mph E12.2 kmh E 9.2 mph14.8 kmh 29.57 in1001.4 mb 0.00 in0.0 mm 0.00 in/hr0.0 mm/hr 0.00 in0.0 mm
01:26 PM 70.9°F21.6°C 61.0°F16.1°C 71% 7.7 mph E12.4 kmh E 9.2 mph14.8 kmh 29.57 in1001.4 mb 0.00 in0.0 mm 0.00 in/hr0.0 mm/hr 0.00 in0.0 mm
01:25 PM 70.9°F21.6°C 61.0°F16.1°C 71% 7.8 mph E12.6 kmh E 9.2 mph14.8 kmh 29.57 in1001.4 mb 0.00 in0.0 mm 0.00 in/hr0.0 mm/hr 0.00 in0.0 mm
01:24 PM 70.9°F21.6°C 61.0°F16.1°C 71% 7.7 mph ENE12.4 kmh ENE 9.2 mph14.8 kmh 29.57 in1001.4 mb 0.00 in0.0 mm 0.00 in/hr0.0 mm/hr 0.00 in0.0 mm
01:23 PM 70.9°F21.6°C 61.4°F16.3°C 72% 7.7 mph E12.4 kmh E 9.2 mph14.8 kmh 29.57 in1001.4 mb 0.00 in0.0 mm 0.00 in/hr0.0 mm/hr 0.00 in0.0 mm
01:22 PM 70.7°F21.5°C 61.3°F16.3°C 72% 7.5 mph E12.1 kmh E 9.2 mph14.8 kmh 29.57 in1001.4 mb 0.00 in0.0 mm 0.00 in/hr0.0 mm/hr 0.00 in0.0 mm
01:21 PM 70.7°F21.5°C 61.3°F16.3°C 72% 7.6 mph E12.2 kmh E 9.8 mph15.8 kmh 29.57 in1001.4 mb 0.00 in0.0 mm 0.00 in/hr0.0 mm/hr 0.00 in0.0 mm
01:20 PM 70.7°F21.5°C 61.3°F16.3°C 72% 7.9 mph E12.7 kmh E 11.4 mph18.3 kmh 29.57 in1001.4 mb 0.00 in0.0 mm 0.00 in/hr0.0 mm/hr 0.00 in0.0 mm
01:19 PM 70.7°F21.5°C 60.9°F16.1°C 71% 7.9 mph E12.7 kmh E 11.4 mph18.3 kmh 29.57 in1001.4 mb 0.00 in0.0 mm 0.00 in/hr0.0 mm/hr 0.00 in0.0 mm
01:18 PM 70.7°F21.5°C 61.3°F16.3°C 72% 7.8 mph E12.6 kmh E 11.4 mph18.3 kmh 29.58 in1001.7 mb 0.00 in0.0 mm 0.00 in/hr0.0 mm/hr 0.00 in0.0 mm
01:17 PM 70.5°F21.4°C 61.1°F16.2°C 72% 7.6 mph E12.2 kmh E 11.4 mph18.3 kmh 29.58 in1001.7 mb 0.00 in0.0 mm 0.00 in/hr0.0 mm/hr 0.00 in0.0 mm
01:16 PM 70.5°F21.4°C 61.1°F16.2°C 72% 7.6 mph E12.2 kmh E 11.4 mph18.3 kmh 29.58 in1001.7 mb 0.00 in0.0 mm 0.00 in/hr0.0 mm/hr 0.00 in0.0 mm
01:15 PM 70.3°F21.3°C 61.3°F16.3°C 73% 7.9 mph E12.7 kmh E 11.4 mph18.3 kmh 29.58 in1001.7 mb 0.00 in0.0 mm 0.00 in/hr0.0 mm/hr 0.00 in0.0 mm
01:14 PM 70.3°F21.3°C 61.3°F16.3°C 73% 8.3 mph E13.4 kmh E 11.4 mph18.3 kmh 29.58 in1001.7 mb 0.00 in0.0 mm 0.00 in/hr0.0 mm/hr 0.00 in0.0 mm
01:13 PM 70.3°F21.3°C 61.3°F16.3°C 73% 8.7 mph E14.0 kmh E 11.4 mph18.3 kmh 29.58 in1001.7 mb 0.00 in0.0 mm 0.00 in/hr0.0 mm/hr 0.00 in0.0 mm
01:12 PM 70.3°F21.3°C 61.3°F16.3°C 73% 8.9 mph E14.3 kmh E 11.4 mph18.3 kmh 29.58 in1001.7 mb 0.00 in0.0 mm 0.00 in/hr0.0 mm/hr 0.00 in0.0 mm
01:11 PM 70.2°F21.2°C 61.1°F16.2°C 73% 8.7 mph E14.0 kmh E 11.4 mph18.3 kmh 29.58 in1001.7 mb 0.00 in0.0 mm 0.00 in/hr0.0 mm/hr 0.00 in0.0 mm
01:10 PM 70.2°F21.2°C 61.1°F16.2°C 73% 8.5 mph E13.7 kmh E 11.4 mph18.3 kmh 29.58 in1001.7 mb 0.00 in0.0 mm 0.00 in/hr0.0 mm/hr 0.00 in0.0 mm
01:09 PM 70.2°F21.2°C 61.1°F16.2°C 73% 8.5 mph E13.7 kmh E 11.4 mph18.3 kmh 29.58 in1001.7 mb 0.00 in0.0 mm 0.00 in/hr0.0 mm/hr 0.00 in0.0 mm
01:08 PM 70.2°F21.2°C 61.1°F16.2°C 73% 8.7 mph E14.0 kmh E 12.1 mph19.5 kmh 29.58 in1001.7 mb 0.00 in0.0 mm 0.00 in/hr0.0 mm/hr 0.00 in0.0 mm
01:07 PM 70.3°F21.3°C 60.9°F16.1°C 72% 9.3 mph ENE15.0 kmh ENE 12.1 mph19.5 kmh 29.58 in1001.7 mb 0.00 in0.0 mm 0.00 in/hr0.0 mm/hr 0.00 in0.0 mm
01:06 PM 70.5°F21.4°C 61.1°F16.2°C 72% 9.8 mph ENE15.8 kmh ENE 13.0 mph20.9 kmh 29.58 in1001.7 mb 0.00 in0.0 mm 0.00 in/hr0.0 mm/hr 0.00 in0.0 mm
01:05 PM 70.5°F21.4°C 61.5°F16.4°C 73% 9.5 mph ENE15.3 kmh ENE 13.0 mph20.9 kmh 29.58 in1001.7 mb 0.00 in0.0 mm 0.00 in/hr0.0 mm/hr 0.00 in0.0 mm
01:04 PM 70.5°F21.4°C 61.5°F16.4°C 73% 9.3 mph ENE15.0 kmh ENE 13.0 mph20.9 kmh 29.58 in1001.7 mb 0.00 in0.0 mm 0.00 in/hr0.0 mm/hr 0.00 in0.0 mm
01:03 PM 70.5°F21.4°C 61.5°F16.4°C 73% 8.9 mph ENE14.3 kmh ENE 13.0 mph20.9 kmh 29.58 in1001.7 mb 0.00 in0.0 mm 0.00 in/hr0.0 mm/hr 0.00 in0.0 mm
01:02 PM 70.5°F21.4°C 61.5°F16.4°C 73% 8.9 mph ENE14.3 kmh ENE 13.0 mph20.9 kmh 29.58 in1001.7 mb 0.00 in0.0 mm 0.00 in/hr0.0 mm/hr 0.00 in0.0 mm
01:01 PM 70.5°F21.4°C 61.5°F16.4°C 73% 9.0 mph ENE14.5 kmh ENE 13.0 mph20.9 kmh 29.58 in1001.7 mb 0.00 in0.0 mm 0.00 in/hr0.0 mm/hr 0.00 in0.0 mm
01:00 PM 70.7°F21.5°C 61.6°F16.4°C 73% 9.0 mph ENE14.5 kmh ENE 13.0 mph20.9 kmh 29.58 in1001.7 mb 0.00 in0.0 mm 0.00 in/hr0.0 mm/hr 0.00 in0.0 mm
12:59 PM 70.7°F21.5°C 61.3°F16.3°C 72% 8.8 mph ENE14.2 kmh ENE 13.0 mph20.9 kmh 29.59 in1002.0 mb 0.00 in0.0 mm 0.00 in/hr0.0 mm/hr 0.00 in0.0 mm
12:58 PM 70.7°F21.5°C 61.3°F16.3°C 72% 8.5 mph E13.7 kmh E 13.0 mph20.9 kmh 29.59 in1002.0 mb 0.00 in0.0 mm 0.00 in/hr0.0 mm/hr 0.00 in0.0 mm
12:57 PM 70.7°F21.5°C 61.6°F16.4°C 73% 8.1 mph E13.0 kmh E 13.0 mph20.9 kmh 29.59 in1002.0 mb 0.00 in0.0 mm 0.00 in/hr0.0 mm/hr 0.00 in0.0 mm
12:56 PM 70.7°F21.5°C 61.6°F16.4°C 73% 7.8 mph E12.6 kmh E 13.0 mph20.9 kmh 29.59 in1002.0 mb 0.00 in0.0 mm 0.00 in/hr0.0 mm/hr 0.00 in0.0 mm
12:55 PM 70.7°F21.5°C 61.6°F16.4°C 73% 7.8 mph E12.6 kmh E 10.7 mph17.2 kmh 29.59 in1002.0 mb 0.00 in0.0 mm 0.00 in/hr0.0 mm/hr 0.00 in0.0 mm
12:54 PM 70.7°F21.5°C 61.6°F16.4°C 73% 7.4 mph E11.9 kmh E 10.7 mph17.2 kmh 29.59 in1002.0 mb 0.00 in0.0 mm 0.00 in/hr0.0 mm/hr 0.00 in0.0 mm
12:53 PM 70.7°F21.5°C 61.6°F16.4°C 73% 7.1 mph E11.4 kmh E 10.7 mph17.2 kmh 29.59 in1002.0 mb 0.00 in0.0 mm 0.00 in/hr0.0 mm/hr 0.00 in0.0 mm
12:52 PM 70.9°F21.6°C 61.8°F16.6°C 73% 7.0 mph E11.3 kmh E 10.7 mph17.2 kmh 29.59 in1002.0 mb 0.00 in0.0 mm 0.00 in/hr0.0 mm/hr 0.00 in0.0 mm
12:51 PM 70.9°F21.6°C 61.8°F16.6°C 73% 7.0 mph E11.3 kmh E 10.7 mph17.2 kmh 29.59 in1002.0 mb 0.00 in0.0 mm 0.00 in/hr0.0 mm/hr 0.00 in0.0 mm
12:50 PM 70.9°F21.6°C 61.8°F16.6°C 73% 7.0 mph E11.3 kmh E 10.7 mph17.2 kmh 29.59 in1002.0 mb 0.00 in0.0 mm 0.00 in/hr0.0 mm/hr 0.00 in0.0 mm
12:49 PM 70.7°F21.5°C 61.3°F16.3°C 72% 7.2 mph E11.6 kmh E 10.7 mph17.2 kmh 29.59 in1002.0 mb 0.00 in0.0 mm 0.00 in/hr0.0 mm/hr 0.00 in0.0 mm
12:48 PM 70.7°F21.5°C 61.6°F16.4°C 73% 7.4 mph E11.9 kmh E 10.7 mph17.2 kmh 29.59 in1002.0 mb 0.00 in0.0 mm 0.00 in/hr0.0 mm/hr 0.00 in0.0 mm
12:47 PM 70.5°F21.4°C 61.9°F16.6°C 74% 7.4 mph E11.9 kmh E 10.7 mph17.2 kmh 29.59 in1002.0 mb 0.00 in0.0 mm 0.00 in/hr0.0 mm/hr 0.00 in0.0 mm
12:46 PM 70.5°F21.4°C 61.9°F16.6°C 74% 7.1 mph E11.4 kmh E 9.8 mph15.8 kmh 29.59 in1002.0 mb 0.00 in0.0 mm 0.00 in/hr0.0 mm/hr 0.00 in0.0 mm
12:45 PM 70.5°F21.4°C 61.9°F16.6°C 74% 7.2 mph ENE11.6 kmh ENE 9.8 mph15.8 kmh 29.59 in1002.0 mb 0.00 in0.0 mm 0.00 in/hr0.0 mm/hr 0.00 in0.0 mm
12:44 PM 70.3°F21.3°C 61.3°F16.3°C 73% 7.7 mph ENE12.4 kmh ENE 9.8 mph15.8 kmh 29.59 in1002.0 mb 0.00 in0.0 mm 0.00 in/hr0.0 mm/hr 0.00 in0.0 mm
12:43 PM 70.3°F21.3°C 61.3°F16.3°C 73% 8.1 mph ENE13.0 kmh ENE 9.8 mph15.8 kmh 29.59 in1002.0 mb 0.00 in0.0 mm 0.00 in/hr0.0 mm/hr 0.00 in0.0 mm
12:42 PM 70.3°F21.3°C 61.3°F16.3°C 73% 8.4 mph ENE13.5 kmh ENE 9.8 mph15.8 kmh 29.59 in1002.0 mb 0.00 in0.0 mm 0.00 in/hr0.0 mm/hr 0.00 in0.0 mm
12:41 PM 70.3°F21.3°C 61.3°F16.3°C 73% 8.3 mph ENE13.4 kmh ENE 9.8 mph15.8 kmh 29.59 in1002.0 mb 0.00 in0.0 mm 0.00 in/hr0.0 mm/hr 0.00 in0.0 mm
12:40 PM 70.3°F21.3°C 61.3°F16.3°C 73% 8.2 mph ENE13.2 kmh ENE 9.8 mph15.8 kmh 29.60 in1002.4 mb 0.00 in0.0 mm 0.00 in/hr0.0 mm/hr 0.00 in0.0 mm
12:39 PM 70.3°F21.3°C 61.3°F16.3°C 73% 8.4 mph ENE13.5 kmh ENE 12.1 mph19.5 kmh 29.59 in1002.0 mb 0.00 in0.0 mm 0.00 in/hr0.0 mm/hr 0.00 in0.0 mm
12:38 PM 70.3°F21.3°C 61.3°F16.3°C 73% 8.7 mph ENE14.0 kmh ENE 12.1 mph19.5 kmh 29.59 in1002.0 mb 0.00 in0.0 mm 0.00 in/hr0.0 mm/hr 0.00 in0.0 mm
12:37 PM 70.3°F21.3°C 61.3°F16.3°C 73% 9.2 mph ENE14.8 kmh ENE 12.1 mph19.5 kmh 29.60 in1002.4 mb 0.00 in0.0 mm 0.00 in/hr0.0 mm/hr 0.00 in0.0 mm
12:36 PM 70.3°F21.3°C 61.3°F16.3°C 73% 9.2 mph ENE14.8 kmh ENE 12.1 mph19.5 kmh 29.60 in1002.4 mb 0.00 in0.0 mm 0.00 in/hr0.0 mm/hr 0.00 in0.0 mm
12:35 PM 70.3°F21.3°C 60.9°F16.1°C 72% 9.2 mph ENE14.8 kmh ENE 12.1 mph19.5 kmh 29.59 in1002.0 mb 0.00 in0.0 mm 0.00 in/hr0.0 mm/hr 0.00 in0.0 mm
12:34 PM 70.3°F21.3°C 60.9°F16.1°C 72% 9.0 mph E14.5 kmh E 12.1 mph19.5 kmh 29.60 in1002.4 mb 0.00 in0.0 mm 0.00 in/hr0.0 mm/hr 0.00 in0.0 mm
12:33 PM 70.5°F21.4°C 61.1°F16.2°C 72% 8.9 mph E14.3 kmh E 12.1 mph19.5 kmh 29.60 in1002.4 mb 0.00 in0.0 mm 0.00 in/hr0.0 mm/hr 0.00 in0.0 mm
12:32 PM 70.5°F21.4°C 60.7°F15.9°C 71% 8.8 mph E14.2 kmh E 12.1 mph19.5 kmh 29.60 in1002.4 mb 0.00 in0.0 mm 0.00 in/hr0.0 mm/hr 0.00 in0.0 mm
12:31 PM 70.7°F21.5°C 61.3°F16.3°C 72% 8.9 mph E14.3 kmh E 12.1 mph19.5 kmh 29.60 in1002.4 mb 0.00 in0.0 mm 0.00 in/hr0.0 mm/hr 0.00 in0.0 mm
12:30 PM 70.7°F21.5°C 61.3°F16.3°C 72% 8.9 mph E14.3 kmh E 12.1 mph19.5 kmh 29.60 in1002.4 mb 0.00 in0.0 mm 0.00 in/hr0.0 mm/hr 0.00 in0.0 mm
12:29 PM 70.9°F21.6°C 61.4°F16.3°C 72% 8.6 mph E13.8 kmh E 12.1 mph19.5 kmh 29.61 in1002.7 mb 0.00 in0.0 mm 0.00 in/hr0.0 mm/hr 0.00 in0.0 mm
12:28 PM 70.9°F21.6°C 61.4°F16.3°C 72% 8.2 mph ENE13.2 kmh ENE 11.4 mph18.3 kmh 29.61 in1002.7 mb 0.00 in0.0 mm 0.00 in/hr0.0 mm/hr 0.00 in0.0 mm
12:27 PM 70.9°F21.6°C 61.8°F16.6°C 73% 7.9 mph ENE12.7 kmh ENE 11.4 mph18.3 kmh 29.61 in1002.7 mb 0.00 in0.0 mm 0.00 in/hr0.0 mm/hr 0.00 in0.0 mm
12:26 PM 70.9°F21.6°C 61.8°F16.6°C 73% 7.7 mph ENE12.4 kmh ENE 11.4 mph18.3 kmh 29.61 in1002.7 mb 0.00 in0.0 mm 0.00 in/hr0.0 mm/hr 0.00 in0.0 mm
12:25 PM 70.9°F21.6°C 61.8°F16.6°C 73% 7.5 mph ENE12.1 kmh ENE 11.4 mph18.3 kmh 29.60 in1002.4 mb 0.00 in0.0 mm 0.00 in/hr0.0 mm/hr 0.00 in0.0 mm
12:24 PM 70.9°F21.6°C 61.8°F16.6°C 73% 7.3 mph ENE11.7 kmh ENE 11.4 mph18.3 kmh 29.60 in1002.4 mb 0.00 in0.0 mm 0.00 in/hr0.0 mm/hr 0.00 in0.0 mm
12:23 PM 70.9°F21.6°C 61.8°F16.6°C 73% 7.2 mph ENE11.6 kmh ENE 11.4 mph18.3 kmh 29.61 in1002.7 mb 0.00 in0.0 mm 0.00 in/hr0.0 mm/hr 0.00 in0.0 mm
12:22 PM 70.9°F21.6°C 61.4°F16.3°C 72% 7.0 mph ENE11.3 kmh ENE 11.4 mph18.3 kmh 29.61 in1002.7 mb 0.00 in0.0 mm 0.00 in/hr0.0 mm/hr 0.00 in0.0 mm
12:21 PM 70.9°F21.6°C 61.4°F16.3°C 72% 6.3 mph ENE10.1 kmh ENE 11.4 mph18.3 kmh 29.61 in1002.7 mb 0.00 in0.0 mm 0.00 in/hr0.0 mm/hr 0.00 in0.0 mm
12:20 PM 70.9°F21.6°C 62.2°F16.8°C 74% 5.6 mph E9.0 kmh E 8.3 mph13.4 kmh 29.61 in1002.7 mb 0.00 in0.0 mm 0.00 in/hr0.0 mm/hr 0.00 in0.0 mm
12:19 PM 70.7°F21.5°C 62.0°F16.7°C 74% 5.3 mph ENE8.5 kmh ENE 8.3 mph13.4 kmh 29.61 in1002.7 mb 0.00 in0.0 mm 0.00 in/hr0.0 mm/hr 0.00 in0.0 mm
12:18 PM 70.7°F21.5°C 62.4°F16.9°C 75% 4.9 mph ENE7.9 kmh ENE 6.9 mph11.1 kmh 29.61 in1002.7 mb 0.00 in0.0 mm 0.00 in/hr0.0 mm/hr 0.00 in0.0 mm
12:17 PM 70.7°F21.5°C 62.4°F16.9°C 75% 4.7 mph ENE7.6 kmh ENE 6.9 mph11.1 kmh 29.61 in1002.7 mb 0.00 in0.0 mm 0.00 in/hr0.0 mm/hr 0.00 in0.0 mm
12:16 PM 70.7°F21.5°C 62.8°F17.1°C 76% 4.7 mph ENE7.6 kmh ENE 6.9 mph11.1 kmh 29.61 in1002.7 mb 0.00 in0.0 mm 0.00 in/hr0.0 mm/hr 0.00 in0.0 mm
12:15 PM 70.3°F21.3°C 62.4°F16.9°C 76% 4.6 mph E7.4 kmh E 6.9 mph11.1 kmh 29.61 in1002.7 mb 0.00 in0.0 mm 0.00 in/hr0.0 mm/hr 0.00 in0.0 mm
12:14 PM 70.3°F21.3°C 62.4°F16.9°C 76% 4.5 mph ENE7.2 kmh ENE 6.9 mph11.1 kmh 29.61 in1002.7 mb 0.00 in0.0 mm 0.00 in/hr0.0 mm/hr 0.00 in0.0 mm
12:13 PM 70.2°F21.2°C 62.3°F16.8°C 76% 4.4 mph ENE7.1 kmh ENE 6.9 mph11.1 kmh 29.62 in1003.0 mb 0.00 in0.0 mm 0.00 in/hr0.0 mm/hr 0.00 in0.0 mm
12:12 PM 70.0°F21.1°C 62.1°F16.7°C 76% 4.5 mph E7.2 kmh E 9.8 mph15.8 kmh 29.62 in1003.0 mb 0.00 in0.0 mm 0.00 in/hr0.0 mm/hr 0.00 in0.0 mm
12:11 PM 69.8°F21.0°C 61.9°F16.6°C 76% 5.2 mph E8.4 kmh E 9.8 mph15.8 kmh 29.61 in1002.7 mb 0.00 in0.0 mm 0.00 in/hr0.0 mm/hr 0.00 in0.0 mm
12:10 PM 69.6°F20.9°C 61.7°F16.5°C 76% 5.9 mph E9.5 kmh E 10.7 mph17.2 kmh 29.61 in1002.7 mb 0.00 in0.0 mm 0.00 in/hr0.0 mm/hr 0.00 in0.0 mm
12:09 PM 69.6°F20.9°C 61.7°F16.5°C 76% 6.1 mph E9.8 kmh E 10.7 mph17.2 kmh 29.61 in1002.7 mb 0.00 in0.0 mm 0.00 in/hr0.0 mm/hr 0.00 in0.0 mm
12:08 PM 69.4°F20.8°C 61.6°F16.4°C 76% 6.4 mph E10.3 kmh E 10.7 mph17.2 kmh 29.61 in1002.7 mb 0.00 in0.0 mm 0.00 in/hr0.0 mm/hr 0.00 in0.0 mm
12:07 PM 69.3°F20.7°C 61.4°F16.3°C 76% 6.6 mph E10.6 kmh E 10.7 mph17.2 kmh 29.61 in1002.7 mb 0.00 in0.0 mm 0.00 in/hr0.0 mm/hr 0.00 in0.0 mm
12:06 PM 69.3°F20.7°C 61.4°F16.3°C 76% 6.7 mph E10.8 kmh E 10.7 mph17.2 kmh 29.62 in1003.0 mb 0.00 in0.0 mm 0.00 in/hr0.0 mm/hr 0.00 in0.0 mm
12:05 PM 69.3°F20.7°C 61.4°F16.3°C 76% 7.0 mph ENE11.3 kmh ENE 10.7 mph17.2 kmh 29.61 in1002.7 mb 0.00 in0.0 mm 0.00 in/hr0.0 mm/hr 0.00 in0.0 mm
12:04 PM 69.1°F20.6°C 60.8°F16.0°C 75% 6.9 mph ENE11.1 kmh ENE 10.7 mph17.2 kmh 29.61 in1002.7 mb 0.00 in0.0 mm 0.00 in/hr0.0 mm/hr 0.00 in0.0 mm
12:03 PM 69.1°F20.6°C 60.8°F16.0°C 75% 7.2 mph NE11.6 kmh NE 10.7 mph17.2 kmh 29.62 in1003.0 mb 0.00 in0.0 mm 0.00 in/hr0.0 mm/hr 0.00 in0.0 mm
12:02 PM 69.1°F20.6°C 60.8°F16.0°C 75% 7.2 mph NE11.6 kmh NE 10.7 mph17.2 kmh 29.62 in1003.0 mb 0.00 in0.0 mm 0.00 in/hr0.0 mm/hr 0.00 in0.0 mm
12:01 PM 69.1°F20.6°C 60.5°F15.8°C 74% 7.1 mph NE11.4 kmh NE 10.7 mph17.2 kmh 29.62 in1003.0 mb 0.00 in0.0 mm 0.00 in/hr0.0 mm/hr 0.00 in0.0 mm
12:00 PM 69.1°F20.6°C 60.5°F15.8°C 74% 6.9 mph NE11.1 kmh NE 10.7 mph17.2 kmh 29.62 in1003.0 mb 0.00 in0.0 mm 0.00 in/hr0.0 mm/hr 0.00 in0.0 mm
11:59 AM 69.3°F20.7°C 60.6°F15.9°C 74% 7.0 mph NNE11.3 kmh NNE 9.2 mph14.8 kmh 29.62 in1003.0 mb 0.00 in0.0 mm 0.00 in/hr0.0 mm/hr 0.00 in0.0 mm
11:58 AM 69.3°F20.7°C 60.6°F15.9°C 74% 7.0 mph NNE11.3 kmh NNE 9.2 mph14.8 kmh 29.62 in1003.0 mb 0.00 in0.0 mm 0.00 in/hr0.0 mm/hr 0.00 in0.0 mm
11:57 AM 69.3°F20.7°C 60.6°F15.9°C 74% 7.0 mph NNE11.3 kmh NNE 9.2 mph14.8 kmh 29.62 in1003.0 mb 0.00 in0.0 mm 0.00 in/hr0.0 mm/hr 0.00 in0.0 mm
11:56 AM 69.3°F20.7°C 60.6°F15.9°C 74% 6.8 mph NNE10.9 kmh NNE 9.2 mph14.8 kmh 29.62 in1003.0 mb 0.00 in0.0 mm 0.00 in/hr0.0 mm/hr 0.00 in0.0 mm
11:55 AM 69.4°F20.8°C 60.8°F16.0°C 74% 6.6 mph NE10.6 kmh NE 9.2 mph14.8 kmh 29.62 in1003.0 mb 0.00 in0.0 mm 0.00 in/hr0.0 mm/hr 0.00 in0.0 mm
11:54 AM 69.4°F20.8°C 60.8°F16.0°C 74% 6.6 mph NE10.6 kmh NE 9.2 mph14.8 kmh 29.62 in1003.0 mb 0.00 in0.0 mm 0.00 in/hr0.0 mm/hr 0.00 in0.0 mm
11:53 AM 69.4°F20.8°C 60.8°F16.0°C 74% 6.3 mph NE10.1 kmh NE 9.2 mph14.8 kmh 29.62 in1003.0 mb 0.00 in0.0 mm 0.00 in/hr0.0 mm/hr 0.00 in0.0 mm
11:52 AM 69.4°F20.8°C 60.8°F16.0°C 74% 6.3 mph NE10.1 kmh NE 9.2 mph14.8 kmh 29.62 in1003.0 mb 0.00 in0.0 mm 0.00 in/hr0.0 mm/hr 0.00 in0.0 mm
11:51 AM 69.6°F20.9°C 61.0°F16.1°C 74% 6.1 mph NE9.8 kmh NE 9.2 mph14.8 kmh 29.62 in1003.0 mb 0.00 in0.0 mm 0.00 in/hr0.0 mm/hr 0.00 in0.0 mm
11:50 AM 69.4°F20.8°C 61.2°F16.2°C 75% 6.1 mph NE9.8 kmh NE 9.2 mph14.8 kmh 29.62 in1003.0 mb 0.00 in0.0 mm 0.00 in/hr0.0 mm/hr 0.00 in0.0 mm
11:49 AM 69.4°F20.8°C 61.2°F16.2°C 75% 6.1 mph NE9.8 kmh NE 8.3 mph13.4 kmh 29.62 in1003.0 mb 0.00 in0.0 mm 0.00 in/hr0.0 mm/hr 0.00 in0.0 mm
11:48 AM 69.4°F20.8°C 61.6°F16.4°C 76% 6.0 mph NE9.7 kmh NE 9.8 mph15.8 kmh 29.62 in1003.0 mb 0.00 in0.0 mm 0.00 in/hr0.0 mm/hr 0.00 in0.0 mm
11:47 AM 69.3°F20.7°C 61.4°F16.3°C 76% 6.1 mph NE9.8 kmh NE 9.8 mph15.8 kmh 29.62 in1003.0 mb 0.00 in0.0 mm 0.00 in/hr0.0 mm/hr 0.00 in0.0 mm
11:46 AM 69.1°F20.6°C 61.2°F16.2°C 76% 6.2 mph NE10.0 kmh NE 9.8 mph15.8 kmh 29.62 in1003.0 mb 0.00 in0.0 mm 0.00 in/hr0.0 mm/hr 0.00 in0.0 mm
11:45 AM 69.1°F20.6°C 61.2°F16.2°C 76% 6.4 mph NE10.3 kmh NE 9.8 mph15.8 kmh 29.62 in1003.0 mb 0.00 in0.0 mm 0.00 in/hr0.0 mm/hr 0.00 in0.0 mm
11:44 AM 68.9°F20.5°C 61.0°F16.1°C 76% 6.8 mph NE10.9 kmh NE 9.8 mph15.8 kmh 29.62 in1003.0 mb 0.00 in0.0 mm 0.00 in/hr0.0 mm/hr 0.00 in0.0 mm
11:43 AM 68.7°F20.4°C 60.9°F16.1°C 76% 7.0 mph NE11.3 kmh NE 9.8 mph15.8 kmh 29.62 in1003.0 mb 0.00 in0.0 mm 0.00 in/hr0.0 mm/hr 0.00 in0.0 mm
11:42 AM 68.5°F20.3°C 60.7°F15.9°C 76% 6.9 mph ENE11.1 kmh ENE 9.8 mph15.8 kmh 29.62 in1003.0 mb 0.00 in0.0 mm 0.00 in/hr0.0 mm/hr 0.00 in0.0 mm
11:41 AM 68.5°F20.3°C 61.1°F16.2°C 77% 7.2 mph ENE11.6 kmh ENE 9.8 mph15.8 kmh 29.62 in1003.0 mb 0.00 in0.0 mm 0.00 in/hr0.0 mm/hr 0.00 in0.0 mm
11:40 AM 68.4°F20.2°C 60.5°F15.8°C 76% 7.1 mph ENE11.4 kmh ENE 9.8 mph15.8 kmh 29.62 in1003.0 mb 0.00 in0.0 mm 0.00 in/hr0.0 mm/hr 0.00 in0.0 mm
11:39 AM 68.2°F20.1°C 60.4°F15.8°C 76% 7.3 mph ENE11.7 kmh ENE 9.8 mph15.8 kmh 29.62 in1003.0 mb 0.00 in0.0 mm 0.00 in/hr0.0 mm/hr 0.00 in0.0 mm
11:38 AM 68.2°F20.1°C 60.4°F15.8°C 76% 7.4 mph ENE11.9 kmh ENE 9.8 mph15.8 kmh 29.62 in1003.0 mb 0.00 in0.0 mm 0.00 in/hr0.0 mm/hr 0.00 in0.0 mm
11:37 AM 68.0°F20.0°C 60.2°F15.7°C 76% 7.3 mph ENE11.7 kmh ENE 9.2 mph14.8 kmh 29.62 in1003.0 mb 0.00 in0.0 mm 0.00 in/hr0.0 mm/hr 0.00 in0.0 mm
11:36 AM 68.0°F20.0°C 60.2°F15.7°C 76% 7.4 mph ENE11.9 kmh ENE 9.2 mph14.8 kmh 29.62 in1003.0 mb 0.00 in0.0 mm 0.00 in/hr0.0 mm/hr 0.00 in0.0 mm
11:35 AM 68.0°F20.0°C 60.2°F15.7°C 76% 7.4 mph ENE11.9 kmh ENE 9.2 mph14.8 kmh 29.62 in1003.0 mb 0.00 in0.0 mm 0.00 in/hr0.0 mm/hr 0.00 in0.0 mm
11:34 AM 68.0°F20.0°C 60.2°F15.7°C 76% 7.4 mph E11.9 kmh E 9.2 mph14.8 kmh 29.62 in1003.0 mb 0.00 in0.0 mm 0.00 in/hr0.0 mm/hr 0.00 in0.0 mm
11:33 AM 68.0°F20.0°C 60.2°F15.7°C 76% 7.4 mph E11.9 kmh E 9.2 mph14.8 kmh 29.62 in1003.0 mb 0.00 in0.0 mm 0.00 in/hr0.0 mm/hr 0.00 in0.0 mm
11:32 AM 68.0°F20.0°C 59.8°F15.4°C 75% 7.8 mph E12.6 kmh E 9.2 mph14.8 kmh 29.62 in1003.0 mb 0.00 in0.0 mm 0.00 in/hr0.0 mm/hr 0.00 in0.0 mm
11:31 AM 68.2°F20.1°C 60.0°F15.6°C 75% 7.6 mph ENE12.2 kmh ENE 9.2 mph14.8 kmh 29.62 in1003.0 mb 0.00 in0.0 mm 0.00 in/hr0.0 mm/hr 0.00 in0.0 mm
11:30 AM 68.4°F20.2°C 59.8°F15.4°C 74% 7.7 mph ENE12.4 kmh ENE 9.2 mph14.8 kmh 29.62 in1003.0 mb 0.00 in0.0 mm 0.00 in/hr0.0 mm/hr 0.00 in0.0 mm
11:29 AM 69.1°F20.6°C 61.6°F16.4°C 77% 4.6 mph NE7.4 kmh NE 5.4 mph8.7 kmh 29.64 in1003.7 mb 0.00 in0.0 mm 0.00 in/hr0.0 mm/hr 0.00 in0.0 mm
11:28 AM 68.5°F20.3°C 59.9°F15.5°C 74% 6.0 mph E9.7 kmh E 7.6 mph12.2 kmh 29.62 in1003.0 mb 0.00 in0.0 mm 0.00 in/hr0.0 mm/hr 0.00 in0.0 mm
11:23 AM 69.4°F20.8°C 60.0°F15.6°C 72% 6.3 mph E10.1 kmh E 7.6 mph12.2 kmh 29.63 in1003.4 mb 0.00 in0.0 mm 0.00 in/hr0.0 mm/hr 0.00 in0.0 mm
11:18 AM 70.3°F21.3°C 60.5°F15.8°C 71% 6.3 mph NE10.1 kmh NE 7.6 mph12.2 kmh 29.62 in1003.0 mb 0.00 in0.0 mm 0.00 in/hr0.0 mm/hr 0.00 in0.0 mm
08:59 AM 58.6°F14.8°C 58.4°F14.7°C 99% 2.7 mph WNW4.3 kmh WNW 4.5 mph7.2 kmh 29.64 in1003.7 mb 0.00 in0.0 mm 0.00 in/hr0.0 mm/hr 0.00 in0.0 mm
08:58 AM 58.6°F14.8°C 58.4°F14.7°C 99% 2.6 mph WNW4.2 kmh WNW 4.5 mph7.2 kmh 29.64 in1003.7 mb 0.00 in0.0 mm 0.00 in/hr0.0 mm/hr 0.00 in0.0 mm
08:57 AM 58.6°F14.8°C 58.4°F14.7°C 99% 2.7 mph WNW4.3 kmh WNW 4.5 mph7.2 kmh 29.64 in1003.7 mb 0.00 in0.0 mm 0.00 in/hr0.0 mm/hr 0.00 in0.0 mm
08:56 AM 58.6°F14.8°C 58.4°F14.7°C 99% 2.6 mph WNW4.2 kmh WNW 4.5 mph7.2 kmh 29.64 in1003.7 mb 0.00 in0.0 mm 0.00 in/hr0.0 mm/hr 0.00 in0.0 mm
08:55 AM 58.6°F14.8°C 58.4°F14.7°C 99% 2.7 mph WNW4.3 kmh WNW 4.5 mph7.2 kmh 29.64 in1003.7 mb 0.00 in0.0 mm 0.00 in/hr0.0 mm/hr 0.00 in0.0 mm
08:54 AM 58.6°F14.8°C 58.4°F14.7°C 99% 2.7 mph NW4.3 kmh NW 4.5 mph7.2 kmh 29.63 in1003.4 mb 0.00 in0.0 mm 0.00 in/hr0.0 mm/hr 0.00 in0.0 mm
08:53 AM 58.5°F14.7°C 58.2°F14.6°C 99% 2.5 mph NW4.0 kmh NW 4.5 mph7.2 kmh 29.63 in1003.4 mb 0.00 in0.0 mm 0.00 in/hr0.0 mm/hr 0.00 in0.0 mm
08:52 AM 58.5°F14.7°C 58.2°F14.6°C 99% 2.3 mph NW3.7 kmh NW 4.5 mph7.2 kmh 29.63 in1003.4 mb 0.00 in0.0 mm 0.00 in/hr0.0 mm/hr 0.00 in0.0 mm
08:51 AM 58.5°F14.7°C 58.2°F14.6°C 99% 2.0 mph NW3.2 kmh NW 4.5 mph7.2 kmh 29.63 in1003.4 mb 0.00 in0.0 mm 0.00 in/hr0.0 mm/hr 0.00 in0.0 mm
08:50 AM 58.3°F14.6°C 58.0°F14.4°C 99% 1.8 mph NW2.9 kmh NW 3.1 mph5.0 kmh 29.63 in1003.4 mb 0.00 in0.0 mm 0.00 in/hr0.0 mm/hr 0.00 in0.0 mm
08:49 AM 58.3°F14.6°C 58.0°F14.4°C 99% 1.8 mph NW2.9 kmh NW 3.1 mph5.0 kmh 29.63 in1003.4 mb 0.00 in0.0 mm 0.00 in/hr0.0 mm/hr 0.00 in0.0 mm
08:48 AM 58.1°F14.5°C 57.8°F14.3°C 99% 1.7 mph NW2.7 kmh NW 3.1 mph5.0 kmh 29.63 in1003.4 mb 0.00 in0.0 mm 0.00 in/hr0.0 mm/hr 0.00 in0.0 mm
08:47 AM 58.1°F14.5°C 57.8°F14.3°C 99% 1.6 mph NNW2.6 kmh NNW 3.1 mph5.0 kmh 29.63 in1003.4 mb 0.00 in0.0 mm 0.00 in/hr0.0 mm/hr 0.00 in0.0 mm
08:46 AM 57.9°F14.4°C 57.7°F14.3°C 99% 1.7 mph NNW2.7 kmh NNW 3.1 mph5.0 kmh 29.63 in1003.4 mb 0.00 in0.0 mm 0.00 in/hr0.0 mm/hr 0.00 in0.0 mm
08:45 AM 57.7°F14.3°C 57.5°F14.2°C 99% 1.6 mph N2.6 kmh N 3.1 mph5.0 kmh 29.63 in1003.4 mb 0.00 in0.0 mm 0.00 in/hr0.0 mm/hr 0.00 in0.0 mm
08:44 AM 57.7°F14.3°C 57.5°F14.2°C 99% 1.5 mph N2.4 kmh N 2.2 mph3.5 kmh 29.63 in1003.4 mb 0.00 in0.0 mm 0.00 in/hr0.0 mm/hr 0.00 in0.0 mm
08:43 AM 57.6°F14.2°C 57.3°F14.1°C 99% 1.5 mph N2.4 kmh N 2.2 mph3.5 kmh 29.63 in1003.4 mb 0.00 in0.0 mm 0.00 in/hr0.0 mm/hr 0.00 in0.0 mm
08:42 AM 57.4°F14.1°C 57.1°F13.9°C 99% 1.4 mph N2.3 kmh N 2.2 mph3.5 kmh 29.63 in1003.4 mb 0.00 in0.0 mm 0.00 in/hr0.0 mm/hr 0.00 in0.0 mm
08:41 AM 57.2°F14.0°C 56.9°F13.8°C 99% 1.4 mph N2.3 kmh N 2.2 mph3.5 kmh 29.63 in1003.4 mb 0.00 in0.0 mm 0.00 in/hr0.0 mm/hr 0.00 in0.0 mm
08:40 AM 57.2°F14.0°C 56.9°F13.8°C 99% 1.3 mph N2.1 kmh N 2.2 mph3.5 kmh 29.63 in1003.4 mb 0.00 in0.0 mm 0.00 in/hr0.0 mm/hr 0.00 in0.0 mm
08:39 AM 57.0°F13.9°C 56.8°F13.8°C 99% 1.1 mph N1.8 kmh N 2.2 mph3.5 kmh 29.63 in1003.4 mb 0.00 in0.0 mm 0.00 in/hr0.0 mm/hr 0.00 in0.0 mm
08:38 AM 56.8°F13.8°C 56.6°F13.7°C 99% 1.2 mph N1.9 kmh N 2.2 mph3.5 kmh 29.63 in1003.4 mb 0.00 in0.0 mm 0.00 in/hr0.0 mm/hr 0.00 in0.0 mm
08:37 AM 56.8°F13.8°C 56.6°F13.7°C 99% 1.2 mph N1.9 kmh N 2.2 mph3.5 kmh 29.63 in1003.4 mb 0.00 in0.0 mm 0.00 in/hr0.0 mm/hr 0.00 in0.0 mm
08:36 AM 56.7°F13.7°C 56.4°F13.6°C 99% 1.2 mph NNW1.9 kmh NNW 2.2 mph3.5 kmh 29.63 in1003.4 mb 0.00 in0.0 mm 0.00 in/hr0.0 mm/hr 0.00 in0.0 mm
08:35 AM 56.5°F13.6°C 56.2°F13.4°C 99% 1.3 mph NW2.1 kmh NW 2.2 mph3.5 kmh 29.63 in1003.4 mb 0.00 in0.0 mm 0.00 in/hr0.0 mm/hr 0.00 in0.0 mm
08:34 AM 56.3°F13.5°C 56.0°F13.3°C 99% 1.3 mph NW2.1 kmh NW 2.2 mph3.5 kmh 29.63 in1003.4 mb 0.00 in0.0 mm 0.00 in/hr0.0 mm/hr 0.00 in0.0 mm
08:33 AM 56.1°F13.4°C 55.9°F13.3°C 99% 1.3 mph NW2.1 kmh NW 2.2 mph3.5 kmh 29.63 in1003.4 mb 0.00 in0.0 mm 0.00 in/hr0.0 mm/hr 0.00 in0.0 mm
08:32 AM 55.9°F13.3°C 55.7°F13.2°C 99% 1.3 mph NW2.1 kmh NW 2.2 mph3.5 kmh 29.63 in1003.4 mb 0.00 in0.0 mm 0.00 in/hr0.0 mm/hr 0.00 in0.0 mm
08:31 AM 55.8°F13.2°C 55.5°F13.1°C 99% 1.4 mph NW2.3 kmh NW 2.2 mph3.5 kmh 29.63 in1003.4 mb 0.00 in0.0 mm 0.00 in/hr0.0 mm/hr 0.00 in0.0 mm
08:30 AM 55.8°F13.2°C 55.5°F13.1°C 99% 1.4 mph NW2.3 kmh NW 2.2 mph3.5 kmh 29.63 in1003.4 mb 0.00 in0.0 mm 0.00 in/hr0.0 mm/hr 0.00 in0.0 mm
08:29 AM 55.6°F13.1°C 55.3°F12.9°C 99% 1.5 mph NW2.4 kmh NW 2.2 mph3.5 kmh 29.63 in1003.4 mb 0.00 in0.0 mm 0.00 in/hr0.0 mm/hr 0.00 in0.0 mm
08:28 AM 55.6°F13.1°C 55.3°F12.9°C 99% 1.5 mph NW2.4 kmh NW 2.2 mph3.5 kmh 29.63 in1003.4 mb 0.00 in0.0 mm 0.00 in/hr0.0 mm/hr 0.00 in0.0 mm
08:27 AM 55.4°F13.0°C 55.1°F12.8°C 99% 1.5 mph NW2.4 kmh NW 2.2 mph3.5 kmh 29.63 in1003.4 mb 0.00 in0.0 mm 0.00 in/hr0.0 mm/hr 0.00 in0.0 mm
08:26 AM 55.2°F12.9°C 55.0°F12.8°C 99% 1.6 mph NNW2.6 kmh NNW 2.2 mph3.5 kmh 29.63 in1003.4 mb 0.00 in0.0 mm 0.00 in/hr0.0 mm/hr 0.00 in0.0 mm
08:25 AM 55.0°F12.8°C 54.8°F12.7°C 99% 1.5 mph NNW2.4 kmh NNW 2.2 mph3.5 kmh 29.63 in1003.4 mb 0.00 in0.0 mm 0.00 in/hr0.0 mm/hr 0.00 in0.0 mm
08:24 AM 55.0°F12.8°C 54.8°F12.7°C 99% 1.5 mph NNW2.4 kmh NNW 2.2 mph3.5 kmh 29.63 in1003.4 mb 0.00 in0.0 mm 0.00 in/hr0.0 mm/hr 0.00 in0.0 mm
08:23 AM 54.9°F12.7°C 54.6°F12.6°C 99% 1.4 mph NNW2.3 kmh NNW 2.2 mph3.5 kmh 29.63 in1003.4 mb 0.00 in0.0 mm 0.00 in/hr0.0 mm/hr 0.00 in0.0 mm
08:22 AM 54.7°F12.6°C 54.4°F12.4°C 99% 1.4 mph NNW2.3 kmh NNW 2.2 mph3.5 kmh 29.63 in1003.4 mb 0.00 in0.0 mm 0.00 in/hr0.0 mm/hr 0.00 in0.0 mm
08:21 AM 54.7°F12.6°C 54.4°F12.4°C 99% 1.4 mph NNW2.3 kmh NNW 2.2 mph3.5 kmh 29.63 in1003.4 mb 0.00 in0.0 mm 0.00 in/hr0.0 mm/hr 0.00 in0.0 mm
08:20 AM 54.5°F12.5°C 54.2°F12.3°C 99% 1.5 mph NNW2.4 kmh NNW 3.1 mph5.0 kmh 29.63 in1003.4 mb 0.00 in0.0 mm 0.00 in/hr0.0 mm/hr 0.00 in0.0 mm
08:19 AM 54.3°F12.4°C 54.1°F12.3°C 99% 1.6 mph NNW2.6 kmh NNW 3.1 mph5.0 kmh 29.63 in1003.4 mb 0.00 in0.0 mm 0.00 in/hr0.0 mm/hr 0.00 in0.0 mm
08:18 AM 54.3°F12.4°C 54.1°F12.3°C 99% 1.6 mph NW2.6 kmh NW 3.1 mph5.0 kmh 29.63 in1003.4 mb 0.00 in0.0 mm 0.00 in/hr0.0 mm/hr 0.00 in0.0 mm
08:17 AM 54.1°F12.3°C 53.9°F12.2°C 99% 1.6 mph NW2.6 kmh NW 3.1 mph5.0 kmh 29.63 in1003.4 mb 0.00 in0.0 mm 0.00 in/hr0.0 mm/hr 0.00 in0.0 mm
08:16 AM 54.0°F12.2°C 53.7°F12.1°C 99% 1.5 mph NW2.4 kmh NW 3.1 mph5.0 kmh 29.63 in1003.4 mb 0.00 in0.0 mm 0.00 in/hr0.0 mm/hr 0.00 in0.0 mm
08:15 AM 53.8°F12.1°C 53.5°F11.9°C 99% 1.4 mph NW2.3 kmh NW 3.1 mph5.0 kmh 29.63 in1003.4 mb 0.00 in0.0 mm 0.00 in/hr0.0 mm/hr 0.00 in0.0 mm
08:14 AM 53.8°F12.1°C 53.5°F11.9°C 99% 1.3 mph NW2.1 kmh NW 3.1 mph5.0 kmh 29.63 in1003.4 mb 0.00 in0.0 mm 0.00 in/hr0.0 mm/hr 0.00 in0.0 mm
08:13 AM 53.6°F12.0°C 53.3°F11.8°C 99% 1.2 mph NW1.9 kmh NW 3.1 mph5.0 kmh 29.63 in1003.4 mb 0.00 in0.0 mm 0.00 in/hr0.0 mm/hr 0.00 in0.0 mm
08:12 AM 53.6°F12.0°C 53.3°F11.8°C 99% 1.2 mph NW1.9 kmh NW 3.1 mph5.0 kmh 29.63 in1003.4 mb 0.00 in0.0 mm 0.00 in/hr0.0 mm/hr 0.00 in0.0 mm
08:11 AM 53.4°F11.9°C 53.2°F11.8°C 99% 1.3 mph NW2.1 kmh NW 3.1 mph5.0 kmh 29.63 in1003.4 mb 0.00 in0.0 mm 0.00 in/hr0.0 mm/hr 0.00 in0.0 mm
08:10 AM 53.2°F11.8°C 53.0°F11.7°C 99% 1.2 mph WNW1.9 kmh WNW 3.1 mph5.0 kmh 29.62 in1003.0 mb 0.00 in0.0 mm 0.00 in/hr0.0 mm/hr 0.00 in0.0 mm
08:09 AM 53.2°F11.8°C 53.0°F11.7°C 99% 1.1 mph W1.8 kmh W 2.2 mph3.5 kmh 29.62 in1003.0 mb 0.00 in0.0 mm 0.00 in/hr0.0 mm/hr 0.00 in0.0 mm
08:08 AM 53.1°F11.7°C 52.8°F11.6°C 99% 1.2 mph WSW1.9 kmh WSW 2.2 mph3.5 kmh 29.62 in1003.0 mb 0.00 in0.0 mm 0.00 in/hr0.0 mm/hr 0.00 in0.0 mm
08:07 AM 52.9°F11.6°C 52.6°F11.4°C 99% 1.2 mph WSW1.9 kmh WSW 2.2 mph3.5 kmh 29.63 in1003.4 mb 0.00 in0.0 mm 0.00 in/hr0.0 mm/hr 0.00 in0.0 mm
08:06 AM 52.9°F11.6°C 52.6°F11.4°C 99% 1.4 mph SW2.3 kmh SW 2.2 mph3.5 kmh 29.63 in1003.4 mb 0.00 in0.0 mm 0.00 in/hr0.0 mm/hr 0.00 in0.0 mm
08:05 AM 52.7°F11.5°C 52.4°F11.3°C 99% 1.5 mph SW2.4 kmh SW 2.2 mph3.5 kmh 29.63 in1003.4 mb 0.00 in0.0 mm 0.00 in/hr0.0 mm/hr 0.00 in0.0 mm
08:04 AM 52.7°F11.5°C 52.4°F11.3°C 99% 1.5 mph SW2.4 kmh SW 2.2 mph3.5 kmh 29.63 in1003.4 mb 0.00 in0.0 mm 0.00 in/hr0.0 mm/hr 0.00 in0.0 mm
08:03 AM 52.5°F11.4°C 52.3°F11.3°C 99% 1.7 mph SW2.7 kmh SW 2.2 mph3.5 kmh 29.63 in1003.4 mb 0.00 in0.0 mm 0.00 in/hr0.0 mm/hr 0.00 in0.0 mm
08:02 AM 52.5°F11.4°C 52.3°F11.3°C 99% 1.8 mph WSW2.9 kmh WSW 2.2 mph3.5 kmh 29.63 in1003.4 mb 0.00 in0.0 mm 0.00 in/hr0.0 mm/hr 0.00 in0.0 mm
08:01 AM 52.5°F11.4°C 52.3°F11.3°C 99% 1.7 mph WSW2.7 kmh WSW 2.2 mph3.5 kmh 29.62 in1003.0 mb 0.00 in0.0 mm 0.00 in/hr0.0 mm/hr 0.00 in0.0 mm
08:00 AM 52.5°F11.4°C 52.3°F11.3°C 99% 1.7 mph WSW2.7 kmh WSW 2.2 mph3.5 kmh 29.63 in1003.4 mb 0.00 in0.0 mm 0.00 in/hr0.0 mm/hr 0.00 in0.0 mm
07:59 AM 52.3°F11.3°C 52.1°F11.2°C 99% 1.8 mph WSW2.9 kmh WSW 2.2 mph3.5 kmh 29.62 in1003.0 mb 0.00 in0.0 mm 0.00 in/hr0.0 mm/hr 0.00 in0.0 mm
07:58 AM 52.3°F11.3°C 52.1°F11.2°C 99% 1.8 mph W2.9 kmh W 3.1 mph5.0 kmh 29.63 in1003.4 mb 0.00 in0.0 mm 0.00 in/hr0.0 mm/hr 0.00 in0.0 mm
07:57 AM 52.3°F11.3°C 52.1°F11.2°C 99% 1.9 mph WNW3.1 kmh WNW 3.1 mph5.0 kmh 29.62 in1003.0 mb 0.00 in0.0 mm 0.00 in/hr0.0 mm/hr 0.00 in0.0 mm
07:56 AM 52.3°F11.3°C 52.1°F11.2°C 99% 2.0 mph WNW3.2 kmh WNW 3.1 mph5.0 kmh 29.62 in1003.0 mb 0.00 in0.0 mm 0.00 in/hr0.0 mm/hr 0.00 in0.0 mm
07:55 AM 52.2°F11.2°C 51.9°F11.1°C 99% 2.0 mph WNW3.2 kmh WNW 3.1 mph5.0 kmh 29.62 in1003.0 mb 0.00 in0.0 mm 0.00 in/hr0.0 mm/hr 0.00 in0.0 mm
07:54 AM 52.2°F11.2°C 51.9°F11.1°C 99% 2.1 mph NW3.4 kmh NW 3.1 mph5.0 kmh 29.62 in1003.0 mb 0.00 in0.0 mm 0.00 in/hr0.0 mm/hr 0.00 in0.0 mm
07:53 AM 52.2°F11.2°C 51.9°F11.1°C 99% 2.1 mph NW3.4 kmh NW 3.1 mph5.0 kmh 29.63 in1003.4 mb 0.00 in0.0 mm 0.00 in/hr0.0 mm/hr 0.00 in0.0 mm
07:52 AM 52.0°F11.1°C 51.7°F10.9°C 99% 2.0 mph NW3.2 kmh NW 3.1 mph5.0 kmh 29.63 in1003.4 mb 0.00 in0.0 mm 0.00 in/hr0.0 mm/hr 0.00 in0.0 mm
07:51 AM 52.0°F11.1°C 51.7°F10.9°C 99% 2.1 mph NW3.4 kmh NW 3.1 mph5.0 kmh 29.62 in1003.0 mb 0.00 in0.0 mm 0.00 in/hr0.0 mm/hr 0.00 in0.0 mm
07:50 AM 51.8°F11.0°C 51.5°F10.8°C 99% 2.0 mph NW3.2 kmh NW 3.1 mph5.0 kmh 29.62 in1003.0 mb 0.00 in0.0 mm 0.00 in/hr0.0 mm/hr 0.00 in0.0 mm
07:49 AM 51.8°F11.0°C 51.5°F10.8°C 99% 2.0 mph NW3.2 kmh NW 3.1 mph5.0 kmh 29.62 in1003.0 mb 0.00 in0.0 mm 0.00 in/hr0.0 mm/hr 0.00 in0.0 mm
07:48 AM 51.8°F11.0°C 51.5°F10.8°C 99% 1.8 mph NW2.9 kmh NW 3.1 mph5.0 kmh 29.62 in1003.0 mb 0.00 in0.0 mm 0.00 in/hr0.0 mm/hr 0.00 in0.0 mm
07:47 AM 51.6°F10.9°C 51.4°F10.8°C 99% 1.5 mph NW2.4 kmh NW 3.1 mph5.0 kmh 29.62 in1003.0 mb 0.00 in0.0 mm 0.00 in/hr0.0 mm/hr 0.00 in0.0 mm
07:46 AM 51.6°F10.9°C 51.4°F10.8°C 99% 1.3 mph NW2.1 kmh NW 2.2 mph3.5 kmh 29.62 in1003.0 mb 0.00 in0.0 mm 0.00 in/hr0.0 mm/hr 0.00 in0.0 mm
07:45 AM 51.4°F10.8°C 51.2°F10.7°C 99% 1.1 mph NW1.8 kmh NW 2.2 mph3.5 kmh 29.62 in1003.0 mb 0.00 in0.0 mm 0.00 in/hr0.0 mm/hr 0.00 in0.0 mm
07:44 AM 51.4°F10.8°C 51.2°F10.7°C 99% 0.9 mph NW1.4 kmh NW 2.2 mph3.5 kmh 29.62 in1003.0 mb 0.00 in0.0 mm 0.00 in/hr0.0 mm/hr 0.00 in0.0 mm
07:43 AM 51.3°F10.7°C 51.0°F10.6°C 99% 0.9 mph NW1.4 kmh NW 2.2 mph3.5 kmh 29.62 in1003.0 mb 0.00 in0.0 mm 0.00 in/hr0.0 mm/hr 0.00 in0.0 mm
07:42 AM 51.3°F10.7°C 51.0°F10.6°C 99% 0.8 mph NW1.3 kmh NW 2.2 mph3.5 kmh 29.62 in1003.0 mb 0.00 in0.0 mm 0.00 in/hr0.0 mm/hr 0.00 in0.0 mm
07:41 AM 51.1°F10.6°C 50.8°F10.4°C 99% 0.8 mph NW1.3 kmh NW 2.2 mph3.5 kmh 29.62 in1003.0 mb 0.00 in0.0 mm 0.00 in/hr0.0 mm/hr 0.00 in0.0 mm
07:40 AM 51.1°F10.6°C 50.8°F10.4°C 99% 0.7 mph NW1.1 kmh NW 2.2 mph3.5 kmh 29.62 in1003.0 mb 0.00 in0.0 mm 0.00 in/hr0.0 mm/hr 0.00 in0.0 mm
07:39 AM 50.9°F10.5°C 50.6°F10.3°C 99% 0.4 mph NW0.6 kmh NW 1.6 mph2.6 kmh 29.62 in1003.0 mb 0.00 in0.0 mm 0.00 in/hr0.0 mm/hr 0.00 in0.0 mm
07:38 AM 50.9°F10.5°C 50.6°F10.3°C 99% 0.4 mph NW0.6 kmh NW 1.6 mph2.6 kmh 29.62 in1003.0 mb 0.00 in0.0 mm 0.00 in/hr0.0 mm/hr 0.00 in0.0 mm
07:37 AM 50.7°F10.4°C 50.5°F10.3°C 99% 0.4 mph WNW0.6 kmh WNW 1.6 mph2.6 kmh 29.62 in1003.0 mb 0.00 in0.0 mm 0.00 in/hr0.0 mm/hr 0.00 in0.0 mm
07:36 AM 50.7°F10.4°C 50.5°F10.3°C 99% 0.5 mph W0.8 kmh W 1.6 mph2.6 kmh 29.62 in1003.0 mb 0.00 in0.0 mm 0.00 in/hr0.0 mm/hr 0.00 in0.0 mm
07:35 AM 50.5°F10.3°C 50.3°F10.2°C 99% 0.6 mph W1.0 kmh W 1.6 mph2.6 kmh 29.62 in1003.0 mb 0.00 in0.0 mm 0.00 in/hr0.0 mm/hr 0.00 in0.0 mm
07:34 AM 50.4°F10.2°C 50.1°F10.1°C 99% 0.7 mph WNW1.1 kmh WNW 1.6 mph2.6 kmh 29.62 in1003.0 mb 0.00 in0.0 mm 0.00 in/hr0.0 mm/hr 0.00 in0.0 mm
07:33 AM 50.4°F10.2°C 50.1°F10.1°C 99% 0.7 mph WNW1.1 kmh WNW 1.6 mph2.6 kmh 29.62 in1003.0 mb 0.00 in0.0 mm 0.00 in/hr0.0 mm/hr 0.00 in0.0 mm
07:32 AM 50.4°F10.2°C 50.1°F10.1°C 99% 0.8 mph WNW1.3 kmh WNW 3.1 mph5.0 kmh 29.62 in1003.0 mb 0.00 in0.0 mm 0.00 in/hr0.0 mm/hr 0.00 in0.0 mm
07:31 AM 50.2°F10.1°C 49.9°F9.9°C 99% 1.1 mph WNW1.8 kmh WNW 3.1 mph5.0 kmh 29.62 in1003.0 mb 0.00 in0.0 mm 0.00 in/hr0.0 mm/hr 0.00 in0.0 mm
07:30 AM 50.0°F10.0°C 49.7°F9.8°C 99% 1.3 mph WNW2.1 kmh WNW 3.1 mph5.0 kmh 29.62 in1003.0 mb 0.00 in0.0 mm 0.00 in/hr0.0 mm/hr 0.00 in0.0 mm
07:29 AM 50.0°F10.0°C 49.7°F9.8°C 99% 1.5 mph WNW2.4 kmh WNW 3.1 mph5.0 kmh 29.62 in1003.0 mb 0.00 in0.0 mm 0.00 in/hr0.0 mm/hr 0.00 in0.0 mm
07:28 AM 50.0°F10.0°C 49.7°F9.8°C 99% 1.8 mph WNW2.9 kmh WNW 3.1 mph5.0 kmh 29.62 in1003.0 mb 0.00 in0.0 mm 0.00 in/hr0.0 mm/hr 0.00 in0.0 mm
07:27 AM 49.8°F9.9°C 49.6°F9.8°C 99% 1.8 mph WNW2.9 kmh WNW 3.1 mph5.0 kmh 29.62 in1003.0 mb 0.00 in0.0 mm 0.00 in/hr0.0 mm/hr 0.00 in0.0 mm
07:26 AM 49.8°F9.9°C 49.6°F9.8°C 99% 1.8 mph WNW2.9 kmh WNW 3.1 mph5.0 kmh 29.62 in1003.0 mb 0.00 in0.0 mm 0.00 in/hr0.0 mm/hr 0.00 in0.0 mm
07:25 AM 49.6°F9.8°C 49.4°F9.7°C 99% 1.8 mph WNW2.9 kmh WNW 3.1 mph5.0 kmh 29.62 in1003.0 mb 0.00 in0.0 mm 0.00 in/hr0.0 mm/hr 0.00 in0.0 mm
07:24 AM 49.6°F9.8°C 49.4°F9.7°C 99% 1.8 mph WNW2.9 kmh WNW 3.1 mph5.0 kmh 29.62 in1003.0 mb 0.00 in0.0 mm 0.00 in/hr0.0 mm/hr 0.00 in0.0 mm
07:23 AM 49.5°F9.7°C 49.2°F9.6°C 99% 1.7 mph WNW2.7 kmh WNW 3.1 mph5.0 kmh 29.62 in1003.0 mb 0.00 in0.0 mm 0.00 in/hr0.0 mm/hr 0.00 in0.0 mm
07:22 AM 49.3°F9.6°C 49.0°F9.4°C 99% 1.5 mph W2.4 kmh W 3.1 mph5.0 kmh 29.62 in1003.0 mb 0.00 in0.0 mm 0.00 in/hr0.0 mm/hr 0.00 in0.0 mm
07:21 AM 49.3°F9.6°C 49.0°F9.4°C 99% 1.3 mph WNW2.1 kmh WNW 3.1 mph5.0 kmh 29.62 in1003.0 mb 0.00 in0.0 mm 0.00 in/hr0.0 mm/hr 0.00 in0.0 mm
07:20 AM 49.3°F9.6°C 49.0°F9.4°C 99% 1.2 mph WNW1.9 kmh WNW 2.2 mph3.5 kmh 29.62 in1003.0 mb 0.00 in0.0 mm 0.00 in/hr0.0 mm/hr 0.00 in0.0 mm
07:19 AM 49.1°F9.5°C 48.8°F9.3°C 99% 1.1 mph WNW1.8 kmh WNW 2.2 mph3.5 kmh 29.62 in1003.0 mb 0.00 in0.0 mm 0.00 in/hr0.0 mm/hr 0.00 in0.0 mm
07:18 AM 48.9°F9.4°C 48.7°F9.3°C 99% 1.0 mph NW1.6 kmh NW 2.2 mph3.5 kmh 29.62 in1003.0 mb 0.00 in0.0 mm 0.00 in/hr0.0 mm/hr 0.00 in0.0 mm
07:17 AM 48.9°F9.4°C 48.7°F9.3°C 99% 1.0 mph NW1.6 kmh NW 1.6 mph2.6 kmh 29.62 in1003.0 mb 0.00 in0.0 mm 0.00 in/hr0.0 mm/hr 0.00 in0.0 mm
07:16 AM 48.9°F9.4°C 48.7°F9.3°C 99% 1.1 mph NW1.8 kmh NW 2.2 mph3.5 kmh 29.62 in1003.0 mb 0.00 in0.0 mm 0.00 in/hr0.0 mm/hr 0.00 in0.0 mm
07:15 AM 48.7°F9.3°C 48.5°F9.2°C 99% 1.2 mph NW1.9 kmh NW 2.2 mph3.5 kmh 29.62 in1003.0 mb 0.00 in0.0 mm 0.00 in/hr0.0 mm/hr 0.00 in0.0 mm
07:14 AM 48.7°F9.3°C 48.5°F9.2°C 99% 1.3 mph NW2.1 kmh NW 2.2 mph3.5 kmh 29.62 in1003.0 mb 0.00 in0.0 mm 0.00 in/hr0.0 mm/hr 0.00 in0.0 mm
07:13 AM 48.7°F9.3°C 48.5°F9.2°C 99% 1.4 mph NW2.3 kmh NW 2.2 mph3.5 kmh 29.62 in1003.0 mb 0.00 in0.0 mm 0.00 in/hr0.0 mm/hr 0.00 in0.0 mm
07:12 AM 48.6°F9.2°C 48.3°F9.1°C 99% 1.5 mph NW2.4 kmh NW 2.2 mph3.5 kmh 29.62 in1003.0 mb 0.00 in0.0 mm 0.00 in/hr0.0 mm/hr 0.00 in0.0 mm
07:11 AM 48.6°F9.2°C 48.3°F9.1°C 99% 1.6 mph NW2.6 kmh NW 2.2 mph3.5 kmh 29.62 in1003.0 mb 0.00 in0.0 mm 0.00 in/hr0.0 mm/hr 0.00 in0.0 mm
07:10 AM 48.4°F9.1°C 48.1°F8.9°C 99% 1.5 mph NW2.4 kmh NW 2.2 mph3.5 kmh 29.62 in1003.0 mb 0.00 in0.0 mm 0.00 in/hr0.0 mm/hr 0.00 in0.0 mm
07:09 AM 48.4°F9.1°C 48.1°F8.9°C 99% 1.4 mph NW2.3 kmh NW 2.2 mph3.5 kmh 29.62 in1003.0 mb 0.00 in0.0 mm 0.00 in/hr0.0 mm/hr 0.00 in0.0 mm
07:08 AM 48.4°F9.1°C 48.1°F8.9°C 99% 1.3 mph WNW2.1 kmh WNW 2.2 mph3.5 kmh 29.62 in1003.0 mb 0.00 in0.0 mm 0.00 in/hr0.0 mm/hr 0.00 in0.0 mm
07:07 AM 48.2°F9.0°C 47.9°F8.8°C 99% 1.2 mph NW1.9 kmh NW 2.2 mph3.5 kmh 29.62 in1003.0 mb 0.00 in0.0 mm 0.00 in/hr0.0 mm/hr 0.00 in0.0 mm
07:06 AM 48.2°F9.0°C 47.9°F8.8°C 99% 1.0 mph NW1.6 kmh NW 2.2 mph3.5 kmh 29.62 in1003.0 mb 0.00 in0.0 mm 0.00 in/hr0.0 mm/hr 0.00 in0.0 mm
07:05 AM 48.2°F9.0°C 47.9°F8.8°C 99% 0.8 mph NW1.3 kmh NW 2.2 mph3.5 kmh 29.62 in1003.0 mb 0.00 in0.0 mm 0.00 in/hr0.0 mm/hr 0.00 in0.0 mm
07:04 AM 48.0°F8.9°C 47.8°F8.8°C 99% 0.6 mph NW1.0 kmh NW 2.2 mph3.5 kmh 29.62 in1003.0 mb 0.00 in0.0 mm 0.00 in/hr0.0 mm/hr 0.00 in0.0 mm
07:03 AM 48.0°F8.9°C 47.8°F8.8°C 99% 0.5 mph WNW0.8 kmh WNW 2.2 mph3.5 kmh 29.62 in1003.0 mb 0.00 in0.0 mm 0.00 in/hr0.0 mm/hr 0.00 in0.0 mm
07:02 AM 48.0°F8.9°C 47.8°F8.8°C 99% 0.3 mph WNW0.5 kmh WNW 2.2 mph3.5 kmh 29.62 in1003.0 mb 0.00 in0.0 mm 0.00 in/hr0.0 mm/hr 0.00 in0.0 mm
07:01 AM 48.0°F8.9°C 47.8°F8.8°C 99% 0.1 mph NW0.2 kmh NW 1.6 mph2.6 kmh 29.62 in1003.0 mb 0.00 in0.0 mm 0.00 in/hr0.0 mm/hr 0.00 in0.0 mm
07:00 AM 48.0°F8.9°C 47.8°F8.8°C 99% 0.1 mph NW0.2 kmh NW 0.7 mph1.1 kmh 29.62 in1003.0 mb 0.00 in0.0 mm 0.00 in/hr0.0 mm/hr 0.00 in0.0 mm
06:59 AM 48.0°F8.9°C 47.8°F8.8°C 99% 0.1 mph NW0.2 kmh NW 0.7 mph1.1 kmh 29.61 in1002.7 mb 0.00 in0.0 mm 0.00 in/hr0.0 mm/hr 0.00 in0.0 mm
06:58 AM 48.0°F8.9°C 47.8°F8.8°C 99% 0.1 mph NW0.2 kmh NW 0.7 mph1.1 kmh 29.62 in1003.0 mb 0.00 in0.0 mm 0.00 in/hr0.0 mm/hr 0.00 in0.0 mm
06:57 AM 48.0°F8.9°C 47.8°F8.8°C 99% 0.1 mph NW0.2 kmh NW 0.7 mph1.1 kmh 29.62 in1003.0 mb 0.00 in0.0 mm 0.00 in/hr0.0 mm/hr 0.00 in0.0 mm
06:56 AM 48.2°F9.0°C 47.9°F8.8°C 99% 0.1 mph NW0.2 kmh NW 0.7 mph1.1 kmh 29.62 in1003.0 mb 0.00 in0.0 mm 0.00 in/hr0.0 mm/hr 0.00 in0.0 mm
06:55 AM 48.2°F9.0°C 47.9°F8.8°C 99% 0.1 mph NW0.2 kmh NW 0.7 mph1.1 kmh 29.62 in1003.0 mb 0.00 in0.0 mm 0.00 in/hr0.0 mm/hr 0.00 in0.0 mm
06:54 AM 48.2°F9.0°C 47.9°F8.8°C 99% 0.1 mph NW0.2 kmh NW 0.7 mph1.1 kmh 29.62 in1003.0 mb 0.00 in0.0 mm 0.00 in/hr0.0 mm/hr 0.00 in0.0 mm
06:53 AM 48.2°F9.0°C 47.9°F8.8°C 99% 0.1 mph NW0.2 kmh NW 0.7 mph1.1 kmh 29.62 in1003.0 mb 0.00 in0.0 mm 0.00 in/hr0.0 mm/hr 0.00 in0.0 mm
06:52 AM 48.2°F9.0°C 47.9°F8.8°C 99% 0.1 mph NW0.2 kmh NW 0.7 mph1.1 kmh 29.62 in1003.0 mb 0.00 in0.0 mm 0.00 in/hr0.0 mm/hr 0.00 in0.0 mm
06:51 AM 48.2°F9.0°C 47.9°F8.8°C 99% 0.1 mph NW0.2 kmh NW 0.7 mph1.1 kmh 29.62 in1003.0 mb 0.00 in0.0 mm 0.00 in/hr0.0 mm/hr 0.00 in0.0 mm
06:50 AM 48.2°F9.0°C 47.9°F8.8°C 99% Calm Calm -- 29.62 in1003.0 mb 0.00 in0.0 mm 0.00 in/hr0.0 mm/hr 0.00 in0.0 mm
06:49 AM 48.4°F9.1°C 48.1°F8.9°C 99% Calm Calm -- 29.62 in1003.0 mb 0.00 in0.0 mm 0.00 in/hr0.0 mm/hr 0.00 in0.0 mm
06:48 AM 48.4°F9.1°C 48.1°F8.9°C 99% Calm Calm 0.7 mph1.1 kmh 29.62 in1003.0 mb 0.00 in0.0 mm 0.00 in/hr0.0 mm/hr 0.00 in0.0 mm
06:47 AM 48.4°F9.1°C 48.1°F8.9°C 99% 0.1 mph NW0.2 kmh NW 0.7 mph1.1 kmh 29.61 in1002.7 mb 0.00 in0.0 mm 0.00 in/hr0.0 mm/hr 0.00 in0.0 mm
06:46 AM 48.4°F9.1°C 48.1°F8.9°C 99% 0.2 mph NW0.3 kmh NW 1.6 mph2.6 kmh 29.62 in1003.0 mb 0.00 in0.0 mm 0.00 in/hr0.0 mm/hr 0.00 in0.0 mm
06:45 AM 48.4°F9.1°C 48.1°F8.9°C 99% 0.3 mph NW0.5 kmh NW 1.6 mph2.6 kmh 29.62 in1003.0 mb 0.00 in0.0 mm 0.00 in/hr0.0 mm/hr 0.00 in0.0 mm
06:44 AM 48.6°F9.2°C 48.3°F9.1°C 99% 0.3 mph NW0.5 kmh NW 1.6 mph2.6 kmh 29.62 in1003.0 mb 0.00 in0.0 mm 0.00 in/hr0.0 mm/hr 0.00 in0.0 mm
06:43 AM 48.6°F9.2°C 48.3°F9.1°C 99% 0.3 mph NW0.5 kmh NW 1.6 mph2.6 kmh 29.62 in1003.0 mb 0.00 in0.0 mm 0.00 in/hr0.0 mm/hr 0.00 in0.0 mm
06:42 AM 48.6°F9.2°C 48.3°F9.1°C 99% 0.4 mph NW0.6 kmh NW 1.6 mph2.6 kmh 29.62 in1003.0 mb 0.00 in0.0 mm 0.00 in/hr0.0 mm/hr 0.00 in0.0 mm
06:41 AM 48.6°F9.2°C 48.3°F9.1°C 99% 0.4 mph NW0.6 kmh NW 1.6 mph2.6 kmh 29.62 in1003.0 mb 0.00 in0.0 mm 0.00 in/hr0.0 mm/hr 0.00 in0.0 mm
06:40 AM 48.6°F9.2°C 48.3°F9.1°C 99% 0.5 mph NW0.8 kmh NW 1.6 mph2.6 kmh 29.62 in1003.0 mb 0.00 in0.0 mm 0.00 in/hr0.0 mm/hr 0.00 in0.0 mm
06:39 AM 48.6°F9.2°C 48.3°F9.1°C 99% 0.7 mph NW1.1 kmh NW 1.6 mph2.6 kmh 29.62 in1003.0 mb 0.00 in0.0 mm 0.00 in/hr0.0 mm/hr 0.00 in0.0 mm
06:38 AM 48.6°F9.2°C 48.3°F9.1°C 99% 0.8 mph NW1.3 kmh NW 1.6 mph2.6 kmh 29.62 in1003.0 mb 0.00 in0.0 mm 0.00 in/hr0.0 mm/hr 0.00 in0.0 mm
06:37 AM 48.7°F9.3°C 48.5°F9.2°C 99% 0.8 mph NW1.3 kmh NW 1.6 mph2.6 kmh 29.62 in1003.0 mb 0.00 in0.0 mm 0.00 in/hr0.0 mm/hr 0.00 in0.0 mm
06:36 AM 48.7°F9.3°C 48.5°F9.2°C 99% 0.7 mph NW1.1 kmh NW 1.6 mph2.6 kmh 29.62 in1003.0 mb 0.00 in0.0 mm 0.00 in/hr0.0 mm/hr 0.00 in0.0 mm
06:35 AM 48.7°F9.3°C 48.5°F9.2°C 99% 0.7 mph NW1.1 kmh NW 1.6 mph2.6 kmh 29.62 in1003.0 mb 0.00 in0.0 mm 0.00 in/hr0.0 mm/hr 0.00 in0.0 mm
06:34 AM 48.7°F9.3°C 48.5°F9.2°C 99% 0.7 mph NW1.1 kmh NW 1.6 mph2.6 kmh 29.62 in1003.0 mb 0.00 in0.0 mm 0.00 in/hr0.0 mm/hr 0.00 in0.0 mm
06:33 AM 48.7°F9.3°C 48.5°F9.2°C 99% 0.7 mph NW1.1 kmh NW 1.6 mph2.6 kmh 29.62 in1003.0 mb 0.00 in0.0 mm 0.00 in/hr0.0 mm/hr 0.00 in0.0 mm
06:32 AM 48.7°F9.3°C 48.5°F9.2°C 99% 0.6 mph NW1.0 kmh NW 1.6 mph2.6 kmh 29.62 in1003.0 mb 0.00 in0.0 mm 0.00 in/hr0.0 mm/hr 0.00 in0.0 mm
06:31 AM 48.9°F9.4°C 48.7°F9.3°C 99% 0.6 mph NW1.0 kmh NW 1.6 mph2.6 kmh 29.62 in1003.0 mb 0.00 in0.0 mm 0.00 in/hr0.0 mm/hr 0.00 in0.0 mm
06:30 AM 48.9°F9.4°C 48.7°F9.3°C 99% 0.5 mph NW0.8 kmh NW 1.6 mph2.6 kmh 29.62 in1003.0 mb 0.00 in0.0 mm 0.00 in/hr0.0 mm/hr 0.00 in0.0 mm
06:29 AM 48.9°F9.4°C 48.7°F9.3°C 99% 0.3 mph NW0.5 kmh NW 1.6 mph2.6 kmh 29.62 in1003.0 mb 0.00 in0.0 mm 0.00 in/hr0.0 mm/hr 0.00 in0.0 mm
06:28 AM 48.9°F9.4°C 48.7°F9.3°C 99% 0.2 mph NW0.3 kmh NW 0.7 mph1.1 kmh 29.62 in1003.0 mb 0.00 in0.0 mm 0.00 in/hr0.0 mm/hr 0.00 in0.0 mm
06:27 AM 49.1°F9.5°C 48.8°F9.3°C 99% 0.2 mph NW0.3 kmh NW 0.7 mph1.1 kmh 29.62 in1003.0 mb 0.00 in0.0 mm 0.00 in/hr0.0 mm/hr 0.00 in0.0 mm
06:26 AM 49.1°F9.5°C 48.8°F9.3°C 99% 0.2 mph NW0.3 kmh NW 0.7 mph1.1 kmh 29.62 in1003.0 mb 0.00 in0.0 mm 0.00 in/hr0.0 mm/hr 0.00 in0.0 mm
06:25 AM 49.1°F9.5°C 48.8°F9.3°C 99% 0.2 mph NW0.3 kmh NW 0.7 mph1.1 kmh 29.62 in1003.0 mb 0.00 in0.0 mm 0.00 in/hr0.0 mm/hr 0.00 in0.0 mm
06:24 AM 49.1°F9.5°C 48.8°F9.3°C 99% 0.2 mph NW0.3 kmh NW 0.7 mph1.1 kmh 29.62 in1003.0 mb 0.00 in0.0 mm 0.00 in/hr0.0 mm/hr 0.00 in0.0 mm
06:23 AM 49.1°F9.5°C 48.8°F9.3°C 99% 0.2 mph NW0.3 kmh NW 0.7 mph1.1 kmh 29.62 in1003.0 mb 0.00 in0.0 mm 0.00 in/hr0.0 mm/hr 0.00 in0.0 mm
06:22 AM 49.3°F9.6°C 49.0°F9.4°C 99% 0.2 mph NW0.3 kmh NW 0.7 mph1.1 kmh 29.62 in1003.0 mb 0.00 in0.0 mm 0.00 in/hr0.0 mm/hr 0.00 in0.0 mm
06:21 AM 49.3°F9.6°C 49.0°F9.4°C 99% 0.2 mph NW0.3 kmh NW 0.7 mph1.1 kmh 29.61 in1002.7 mb 0.00 in0.0 mm 0.00 in/hr0.0 mm/hr 0.00 in0.0 mm
06:20 AM 49.3°F9.6°C 49.0°F9.4°C 99% 0.3 mph NW0.5 kmh NW 0.7 mph1.1 kmh 29.62 in1003.0 mb 0.00 in0.0 mm 0.00 in/hr0.0 mm/hr 0.00 in0.0 mm
06:19 AM 49.3°F9.6°C 49.0°F9.4°C 99% 0.3 mph NW0.5 kmh NW 0.7 mph1.1 kmh 29.62 in1003.0 mb 0.00 in0.0 mm 0.00 in/hr0.0 mm/hr 0.00 in0.0 mm
06:18 AM 49.3°F9.6°C 49.0°F9.4°C 99% 0.3 mph NW0.5 kmh NW 0.7 mph1.1 kmh 29.62 in1003.0 mb 0.00 in0.0 mm 0.00 in/hr0.0 mm/hr 0.00 in0.0 mm
06:17 AM 49.3°F9.6°C 49.0°F9.4°C 99% 0.3 mph NW0.5 kmh NW 0.7 mph1.1 kmh 29.62 in1003.0 mb 0.00 in0.0 mm 0.00 in/hr0.0 mm/hr 0.00 in0.0 mm
06:16 AM 49.3°F9.6°C 49.0°F9.4°C 99% 0.2 mph NW0.3 kmh NW 0.7 mph1.1 kmh 29.62 in1003.0 mb 0.00 in0.0 mm 0.00 in/hr0.0 mm/hr 0.00 in0.0 mm
06:15 AM 49.3°F9.6°C 49.0°F9.4°C 99% 0.2 mph NW0.3 kmh NW 0.7 mph1.1 kmh 29.62 in1003.0 mb 0.00 in0.0 mm 0.00 in/hr0.0 mm/hr 0.00 in0.0 mm
06:14 AM 49.3°F9.6°C 49.0°F9.4°C 99% 0.2 mph NW0.3 kmh NW 1.6 mph2.6 kmh 29.62 in1003.0 mb 0.00 in0.0 mm 0.00 in/hr0.0 mm/hr 0.00 in0.0 mm
06:13 AM 49.3°F9.6°C 49.0°F9.4°C 99% 0.3 mph NW0.5 kmh NW 1.6 mph2.6 kmh 29.62 in1003.0 mb 0.00 in0.0 mm 0.00 in/hr0.0 mm/hr 0.00 in0.0 mm
06:12 AM 49.3°F9.6°C 49.0°F9.4°C 99% 0.4 mph NW0.6 kmh NW 1.6 mph2.6 kmh 29.62 in1003.0 mb 0.00 in0.0 mm 0.00 in/hr0.0 mm/hr 0.00 in0.0 mm
06:11 AM 49.3°F9.6°C 49.0°F9.4°C 99% 0.6 mph NW1.0 kmh NW 1.6 mph2.6 kmh 29.62 in1003.0 mb 0.00 in0.0 mm 0.00 in/hr0.0 mm/hr 0.00 in0.0 mm
06:10 AM 49.5°F9.7°C 49.2°F9.6°C 99% 0.7 mph NW1.1 kmh NW 1.6 mph2.6 kmh 29.62 in1003.0 mb 0.00 in0.0 mm 0.00 in/hr0.0 mm/hr 0.00 in0.0 mm
06:09 AM 49.5°F9.7°C 49.2°F9.6°C 99% 0.9 mph NW1.4 kmh NW 1.6 mph2.6 kmh 29.62 in1003.0 mb 0.00 in0.0 mm 0.00 in/hr0.0 mm/hr 0.00 in0.0 mm
06:08 AM 49.5°F9.7°C 49.2°F9.6°C 99% 1.0 mph NW1.6 kmh NW 1.6 mph2.6 kmh 29.62 in1003.0 mb 0.00 in0.0 mm 0.00 in/hr0.0 mm/hr 0.00 in0.0 mm
06:07 AM 49.5°F9.7°C 49.2°F9.6°C 99% 1.1 mph NW1.8 kmh NW 1.6 mph2.6 kmh 29.62 in1003.0 mb 0.00 in0.0 mm 0.00 in/hr0.0 mm/hr 0.00 in0.0 mm
06:06 AM 49.5°F9.7°C 49.2°F9.6°C 99% 1.3 mph NW2.1 kmh NW 2.2 mph3.5 kmh 29.62 in1003.0 mb 0.00 in0.0 mm 0.00 in/hr0.0 mm/hr 0.00 in0.0 mm
06:05 AM 49.5°F9.7°C 49.2°F9.6°C 99% 1.5 mph NW2.4 kmh NW 2.2 mph3.5 kmh 29.62 in1003.0 mb 0.00 in0.0 mm 0.00 in/hr0.0 mm/hr 0.00 in0.0 mm
06:04 AM 49.5°F9.7°C 49.2°F9.6°C 99% 1.5 mph NW2.4 kmh NW 2.2 mph3.5 kmh 29.62 in1003.0 mb 0.00 in0.0 mm 0.00 in/hr0.0 mm/hr 0.00 in0.0 mm
06:03 AM 49.5°F9.7°C 49.2°F9.6°C 99% 1.4 mph NW2.3 kmh NW 2.2 mph3.5 kmh 29.62 in1003.0 mb 0.00 in0.0 mm 0.00 in/hr0.0 mm/hr 0.00 in0.0 mm
06:02 AM 49.3°F9.6°C 49.0°F9.4°C 99% 1.4 mph NW2.3 kmh NW 2.2 mph3.5 kmh 29.62 in1003.0 mb 0.00 in0.0 mm 0.00 in/hr0.0 mm/hr 0.00 in0.0 mm
06:01 AM 49.3°F9.6°C 49.0°F9.4°C 99% 1.4 mph WNW2.3 kmh WNW 2.2 mph3.5 kmh 29.62 in1003.0 mb 0.00 in0.0 mm 0.00 in/hr0.0 mm/hr 0.00 in0.0 mm
06:00 AM 49.3°F9.6°C 49.0°F9.4°C 99% 1.4 mph WNW2.3 kmh WNW 2.2 mph3.5 kmh 29.62 in1003.0 mb 0.00 in0.0 mm 0.00 in/hr0.0 mm/hr 0.00 in0.0 mm
05:59 AM 49.3°F9.6°C 49.0°F9.4°C 99% 1.4 mph WNW2.3 kmh WNW 2.2 mph3.5 kmh 29.62 in1003.0 mb 0.00 in0.0 mm 0.00 in/hr0.0 mm/hr 0.00 in0.0 mm
05:58 AM 49.3°F9.6°C 49.0°F9.4°C 99% 1.3 mph WNW2.1 kmh WNW 2.2 mph3.5 kmh 29.62 in1003.0 mb 0.00 in0.0 mm 0.00 in/hr0.0 mm/hr 0.00 in0.0 mm
05:57 AM 49.3°F9.6°C 49.0°F9.4°C 99% 1.2 mph WNW1.9 kmh WNW 2.2 mph3.5 kmh 29.62 in1003.0 mb 0.00 in0.0 mm 0.00 in/hr0.0 mm/hr 0.00 in0.0 mm
05:56 AM 49.3°F9.6°C 49.0°F9.4°C 99% 1.1 mph WNW1.8 kmh WNW 2.2 mph3.5 kmh 29.62 in1003.0 mb 0.00 in0.0 mm 0.00 in/hr0.0 mm/hr 0.00 in0.0 mm
05:55 AM 49.3°F9.6°C 49.0°F9.4°C 99% 1.0 mph WNW1.6 kmh WNW 2.2 mph3.5 kmh 29.62 in1003.0 mb 0.00 in0.0 mm 0.00 in/hr0.0 mm/hr 0.00 in0.0 mm
05:54 AM 49.3°F9.6°C 49.0°F9.4°C 99% 1.1 mph WNW1.8 kmh WNW 2.2 mph3.5 kmh 29.62 in1003.0 mb 0.00 in0.0 mm 0.00 in/hr0.0 mm/hr 0.00 in0.0 mm
05:53 AM 49.3°F9.6°C 49.0°F9.4°C 99% 1.2 mph WNW1.9 kmh WNW 2.2 mph3.5 kmh 29.62 in1003.0 mb 0.00 in0.0 mm 0.00 in/hr0.0 mm/hr 0.00 in0.0 mm
05:52 AM 49.3°F9.6°C 49.0°F9.4°C 99% 1.2 mph WNW1.9 kmh WNW 2.2 mph3.5 kmh 29.62 in1003.0 mb 0.00 in0.0 mm 0.00 in/hr0.0 mm/hr 0.00 in0.0 mm
05:51 AM 49.3°F9.6°C 49.0°F9.4°C 99% 1.3 mph WNW2.1 kmh WNW 2.2 mph3.5 kmh 29.62 in1003.0 mb 0.00 in0.0 mm 0.00 in/hr0.0 mm/hr 0.00 in0.0 mm
05:50 AM 49.3°F9.6°C 49.0°F9.4°C 99% 1.3 mph WNW2.1 kmh WNW 2.2 mph3.5 kmh 29.62 in1003.0 mb 0.00 in0.0 mm 0.00 in/hr0.0 mm/hr 0.00 in0.0 mm
05:49 AM 49.3°F9.6°C 49.0°F9.4°C 99% 1.3 mph WNW2.1 kmh WNW 2.2 mph3.5 kmh 29.62 in1003.0 mb 0.00 in0.0 mm 0.00 in/hr0.0 mm/hr 0.00 in0.0 mm
05:48 AM 49.3°F9.6°C 49.0°F9.4°C 99% 1.4 mph WNW2.3 kmh WNW 2.2 mph3.5 kmh 29.62 in1003.0 mb 0.00 in0.0 mm 0.00 in/hr0.0 mm/hr 0.00 in0.0 mm
05:47 AM 49.3°F9.6°C 49.0°F9.4°C 99% 1.5 mph WNW2.4 kmh WNW 2.2 mph3.5 kmh 29.62 in1003.0 mb 0.00 in0.0 mm 0.00 in/hr0.0 mm/hr 0.00 in0.0 mm
05:46 AM 49.3°F9.6°C 49.0°F9.4°C 99% 1.5 mph W2.4 kmh W 2.2 mph3.5 kmh 29.62 in1003.0 mb 0.00 in0.0 mm 0.00 in/hr0.0 mm/hr 0.00 in0.0 mm
05:45 AM 49.3°F9.6°C 49.0°F9.4°C 99% 1.5 mph W2.4 kmh W 2.2 mph3.5 kmh 29.62 in1003.0 mb 0.00 in0.0 mm 0.00 in/hr0.0 mm/hr 0.00 in0.0 mm
05:44 AM 49.3°F9.6°C 49.0°F9.4°C 99% 1.4 mph W2.3 kmh W 2.2 mph3.5 kmh 29.62 in1003.0 mb 0.00 in0.0 mm 0.00 in/hr0.0 mm/hr 0.00 in0.0 mm
05:43 AM 49.3°F9.6°C 49.0°F9.4°C 99% 1.3 mph W2.1 kmh W 2.2 mph3.5 kmh 29.62 in1003.0 mb 0.00 in0.0 mm 0.00 in/hr0.0 mm/hr 0.00 in0.0 mm
05:42 AM 49.3°F9.6°C 49.0°F9.4°C 99% 1.1 mph W1.8 kmh W 2.2 mph3.5 kmh 29.62 in1003.0 mb 0.00 in0.0 mm 0.00 in/hr0.0 mm/hr 0.00 in0.0 mm
05:41 AM 49.3°F9.6°C 49.0°F9.4°C 99% 1.0 mph W1.6 kmh W 2.2 mph3.5 kmh 29.62 in1003.0 mb 0.00 in0.0 mm 0.00 in/hr0.0 mm/hr 0.00 in0.0 mm
05:40 AM 49.3°F9.6°C 49.0°F9.4°C 99% 0.9 mph W1.4 kmh W 1.6 mph2.6 kmh 29.62 in1003.0 mb 0.00 in0.0 mm 0.00 in/hr0.0 mm/hr 0.00 in0.0 mm
05:39 AM 49.3°F9.6°C 49.0°F9.4°C 99% 0.8 mph W1.3 kmh W 1.6 mph2.6 kmh 29.62 in1003.0 mb 0.00 in0.0 mm 0.00 in/hr0.0 mm/hr 0.00 in0.0 mm
05:38 AM 49.3°F9.6°C 49.0°F9.4°C 99% 0.6 mph W1.0 kmh W 1.6 mph2.6 kmh 29.62 in1003.0 mb 0.00 in0.0 mm 0.00 in/hr0.0 mm/hr 0.00 in0.0 mm
05:37 AM 49.5°F9.7°C 49.2°F9.6°C 99% 0.5 mph W0.8 kmh W 1.6 mph2.6 kmh 29.62 in1003.0 mb 0.00 in0.0 mm 0.00 in/hr0.0 mm/hr 0.00 in0.0 mm
05:36 AM 49.5°F9.7°C 49.2°F9.6°C 99% 0.4 mph W0.6 kmh W 0.7 mph1.1 kmh 29.62 in1003.0 mb 0.00 in0.0 mm 0.00 in/hr0.0 mm/hr 0.00 in0.0 mm
05:35 AM 49.5°F9.7°C 49.2°F9.6°C 99% 0.3 mph W0.5 kmh W 0.7 mph1.1 kmh 29.62 in1003.0 mb 0.00 in0.0 mm 0.00 in/hr0.0 mm/hr 0.00 in0.0 mm
05:34 AM 49.5°F9.7°C 49.2°F9.6°C 99% 0.3 mph W0.5 kmh W 0.7 mph1.1 kmh 29.62 in1003.0 mb 0.00 in0.0 mm 0.00 in/hr0.0 mm/hr 0.00 in0.0 mm
05:33 AM 49.5°F9.7°C 49.2°F9.6°C 99% 0.2 mph W0.3 kmh W 0.7 mph1.1 kmh 29.62 in1003.0 mb 0.00 in0.0 mm 0.00 in/hr0.0 mm/hr 0.00 in0.0 mm
05:32 AM 49.6°F9.8°C 49.4°F9.7°C 99% 0.2 mph W0.3 kmh W 0.7 mph1.1 kmh 29.62 in1003.0 mb 0.00 in0.0 mm 0.00 in/hr0.0 mm/hr 0.00 in0.0 mm
05:31 AM 49.6°F9.8°C 49.4°F9.7°C 99% 0.1 mph W0.2 kmh W 0.7 mph1.1 kmh 29.62 in1003.0 mb 0.00 in0.0 mm 0.00 in/hr0.0 mm/hr 0.00 in0.0 mm
05:30 AM 49.6°F9.8°C 49.4°F9.7°C 99% 0.1 mph W0.2 kmh W 0.7 mph1.1 kmh 29.62 in1003.0 mb 0.00 in0.0 mm 0.00 in/hr0.0 mm/hr 0.00 in0.0 mm
05:29 AM 49.6°F9.8°C 49.4°F9.7°C 99% 0.1 mph W0.2 kmh W 0.7 mph1.1 kmh 29.62 in1003.0 mb 0.00 in0.0 mm 0.00 in/hr0.0 mm/hr 0.00 in0.0 mm
05:28 AM 49.8°F9.9°C 49.6°F9.8°C 99% 0.1 mph W0.2 kmh W 0.7 mph1.1 kmh 29.62 in1003.0 mb 0.00 in0.0 mm 0.00 in/hr0.0 mm/hr 0.00 in0.0 mm
05:27 AM 49.8°F9.9°C 49.6°F9.8°C 99% 0.1 mph W0.2 kmh W 0.7 mph1.1 kmh 29.62 in1003.0 mb 0.00 in0.0 mm 0.00 in/hr0.0 mm/hr 0.00 in0.0 mm
05:26 AM 49.8°F9.9°C 49.6°F9.8°C 99% Calm Calm 0.7 mph1.1 kmh 29.62 in1003.0 mb 0.00 in0.0 mm 0.00 in/hr0.0 mm/hr 0.00 in0.0 mm
05:25 AM 49.8°F9.9°C 49.6°F9.8°C 99% Calm Calm 0.7 mph1.1 kmh 29.62 in1003.0 mb 0.00 in0.0 mm 0.00 in/hr0.0 mm/hr 0.00 in0.0 mm
05:24 AM 50.0°F10.0°C 49.7°F9.8°C 99% 0.1 mph W0.2 kmh W 0.7 mph1.1 kmh 29.62 in1003.0 mb 0.00 in0.0 mm 0.00 in/hr0.0 mm/hr 0.00 in0.0 mm
05:23 AM 50.0°F10.0°C 49.7°F9.8°C 99% 0.1 mph W0.2 kmh W 0.7 mph1.1 kmh 29.62 in1003.0 mb 0.00 in0.0 mm 0.00 in/hr0.0 mm/hr 0.00 in0.0 mm
05:22 AM 50.0°F10.0°C 49.7°F9.8°C 99% 0.1 mph W0.2 kmh W 0.7 mph1.1 kmh 29.61 in1002.7 mb 0.00 in0.0 mm 0.00 in/hr0.0 mm/hr 0.00 in0.0 mm
05:21 AM 50.0°F10.0°C 49.7°F9.8°C 99% 0.1 mph W0.2 kmh W 0.7 mph1.1 kmh 29.62 in1003.0 mb 0.00 in0.0 mm 0.00 in/hr0.0 mm/hr 0.00 in0.0 mm
05:20 AM 50.0°F10.0°C 49.7°F9.8°C 99% 0.1 mph W0.2 kmh W 0.7 mph1.1 kmh 29.62 in1003.0 mb 0.00 in0.0 mm 0.00 in/hr0.0 mm/hr 0.00 in0.0 mm
05:19 AM 50.0°F10.0°C 49.7°F9.8°C 99% 0.1 mph W0.2 kmh W 0.7 mph1.1 kmh 29.62 in1003.0 mb 0.00 in0.0 mm 0.00 in/hr0.0 mm/hr 0.00 in0.0 mm
05:18 AM 50.0°F10.0°C 49.7°F9.8°C 99% 0.1 mph W0.2 kmh W 0.7 mph1.1 kmh 29.61 in1002.7 mb 0.00 in0.0 mm 0.00 in/hr0.0 mm/hr 0.00 in0.0 mm
05:17 AM 50.0°F10.0°C 49.7°F9.8°C 99% 0.1 mph W0.2 kmh W 0.7 mph1.1 kmh 29.62 in1003.0 mb 0.00 in0.0 mm 0.00 in/hr0.0 mm/hr 0.00 in0.0 mm
05:16 AM 50.0°F10.0°C 49.7°F9.8°C 99% 0.1 mph W0.2 kmh W 0.7 mph1.1 kmh 29.62 in1003.0 mb 0.00 in0.0 mm 0.00 in/hr0.0 mm/hr 0.00 in0.0 mm
05:15 AM 50.0°F10.0°C 49.7°F9.8°C 99% 0.1 mph W0.2 kmh W 0.7 mph1.1 kmh 29.62 in1003.0 mb 0.00 in0.0 mm 0.00 in/hr0.0 mm/hr 0.00 in0.0 mm
05:14 AM 50.0°F10.0°C 49.7°F9.8°C 99% 0.1 mph W0.2 kmh W 0.7 mph1.1 kmh 29.62 in1003.0 mb 0.00 in0.0 mm 0.00 in/hr0.0 mm/hr 0.00 in0.0 mm
05:13 AM 50.0°F10.0°C 49.7°F9.8°C 99% 0.2 mph W0.3 kmh W 1.6 mph2.6 kmh 29.62 in1003.0 mb 0.00 in0.0 mm 0.00 in/hr0.0 mm/hr 0.00 in0.0 mm
05:12 AM 50.0°F10.0°C 49.7°F9.8°C 99% 0.3 mph W0.5 kmh W 1.6 mph2.6 kmh 29.62 in1003.0 mb 0.00 in0.0 mm 0.00 in/hr0.0 mm/hr 0.00 in0.0 mm
05:11 AM 50.0°F10.0°C 49.7°F9.8°C 99% 0.4 mph W0.6 kmh W 1.6 mph2.6 kmh 29.62 in1003.0 mb 0.00 in0.0 mm 0.00 in/hr0.0 mm/hr 0.00 in0.0 mm
05:10 AM 50.0°F10.0°C 49.7°F9.8°C 99% 0.4 mph W0.6 kmh W 1.6 mph2.6 kmh 29.62 in1003.0 mb 0.00 in0.0 mm 0.00 in/hr0.0 mm/hr 0.00 in0.0 mm
05:09 AM 50.0°F10.0°C 49.7°F9.8°C 99% 0.4 mph W0.6 kmh W 1.6 mph2.6 kmh 29.62 in1003.0 mb 0.00 in0.0 mm 0.00 in/hr0.0 mm/hr 0.00 in0.0 mm
05:08 AM 50.0°F10.0°C 49.7°F9.8°C 99% 0.5 mph W0.8 kmh W 1.6 mph2.6 kmh 29.62 in1003.0 mb 0.00 in0.0 mm 0.00 in/hr0.0 mm/hr 0.00 in0.0 mm
05:07 AM 50.0°F10.0°C 49.7°F9.8°C 99% 0.5 mph W0.8 kmh W 1.6 mph2.6 kmh 29.62 in1003.0 mb 0.00 in0.0 mm 0.00 in/hr0.0 mm/hr 0.00 in0.0 mm
05:06 AM 50.0°F10.0°C 49.7°F9.8°C 99% 0.5 mph W0.8 kmh W 1.6 mph2.6 kmh 29.62 in1003.0 mb 0.00 in0.0 mm 0.00 in/hr0.0 mm/hr 0.00 in0.0 mm
05:05 AM 50.0°F10.0°C 49.7°F9.8°C 99% 0.5 mph W0.8 kmh W 1.6 mph2.6 kmh 29.62 in1003.0 mb 0.00 in0.0 mm 0.00 in/hr0.0 mm/hr 0.00 in0.0 mm
05:04 AM 50.0°F10.0°C 49.7°F9.8°C 99% 0.4 mph W0.6 kmh W 1.6 mph2.6 kmh 29.62 in1003.0 mb 0.00 in0.0 mm 0.00 in/hr0.0 mm/hr 0.00 in0.0 mm
05:03 AM 50.0°F10.0°C 49.7°F9.8°C 99% 0.3 mph W0.5 kmh W 0.7 mph1.1 kmh 29.62 in1003.0 mb 0.00 in0.0 mm 0.00 in/hr0.0 mm/hr 0.00 in0.0 mm
05:02 AM 50.0°F10.0°C 49.7°F9.8°C 99% 0.2 mph W0.3 kmh W 0.7 mph1.1 kmh 29.62 in1003.0 mb 0.00 in0.0 mm 0.00 in/hr0.0 mm/hr 0.00 in0.0 mm
05:01 AM 49.8°F9.9°C 49.6°F9.8°C 99% 0.2 mph W0.3 kmh W 0.7 mph1.1 kmh 29.62 in1003.0 mb 0.00 in0.0 mm 0.00 in/hr0.0 mm/hr 0.00 in0.0 mm
05:00 AM 49.8°F9.9°C 49.6°F9.8°C 99% 0.3 mph W0.5 kmh W 0.7 mph1.1 kmh 29.62 in1003.0 mb 0.00 in0.0 mm 0.00 in/hr0.0 mm/hr 0.00 in0.0 mm
04:59 AM 49.8°F9.9°C 49.6°F9.8°C 99% 0.3 mph W0.5 kmh W 0.7 mph1.1 kmh 29.62 in1003.0 mb 0.00 in0.0 mm 0.00 in/hr0.0 mm/hr 0.00 in0.0 mm
04:58 AM 49.8°F9.9°C 49.6°F9.8°C 99% 0.4 mph W0.6 kmh W 1.6 mph2.6 kmh 29.62 in1003.0 mb 0.00 in0.0 mm 0.00 in/hr0.0 mm/hr 0.00 in0.0 mm
04:57 AM 49.8°F9.9°C 49.6°F9.8°C 99% 0.5 mph W0.8 kmh W 1.6 mph2.6 kmh 29.62 in1003.0 mb 0.00 in0.0 mm 0.00 in/hr0.0 mm/hr 0.00 in0.0 mm
04:56 AM 49.8°F9.9°C 49.6°F9.8°C 99% 0.7 mph W1.1 kmh W 2.2 mph3.5 kmh 29.62 in1003.0 mb 0.00 in0.0 mm 0.00 in/hr0.0 mm/hr 0.00 in0.0 mm
04:55 AM 49.8°F9.9°C 49.6°F9.8°C 99% 0.9 mph W1.4 kmh W 2.2 mph3.5 kmh 29.62 in1003.0 mb 0.00 in0.0 mm 0.00 in/hr0.0 mm/hr 0.00 in0.0 mm
04:54 AM 49.8°F9.9°C 49.6°F9.8°C 99% 1.0 mph W1.6 kmh W 2.2 mph3.5 kmh 29.62 in1003.0 mb 0.00 in0.0 mm 0.00 in/hr0.0 mm/hr 0.00 in0.0 mm
04:53 AM 49.8°F9.9°C 49.6°F9.8°C 99% 1.2 mph WSW1.9 kmh WSW 2.2 mph3.5 kmh 29.62 in1003.0 mb 0.00 in0.0 mm 0.00 in/hr0.0 mm/hr 0.00 in0.0 mm
04:52 AM 49.6°F9.8°C 49.4°F9.7°C 99% 1.2 mph W1.9 kmh W 2.2 mph3.5 kmh 29.62 in1003.0 mb 0.00 in0.0 mm 0.00 in/hr0.0 mm/hr 0.00 in0.0 mm
04:51 AM 49.6°F9.8°C 49.4°F9.7°C 99% 1.2 mph W1.9 kmh W 2.2 mph3.5 kmh 29.62 in1003.0 mb 0.00 in0.0 mm 0.00 in/hr0.0 mm/hr 0.00 in0.0 mm
04:50 AM 49.6°F9.8°C 49.4°F9.7°C 99% 1.1 mph W1.8 kmh W 2.2 mph3.5 kmh 29.62 in1003.0 mb 0.00 in0.0 mm 0.00 in/hr0.0 mm/hr 0.00 in0.0 mm
04:49 AM 49.6°F9.8°C 49.4°F9.7°C 99% 1.1 mph WSW1.8 kmh WSW 2.2 mph3.5 kmh 29.62 in1003.0 mb 0.00 in0.0 mm 0.00 in/hr0.0 mm/hr 0.00 in0.0 mm
04:48 AM 49.6°F9.8°C 49.4°F9.7°C 99% 1.0 mph WSW1.6 kmh WSW 2.2 mph3.5 kmh 29.62 in1003.0 mb 0.00 in0.0 mm 0.00 in/hr0.0 mm/hr 0.00 in0.0 mm
04:47 AM 49.6°F9.8°C 49.4°F9.7°C 99% 1.0 mph WSW1.6 kmh WSW 2.2 mph3.5 kmh 29.62 in1003.0 mb 0.00 in0.0 mm 0.00 in/hr0.0 mm/hr 0.00 in0.0 mm
04:46 AM 49.6°F9.8°C 49.4°F9.7°C 99% 1.0 mph WSW1.6 kmh WSW 1.6 mph2.6 kmh 29.62 in1003.0 mb 0.00 in0.0 mm 0.00 in/hr0.0 mm/hr 0.00 in0.0 mm
04:45 AM 49.6°F9.8°C 49.4°F9.7°C 99% 1.0 mph WSW1.6 kmh WSW 1.6 mph2.6 kmh 29.62 in1003.0 mb 0.00 in0.0 mm 0.00 in/hr0.0 mm/hr 0.00 in0.0 mm
04:44 AM 49.5°F9.7°C 49.2°F9.6°C 99% 1.0 mph W1.6 kmh W 2.2 mph3.5 kmh 29.62 in1003.0 mb 0.00 in0.0 mm 0.00 in/hr0.0 mm/hr 0.00 in0.0 mm
04:43 AM 49.5°F9.7°C 49.2°F9.6°C 99% 1.0 mph WNW1.6 kmh WNW 2.2 mph3.5 kmh 29.62 in1003.0 mb 0.00 in0.0 mm 0.00 in/hr0.0 mm/hr 0.00 in0.0 mm
04:42 AM 49.5°F9.7°C 49.2°F9.6°C 99% 1.1 mph WNW1.8 kmh WNW 2.2 mph3.5 kmh 29.62 in1003.0 mb 0.00 in0.0 mm 0.00 in/hr0.0 mm/hr 0.00 in0.0 mm
04:41 AM 49.5°F9.7°C 49.2°F9.6°C 99% 1.2 mph WNW1.9 kmh WNW 2.2 mph3.5 kmh 29.62 in1003.0 mb 0.00 in0.0 mm 0.00 in/hr0.0 mm/hr 0.00 in0.0 mm
04:40 AM 49.5°F9.7°C 49.2°F9.6°C 99% 1.3 mph WNW2.1 kmh WNW 2.2 mph3.5 kmh 29.62 in1003.0 mb 0.00 in0.0 mm 0.00 in/hr0.0 mm/hr 0.00 in0.0 mm
04:39 AM 49.5°F9.7°C 49.2°F9.6°C 99% 1.4 mph WNW2.3 kmh WNW 2.2 mph3.5 kmh 29.62 in1003.0 mb 0.00 in0.0 mm 0.00 in/hr0.0 mm/hr 0.00 in0.0 mm
04:38 AM 49.3°F9.6°C 49.0°F9.4°C 99% 1.5 mph WNW2.4 kmh WNW 2.2 mph3.5 kmh 29.62 in1003.0 mb 0.00 in0.0 mm 0.00 in/hr0.0 mm/hr 0.00 in0.0 mm
04:37 AM 49.3°F9.6°C 49.0°F9.4°C 99% 1.5 mph NW2.4 kmh NW 2.2 mph3.5 kmh 29.62 in1003.0 mb 0.00 in0.0 mm 0.00 in/hr0.0 mm/hr 0.00 in0.0 mm
04:36 AM 49.3°F9.6°C 49.0°F9.4°C 99% 1.5 mph NW2.4 kmh NW 2.2 mph3.5 kmh 29.62 in1003.0 mb 0.00 in0.0 mm 0.00 in/hr0.0 mm/hr 0.00 in0.0 mm
04:35 AM 49.3°F9.6°C 49.0°F9.4°C 99% 1.4 mph NW2.3 kmh NW 2.2 mph3.5 kmh 29.62 in1003.0 mb 0.00 in0.0 mm 0.00 in/hr0.0 mm/hr 0.00 in0.0 mm
04:34 AM 49.3°F9.6°C 49.0°F9.4°C 99% 1.2 mph NW1.9 kmh NW 2.2 mph3.5 kmh 29.62 in1003.0 mb 0.00 in0.0 mm 0.00 in/hr0.0 mm/hr 0.00 in0.0 mm
04:33 AM 49.3°F9.6°C 49.0°F9.4°C 99% 1.3 mph NW2.1 kmh NW 2.2 mph3.5 kmh 29.62 in1003.0 mb 0.00 in0.0 mm 0.00 in/hr0.0 mm/hr 0.00 in0.0 mm
04:32 AM 49.3°F9.6°C 49.0°F9.4°C 99% 1.3 mph WNW2.1 kmh WNW 2.2 mph3.5 kmh 29.62 in1003.0 mb 0.00 in0.0 mm 0.00 in/hr0.0 mm/hr 0.00 in0.0 mm
04:31 AM 49.1°F9.5°C 48.8°F9.3°C 99% 1.4 mph NW2.3 kmh NW 2.2 mph3.5 kmh 29.62 in1003.0 mb 0.00 in0.0 mm 0.00 in/hr0.0 mm/hr 0.00 in0.0 mm
04:30 AM 49.1°F9.5°C 48.8°F9.3°C 99% 1.4 mph NW2.3 kmh NW 2.2 mph3.5 kmh 29.62 in1003.0 mb 0.00 in0.0 mm 0.00 in/hr0.0 mm/hr 0.00 in0.0 mm
04:29 AM 49.1°F9.5°C 48.8°F9.3°C 99% 1.5 mph NW2.4 kmh NW 2.2 mph3.5 kmh 29.62 in1003.0 mb 0.00 in0.0 mm 0.00 in/hr0.0 mm/hr 0.00 in0.0 mm
04:28 AM 49.1°F9.5°C 48.8°F9.3°C 99% 1.5 mph NW2.4 kmh NW 2.2 mph3.5 kmh 29.62 in1003.0 mb 0.00 in0.0 mm 0.00 in/hr0.0 mm/hr 0.00 in0.0 mm
04:27 AM 49.1°F9.5°C 48.8°F9.3°C 99% 1.6 mph NW2.6 kmh NW 2.2 mph3.5 kmh 29.62 in1003.0 mb 0.00 in0.0 mm 0.00 in/hr0.0 mm/hr 0.00 in0.0 mm
04:26 AM 49.1°F9.5°C 48.8°F9.3°C 99% 1.6 mph NW2.6 kmh NW 2.2 mph3.5 kmh 29.62 in1003.0 mb 0.00 in0.0 mm 0.00 in/hr0.0 mm/hr 0.00 in0.0 mm
04:25 AM 48.9°F9.4°C 48.7°F9.3°C 99% 1.7 mph NW2.7 kmh NW 2.2 mph3.5 kmh 29.62 in1003.0 mb 0.00 in0.0 mm 0.00 in/hr0.0 mm/hr 0.00 in0.0 mm
04:24 AM 48.9°F9.4°C 48.7°F9.3°C 99% 1.9 mph WNW3.1 kmh WNW 2.2 mph3.5 kmh 29.62 in1003.0 mb 0.00 in0.0 mm 0.00 in/hr0.0 mm/hr 0.00 in0.0 mm
04:23 AM 48.9°F9.4°C 48.7°F9.3°C 99% 2.0 mph NW3.2 kmh NW 2.2 mph3.5 kmh 29.62 in1003.0 mb 0.00 in0.0 mm 0.00 in/hr0.0 mm/hr 0.00 in0.0 mm
04:22 AM 48.7°F9.3°C 48.5°F9.2°C 99% 2.0 mph NW3.2 kmh NW 2.2 mph3.5 kmh 29.62 in1003.0 mb 0.00 in0.0 mm 0.00 in/hr0.0 mm/hr 0.00 in0.0 mm
04:21 AM 48.7°F9.3°C 48.5°F9.2°C 99% 1.9 mph NW3.1 kmh NW 2.2 mph3.5 kmh 29.62 in1003.0 mb 0.00 in0.0 mm 0.00 in/hr0.0 mm/hr 0.00 in0.0 mm
04:20 AM 48.7°F9.3°C 48.5°F9.2°C 99% 1.7 mph WNW2.7 kmh WNW 2.2 mph3.5 kmh 29.62 in1003.0 mb 0.00 in0.0 mm 0.00 in/hr0.0 mm/hr 0.00 in0.0 mm
04:19 AM 48.7°F9.3°C 48.5°F9.2°C 99% 1.6 mph WNW2.6 kmh WNW 2.2 mph3.5 kmh 29.62 in1003.0 mb 0.00 in0.0 mm 0.00 in/hr0.0 mm/hr 0.00 in0.0 mm
04:18 AM 48.7°F9.3°C 48.5°F9.2°C 99% 1.5 mph WNW2.4 kmh WNW 2.2 mph3.5 kmh 29.62 in1003.0 mb 0.00 in0.0 mm 0.00 in/hr0.0 mm/hr 0.00 in0.0 mm
04:17 AM 48.6°F9.2°C 48.3°F9.1°C 99% 1.4 mph WNW2.3 kmh WNW 2.2 mph3.5 kmh 29.62 in1003.0 mb 0.00 in0.0 mm 0.00 in/hr0.0 mm/hr 0.00 in0.0 mm
04:16 AM 48.6°F9.2°C 48.3°F9.1°C 99% 1.3 mph W2.1 kmh W 2.2 mph3.5 kmh 29.62 in1003.0 mb 0.00 in0.0 mm 0.00 in/hr0.0 mm/hr 0.00 in0.0 mm
04:15 AM 48.6°F9.2°C 48.3°F9.1°C 99% 1.0 mph W1.6 kmh W 2.2 mph3.5 kmh 29.62 in1003.0 mb 0.00 in0.0 mm 0.00 in/hr0.0 mm/hr 0.00 in0.0 mm
04:14 AM 48.6°F9.2°C 48.3°F9.1°C 99% 0.9 mph WNW1.4 kmh WNW 2.2 mph3.5 kmh 29.62 in1003.0 mb 0.00 in0.0 mm 0.00 in/hr0.0 mm/hr 0.00 in0.0 mm
04:13 AM 48.6°F9.2°C 48.3°F9.1°C 99% 0.8 mph W1.3 kmh W 2.2 mph3.5 kmh 29.62 in1003.0 mb 0.00 in0.0 mm 0.00 in/hr0.0 mm/hr 0.00 in0.0 mm
04:12 AM 48.6°F9.2°C 48.3°F9.1°C 99% 0.6 mph W1.0 kmh W 1.6 mph2.6 kmh 29.62 in1003.0 mb 0.00 in0.0 mm 0.00 in/hr0.0 mm/hr 0.00 in0.0 mm
04:11 AM 48.7°F9.3°C 48.5°F9.2°C 99% 0.5 mph W0.8 kmh W 1.6 mph2.6 kmh 29.62 in1003.0 mb 0.00 in0.0 mm 0.00 in/hr0.0 mm/hr 0.00 in0.0 mm
04:10 AM 48.7°F9.3°C 48.5°F9.2°C 99% 0.5 mph W0.8 kmh W 1.6 mph2.6 kmh 29.62 in1003.0 mb 0.00 in0.0 mm 0.00 in/hr0.0 mm/hr 0.00 in0.0 mm
04:09 AM 48.7°F9.3°C 48.5°F9.2°C 99% 0.4 mph W0.6 kmh W 1.6 mph2.6 kmh 29.62 in1003.0 mb 0.00 in0.0 mm 0.00 in/hr0.0 mm/hr 0.00 in0.0 mm
04:08 AM 48.7°F9.3°C 48.5°F9.2°C 99% 0.4 mph WNW0.6 kmh WNW 1.6 mph2.6 kmh 29.62 in1003.0 mb 0.00 in0.0 mm 0.00 in/hr0.0 mm/hr 0.00 in0.0 mm
04:07 AM 48.7°F9.3°C 48.5°F9.2°C 99% 0.4 mph NW0.6 kmh NW 1.6 mph2.6 kmh 29.62 in1003.0 mb 0.00 in0.0 mm 0.00 in/hr0.0 mm/hr 0.00 in0.0 mm
04:06 AM 48.7°F9.3°C 48.5°F9.2°C 99% 0.3 mph NW0.5 kmh NW 1.6 mph2.6 kmh 29.62 in1003.0 mb 0.00 in0.0 mm 0.00 in/hr0.0 mm/hr 0.00 in0.0 mm
04:05 AM 48.9°F9.4°C 48.7°F9.3°C 99% 0.3 mph NW0.5 kmh NW 1.6 mph2.6 kmh 29.62 in1003.0 mb 0.00 in0.0 mm 0.00 in/hr0.0 mm/hr 0.00 in0.0 mm
04:04 AM 48.9°F9.4°C 48.7°F9.3°C 99% 0.3 mph NNW0.5 kmh NNW 1.6 mph2.6 kmh 29.62 in1003.0 mb 0.00 in0.0 mm 0.00 in/hr0.0 mm/hr 0.00 in0.0 mm
04:03 AM 48.9°F9.4°C 48.7°F9.3°C 99% 0.2 mph NE0.3 kmh NE 0.7 mph1.1 kmh 29.62 in1003.0 mb 0.00 in0.0 mm 0.00 in/hr0.0 mm/hr 0.00 in0.0 mm
04:02 AM 48.9°F9.4°C 48.7°F9.3°C 99% 0.2 mph NE0.3 kmh NE 0.7 mph1.1 kmh 29.62 in1003.0 mb 0.00 in0.0 mm 0.00 in/hr0.0 mm/hr 0.00 in0.0 mm
04:01 AM 48.9°F9.4°C 48.7°F9.3°C 99% 0.1 mph NE0.2 kmh NE 0.7 mph1.1 kmh 29.62 in1003.0 mb 0.00 in0.0 mm 0.00 in/hr0.0 mm/hr 0.00 in0.0 mm
04:00 AM 48.9°F9.4°C 48.7°F9.3°C 99% 0.1 mph NE0.2 kmh NE 0.7 mph1.1 kmh 29.61 in1002.7 mb 0.00 in0.0 mm 0.00 in/hr0.0 mm/hr 0.00 in0.0 mm
03:59 AM 48.9°F9.4°C 48.7°F9.3°C 99% 0.1 mph NE0.2 kmh NE 0.7 mph1.1 kmh 29.61 in1002.7 mb 0.00 in0.0 mm 0.00 in/hr0.0 mm/hr 0.00 in0.0 mm
03:58 AM 49.1°F9.5°C 48.8°F9.3°C 99% Calm Calm 0.7 mph1.1 kmh 29.62 in1003.0 mb 0.00 in0.0 mm 0.00 in/hr0.0 mm/hr 0.00 in0.0 mm
03:57 AM 49.1°F9.5°C 48.8°F9.3°C 99% Calm Calm 0.7 mph1.1 kmh 29.61 in1002.7 mb 0.00 in0.0 mm 0.00 in/hr0.0 mm/hr 0.00 in0.0 mm
03:56 AM 48.9°F9.4°C 48.7°F9.3°C 99% 0.1 mph NE0.2 kmh NE 0.7 mph1.1 kmh 29.62 in1003.0 mb 0.00 in0.0 mm 0.00 in/hr0.0 mm/hr 0.00 in0.0 mm
03:55 AM 48.9°F9.4°C 48.7°F9.3°C 99% 0.1 mph NE0.2 kmh NE 0.7 mph1.1 kmh 29.61 in1002.7 mb 0.00 in0.0 mm 0.00 in/hr0.0 mm/hr 0.00 in0.0 mm
03:54 AM 48.9°F9.4°C 48.7°F9.3°C 99% 0.2 mph SW0.3 kmh SW 1.6 mph2.6 kmh 29.61 in1002.7 mb 0.00 in0.0 mm 0.00 in/hr0.0 mm/hr 0.00 in0.0 mm
03:53 AM 48.9°F9.4°C 48.7°F9.3°C 99% 0.4 mph S0.6 kmh S 2.2 mph3.5 kmh 29.62 in1003.0 mb 0.00 in0.0 mm 0.00 in/hr0.0 mm/hr 0.00 in0.0 mm
03:52 AM 48.9°F9.4°C 48.7°F9.3°C 99% 0.6 mph S1.0 kmh S 2.2 mph3.5 kmh 29.61 in1002.7 mb 0.00 in0.0 mm 0.00 in/hr0.0 mm/hr 0.00 in0.0 mm
03:51 AM 48.9°F9.4°C 48.7°F9.3°C 99% 0.6 mph S1.0 kmh S 2.2 mph3.5 kmh 29.61 in1002.7 mb 0.00 in0.0 mm 0.00 in/hr0.0 mm/hr 0.00 in0.0 mm
03:50 AM 48.9°F9.4°C 48.7°F9.3°C 99% 0.6 mph S1.0 kmh S 2.2 mph3.5 kmh 29.62 in1003.0 mb 0.00 in0.0 mm 0.00 in/hr0.0 mm/hr 0.00 in0.0 mm
03:49 AM 48.9°F9.4°C 48.7°F9.3°C 99% 0.7 mph SSW1.1 kmh SSW 2.2 mph3.5 kmh 29.62 in1003.0 mb 0.00 in0.0 mm 0.00 in/hr0.0 mm/hr 0.00 in0.0 mm
03:48 AM 48.9°F9.4°C 48.7°F9.3°C 99% 0.7 mph SSW1.1 kmh SSW 2.2 mph3.5 kmh 29.62 in1003.0 mb 0.00 in0.0 mm 0.00 in/hr0.0 mm/hr 0.00 in0.0 mm
03:47 AM 48.9°F9.4°C 48.7°F9.3°C 99% 0.7 mph SSW1.1 kmh SSW 2.2 mph3.5 kmh 29.61 in1002.7 mb 0.00 in0.0 mm 0.00 in/hr0.0 mm/hr 0.00 in0.0 mm
03:46 AM 48.9°F9.4°C 48.7°F9.3°C 99% 0.6 mph SSW1.0 kmh SSW 2.2 mph3.5 kmh 29.62 in1003.0 mb 0.00 in0.0 mm 0.00 in/hr0.0 mm/hr 0.00 in0.0 mm
03:45 AM 48.9°F9.4°C 48.7°F9.3°C 99% 0.6 mph SSW1.0 kmh SSW 2.2 mph3.5 kmh 29.62 in1003.0 mb 0.00 in0.0 mm 0.00 in/hr0.0 mm/hr 0.00 in0.0 mm
03:44 AM 48.9°F9.4°C 48.7°F9.3°C 99% 0.5 mph SSW0.8 kmh SSW 2.2 mph3.5 kmh 29.61 in1002.7 mb 0.00 in0.0 mm 0.00 in/hr0.0 mm/hr 0.00 in0.0 mm
03:43 AM 48.7°F9.3°C 48.5°F9.2°C 99% 0.3 mph SW0.5 kmh SW 1.6 mph2.6 kmh 29.61 in1002.7 mb 0.00 in0.0 mm 0.00 in/hr0.0 mm/hr 0.00 in0.0 mm
03:42 AM 48.7°F9.3°C 48.5°F9.2°C 99% 0.2 mph WSW0.3 kmh WSW 0.7 mph1.1 kmh 29.61 in1002.7 mb 0.00 in0.0 mm 0.00 in/hr0.0 mm/hr 0.00 in0.0 mm
03:41 AM 48.7°F9.3°C 48.5°F9.2°C 99% 0.1 mph WSW0.2 kmh WSW 0.7 mph1.1 kmh 29.61 in1002.7 mb 0.00 in0.0 mm 0.00 in/hr0.0 mm/hr 0.00 in0.0 mm
03:40 AM 48.7°F9.3°C 48.5°F9.2°C 99% 0.1 mph WSW0.2 kmh WSW 0.7 mph1.1 kmh 29.61 in1002.7 mb 0.00 in0.0 mm 0.00 in/hr0.0 mm/hr 0.00 in0.0 mm
03:39 AM 48.7°F9.3°C 48.5°F9.2°C 99% 0.1 mph W0.2 kmh W 1.6 mph2.6 kmh 29.61 in1002.7 mb 0.00 in0.0 mm 0.00 in/hr0.0 mm/hr 0.00 in0.0 mm
03:38 AM 48.7°F9.3°C 48.5°F9.2°C 99% 0.2 mph W0.3 kmh W 1.6 mph2.6 kmh 29.61 in1002.7 mb 0.00 in0.0 mm 0.00 in/hr0.0 mm/hr 0.00 in0.0 mm
03:37 AM 48.7°F9.3°C 48.5°F9.2°C 99% 0.2 mph W0.3 kmh W 1.6 mph2.6 kmh 29.62 in1003.0 mb 0.00 in0.0 mm 0.00 in/hr0.0 mm/hr 0.00 in0.0 mm
03:36 AM 48.7°F9.3°C 48.5°F9.2°C 99% 0.3 mph W0.5 kmh W 1.6 mph2.6 kmh 29.62 in1003.0 mb 0.00 in0.0 mm 0.00 in/hr0.0 mm/hr 0.00 in0.0 mm
03:35 AM 48.7°F9.3°C 48.5°F9.2°C 99% 0.4 mph W0.6 kmh W 1.6 mph2.6 kmh 29.62 in1003.0 mb 0.00 in0.0 mm 0.00 in/hr0.0 mm/hr 0.00 in0.0 mm
03:34 AM 48.7°F9.3°C 48.5°F9.2°C 99% 0.5 mph W0.8 kmh W 1.6 mph2.6 kmh 29.62 in1003.0 mb 0.00 in0.0 mm 0.00 in/hr0.0 mm/hr 0.00 in0.0 mm
03:33 AM 48.7°F9.3°C 48.5°F9.2°C 99% 0.7 mph W1.1 kmh W 2.2 mph3.5 kmh 29.62 in1003.0 mb 0.00 in0.0 mm 0.00 in/hr0.0 mm/hr 0.00 in0.0 mm
03:32 AM 48.7°F9.3°C 48.5°F9.2°C 99% 0.9 mph W1.4 kmh W 2.2 mph3.5 kmh 29.62 in1003.0 mb 0.00 in0.0 mm 0.00 in/hr0.0 mm/hr 0.00 in0.0 mm
03:31 AM 48.7°F9.3°C 48.5°F9.2°C 99% 1.0 mph W1.6 kmh W 2.2 mph3.5 kmh 29.62 in1003.0 mb 0.00 in0.0 mm 0.00 in/hr0.0 mm/hr 0.00 in0.0 mm
03:30 AM 48.7°F9.3°C 48.5°F9.2°C 99% 1.0 mph W1.6 kmh W 2.2 mph3.5 kmh 29.62 in1003.0 mb 0.00 in0.0 mm 0.00 in/hr0.0 mm/hr 0.00 in0.0 mm
03:29 AM 48.7°F9.3°C 48.5°F9.2°C 99% 1.0 mph W1.6 kmh W 2.2 mph3.5 kmh 29.62 in1003.0 mb 0.00 in0.0 mm 0.00 in/hr0.0 mm/hr 0.00 in0.0 mm
03:28 AM 48.6°F9.2°C 48.3°F9.1°C 99% 1.0 mph W1.6 kmh W 2.2 mph3.5 kmh 29.62 in1003.0 mb 0.00 in0.0 mm 0.00 in/hr0.0 mm/hr 0.00 in0.0 mm
03:27 AM 48.6°F9.2°C 48.3°F9.1°C 99% 1.2 mph W1.9 kmh W 2.2 mph3.5 kmh 29.62 in1003.0 mb 0.00 in0.0 mm 0.00 in/hr0.0 mm/hr 0.00 in0.0 mm
03:26 AM 48.6°F9.2°C 48.3°F9.1°C 99% 1.2 mph W1.9 kmh W 2.2 mph3.5 kmh 29.62 in1003.0 mb 0.00 in0.0 mm 0.00 in/hr0.0 mm/hr 0.00 in0.0 mm
03:25 AM 48.6°F9.2°C 48.3°F9.1°C 99% 1.3 mph WNW2.1 kmh WNW 2.2 mph3.5 kmh 29.62 in1003.0 mb 0.00 in0.0 mm 0.00 in/hr0.0 mm/hr 0.00 in0.0 mm
03:24 AM 48.6°F9.2°C 48.3°F9.1°C 99% 1.3 mph WNW2.1 kmh WNW 2.2 mph3.5 kmh 29.62 in1003.0 mb 0.00 in0.0 mm 0.00 in/hr0.0 mm/hr 0.00 in0.0 mm
03:23 AM 48.6°F9.2°C 48.3°F9.1°C 99% 1.2 mph WNW1.9 kmh WNW 2.2 mph3.5 kmh 29.62 in1003.0 mb 0.00 in0.0 mm 0.00 in/hr0.0 mm/hr 0.00 in0.0 mm
03:22 AM 48.6°F9.2°C 48.3°F9.1°C 99% 1.1 mph NW1.8 kmh NW 2.2 mph3.5 kmh 29.62 in1003.0 mb 0.00 in0.0 mm 0.00 in/hr0.0 mm/hr 0.00 in0.0 mm
03:21 AM 48.6°F9.2°C 48.3°F9.1°C 99% 1.2 mph NW1.9 kmh NW 2.2 mph3.5 kmh 29.62 in1003.0 mb 0.00 in0.0 mm 0.00 in/hr0.0 mm/hr 0.00 in0.0 mm
03:20 AM 48.6°F9.2°C 48.3°F9.1°C 99% 1.2 mph NW1.9 kmh NW 2.2 mph3.5 kmh 29.62 in1003.0 mb 0.00 in0.0 mm 0.00 in/hr0.0 mm/hr 0.00 in0.0 mm
03:19 AM 48.6°F9.2°C 48.3°F9.1°C 99% 1.2 mph NW1.9 kmh NW 2.2 mph3.5 kmh 29.62 in1003.0 mb 0.00 in0.0 mm 0.00 in/hr0.0 mm/hr 0.00 in0.0 mm
03:18 AM 48.4°F9.1°C 48.1°F8.9°C 99% 1.1 mph NW1.8 kmh NW 2.2 mph3.5 kmh 29.63 in1003.4 mb 0.00 in0.0 mm 0.00 in/hr0.0 mm/hr 0.00 in0.0 mm
03:17 AM 48.4°F9.1°C 48.1°F8.9°C 99% 1.1 mph NW1.8 kmh NW 2.2 mph3.5 kmh 29.63 in1003.4 mb 0.00 in0.0 mm 0.00 in/hr0.0 mm/hr 0.00 in0.0 mm
03:16 AM 48.4°F9.1°C 48.1°F8.9°C 99% 1.0 mph NW1.6 kmh NW 1.6 mph2.6 kmh 29.63 in1003.4 mb 0.00 in0.0 mm 0.00 in/hr0.0 mm/hr 0.00 in0.0 mm
03:15 AM 48.4°F9.1°C 48.1°F8.9°C 99% 1.1 mph NW1.8 kmh NW 1.6 mph2.6 kmh 29.62 in1003.0 mb 0.00 in0.0 mm 0.00 in/hr0.0 mm/hr 0.00 in0.0 mm
03:14 AM 48.4°F9.1°C 48.1°F8.9°C 99% 1.0 mph NW1.6 kmh NW 1.6 mph2.6 kmh 29.62 in1003.0 mb 0.00 in0.0 mm 0.00 in/hr0.0 mm/hr 0.00 in0.0 mm
03:13 AM 48.4°F9.1°C 48.1°F8.9°C 99% 1.0 mph NW1.6 kmh NW 1.6 mph2.6 kmh 29.62 in1003.0 mb 0.00 in0.0 mm 0.00 in/hr0.0 mm/hr 0.00 in0.0 mm
03:12 AM 48.4°F9.1°C 48.1°F8.9°C 99% 0.9 mph NW1.4 kmh NW 1.6 mph2.6 kmh 29.63 in1003.4 mb 0.00 in0.0 mm 0.00 in/hr0.0 mm/hr 0.00 in0.0 mm
03:11 AM 48.4°F9.1°C 48.1°F8.9°C 99% 0.9 mph NW1.4 kmh NW 1.6 mph2.6 kmh 29.62 in1003.0 mb 0.00 in0.0 mm 0.00 in/hr0.0 mm/hr 0.00 in0.0 mm
03:10 AM 48.4°F9.1°C 48.1°F8.9°C 99% 0.9 mph NW1.4 kmh NW 1.6 mph2.6 kmh 29.62 in1003.0 mb 0.00 in0.0 mm 0.00 in/hr0.0 mm/hr 0.00 in0.0 mm
03:09 AM 48.2°F9.0°C 47.9°F8.8°C 99% 0.9 mph NW1.4 kmh NW 1.6 mph2.6 kmh 29.62 in1003.0 mb 0.00 in0.0 mm 0.00 in/hr0.0 mm/hr 0.00 in0.0 mm
03:08 AM 48.2°F9.0°C 47.9°F8.8°C 99% 0.9 mph NW1.4 kmh NW 1.6 mph2.6 kmh 29.62 in1003.0 mb 0.00 in0.0 mm 0.00 in/hr0.0 mm/hr 0.00 in0.0 mm
03:07 AM 48.2°F9.0°C 47.9°F8.8°C 99% 0.9 mph NW1.4 kmh NW 1.6 mph2.6 kmh 29.63 in1003.4 mb 0.00 in0.0 mm 0.00 in/hr0.0 mm/hr 0.00 in0.0 mm
03:06 AM 48.2°F9.0°C 47.9°F8.8°C 99% 0.8 mph NW1.3 kmh NW 1.6 mph2.6 kmh 29.63 in1003.4 mb 0.00 in0.0 mm 0.00 in/hr0.0 mm/hr 0.00 in0.0 mm
03:05 AM 48.2°F9.0°C 47.9°F8.8°C 99% 0.8 mph NW1.3 kmh NW 1.6 mph2.6 kmh 29.62 in1003.0 mb 0.00 in0.0 mm 0.00 in/hr0.0 mm/hr 0.00 in0.0 mm
03:04 AM 48.2°F9.0°C 47.9°F8.8°C 99% 0.7 mph NNW1.1 kmh NNW 1.6 mph2.6 kmh 29.63 in1003.4 mb 0.00 in0.0 mm 0.00 in/hr0.0 mm/hr 0.00 in0.0 mm
03:03 AM 48.2°F9.0°C 47.9°F8.8°C 99% 0.7 mph NNW1.1 kmh NNW 1.6 mph2.6 kmh 29.62 in1003.0 mb 0.00 in0.0 mm 0.00 in/hr0.0 mm/hr 0.00 in0.0 mm
03:02 AM 48.2°F9.0°C 47.9°F8.8°C 99% 0.6 mph NNW1.0 kmh NNW 1.6 mph2.6 kmh 29.63 in1003.4 mb 0.00 in0.0 mm 0.00 in/hr0.0 mm/hr 0.00 in0.0 mm
03:01 AM 48.2°F9.0°C 47.9°F8.8°C 99% 0.5 mph NNW0.8 kmh NNW 1.6 mph2.6 kmh 29.62 in1003.0 mb 0.00 in0.0 mm 0.00 in/hr0.0 mm/hr 0.00 in0.0 mm
03:00 AM 48.2°F9.0°C 47.9°F8.8°C 99% 0.4 mph N0.6 kmh N 1.6 mph2.6 kmh 29.63 in1003.4 mb 0.00 in0.0 mm 0.00 in/hr0.0 mm/hr 0.00 in0.0 mm
02:59 AM 48.2°F9.0°C 47.9°F8.8°C 99% 0.4 mph N0.6 kmh N 1.6 mph2.6 kmh 29.63 in1003.4 mb 0.00 in0.0 mm 0.00 in/hr0.0 mm/hr 0.00 in0.0 mm
02:58 AM 48.2°F9.0°C 47.9°F8.8°C 99% 0.5 mph NNE0.8 kmh NNE 1.6 mph2.6 kmh 29.63 in1003.4 mb 0.00 in0.0 mm 0.00 in/hr0.0 mm/hr 0.00 in0.0 mm
02:57 AM 48.2°F9.0°C 47.9°F8.8°C 99% 0.6 mph NE1.0 kmh NE 1.6 mph2.6 kmh 29.63 in1003.4 mb 0.00 in0.0 mm 0.00 in/hr0.0 mm/hr 0.00 in0.0 mm
02:56 AM 48.2°F9.0°C 47.9°F8.8°C 99% 0.7 mph NE1.1 kmh NE 1.6 mph2.6 kmh 29.63 in1003.4 mb 0.00 in0.0 mm 0.00 in/hr0.0 mm/hr 0.00 in0.0 mm
02:55 AM 48.2°F9.0°C 47.9°F8.8°C 99% 0.6 mph NE1.0 kmh NE 1.6 mph2.6 kmh 29.62 in1003.0 mb 0.00 in0.0 mm 0.00 in/hr0.0 mm/hr 0.00 in0.0 mm
02:54 AM 48.2°F9.0°C 47.9°F8.8°C 99% 0.6 mph NE1.0 kmh NE 1.6 mph2.6 kmh 29.62 in1003.0 mb 0.00 in0.0 mm 0.00 in/hr0.0 mm/hr 0.00 in0.0 mm
02:53 AM 48.2°F9.0°C 47.9°F8.8°C 99% 0.7 mph NE1.1 kmh NE 1.6 mph2.6 kmh 29.62 in1003.0 mb 0.00 in0.0 mm 0.00 in/hr0.0 mm/hr 0.00 in0.0 mm
02:52 AM 48.4°F9.1°C 48.1°F8.9°C 99% 0.7 mph NE1.1 kmh NE 1.6 mph2.6 kmh 29.62 in1003.0 mb 0.00 in0.0 mm 0.00 in/hr0.0 mm/hr 0.00 in0.0 mm
02:51 AM 48.4°F9.1°C 48.1°F8.9°C 99% 0.8 mph NNE1.3 kmh NNE 1.6 mph2.6 kmh 29.62 in1003.0 mb 0.00 in0.0 mm 0.00 in/hr0.0 mm/hr 0.00 in0.0 mm
02:50 AM 48.4°F9.1°C 48.1°F8.9°C 99% 0.9 mph NNE1.4 kmh NNE 1.6 mph2.6 kmh 29.62 in1003.0 mb 0.00 in0.0 mm 0.00 in/hr0.0 mm/hr 0.00 in0.0 mm
02:49 AM 48.4°F9.1°C 48.1°F8.9°C 99% 0.8 mph N1.3 kmh N 1.6 mph2.6 kmh 29.62 in1003.0 mb 0.00 in0.0 mm 0.00 in/hr0.0 mm/hr 0.00 in0.0 mm
02:48 AM 48.4°F9.1°C 48.1°F8.9°C 99% 0.7 mph N1.1 kmh N 1.6 mph2.6 kmh 29.62 in1003.0 mb 0.00 in0.0 mm 0.00 in/hr0.0 mm/hr 0.00 in0.0 mm
02:47 AM 48.6°F9.2°C 48.3°F9.1°C 99% 0.6 mph NNW1.0 kmh NNW 1.6 mph2.6 kmh 29.62 in1003.0 mb 0.00 in0.0 mm 0.00 in/hr0.0 mm/hr 0.00 in0.0 mm
02:46 AM 48.6°F9.2°C 48.3°F9.1°C 99% 0.5 mph NW0.8 kmh NW 1.6 mph2.6 kmh 29.63 in1003.4 mb 0.00 in0.0 mm 0.00 in/hr0.0 mm/hr 0.00 in0.0 mm
02:45 AM 48.6°F9.2°C 48.3°F9.1°C 99% 0.4 mph NW0.6 kmh NW 1.6 mph2.6 kmh 29.62 in1003.0 mb 0.00 in0.0 mm 0.00 in/hr0.0 mm/hr 0.00 in0.0 mm
02:44 AM 48.6°F9.2°C 48.3°F9.1°C 99% 0.4 mph NW0.6 kmh NW 1.6 mph2.6 kmh 29.63 in1003.4 mb 0.00 in0.0 mm 0.00 in/hr0.0 mm/hr 0.00 in0.0 mm
02:43 AM 48.6°F9.2°C 48.3°F9.1°C 99% 0.4 mph NW0.6 kmh NW 1.6 mph2.6 kmh 29.63 in1003.4 mb 0.00 in0.0 mm 0.00 in/hr0.0 mm/hr 0.00 in0.0 mm
02:42 AM 48.6°F9.2°C 48.3°F9.1°C 99% 0.3 mph WNW0.5 kmh WNW 1.6 mph2.6 kmh 29.63 in1003.4 mb 0.00 in0.0 mm 0.00 in/hr0.0 mm/hr 0.00 in0.0 mm
02:41 AM 48.6°F9.2°C 48.3°F9.1°C 99% 0.2 mph W0.3 kmh W 0.7 mph1.1 kmh 29.63 in1003.4 mb 0.00 in0.0 mm 0.00 in/hr0.0 mm/hr 0.00 in0.0 mm
02:40 AM 48.6°F9.2°C 48.3°F9.1°C 99% 0.1 mph W0.2 kmh W 0.7 mph1.1 kmh 29.63 in1003.4 mb 0.00 in0.0 mm 0.00 in/hr0.0 mm/hr 0.00 in0.0 mm
02:39 AM 48.6°F9.2°C 48.3°F9.1°C 99% 0.1 mph W0.2 kmh W 0.7 mph1.1 kmh 29.63 in1003.4 mb 0.00 in0.0 mm 0.00 in/hr0.0 mm/hr 0.00 in0.0 mm
02:38 AM 48.7°F9.3°C 48.5°F9.2°C 99% Calm Calm -- 29.63 in1003.4 mb 0.00 in0.0 mm 0.00 in/hr0.0 mm/hr 0.00 in0.0 mm
02:37 AM 48.7°F9.3°C 48.5°F9.2°C 99% Calm Calm 0.7 mph1.1 kmh 29.63 in1003.4 mb 0.00 in0.0 mm 0.00 in/hr0.0 mm/hr 0.00 in0.0 mm
02:36 AM 48.7°F9.3°C 48.5°F9.2°C 99% 0.1 mph W0.2 kmh W 0.7 mph1.1 kmh 29.63 in1003.4 mb 0.00 in0.0 mm 0.00 in/hr0.0 mm/hr 0.00 in0.0 mm
02:35 AM 48.7°F9.3°C 48.5°F9.2°C 99% 0.1 mph W0.2 kmh W 0.7 mph1.1 kmh 29.63 in1003.4 mb 0.00 in0.0 mm 0.00 in/hr0.0 mm/hr 0.00 in0.0 mm
02:34 AM 48.7°F9.3°C 48.5°F9.2°C 99% 0.2 mph W0.3 kmh W 0.7 mph1.1 kmh 29.62 in1003.0 mb 0.00 in0.0 mm 0.00 in/hr0.0 mm/hr 0.00 in0.0 mm
02:33 AM 48.7°F9.3°C 48.5°F9.2°C 99% 0.3 mph W0.5 kmh W 0.7 mph1.1 kmh 29.62 in1003.0 mb 0.00 in0.0 mm 0.00 in/hr0.0 mm/hr 0.00 in0.0 mm
02:32 AM 48.7°F9.3°C 48.5°F9.2°C 99% 0.3 mph W0.5 kmh W 0.7 mph1.1 kmh 29.62 in1003.0 mb 0.00 in0.0 mm 0.00 in/hr0.0 mm/hr 0.00 in0.0 mm
02:31 AM 48.7°F9.3°C 48.5°F9.2°C 99% 0.4 mph WSW0.6 kmh WSW 1.6 mph2.6 kmh 29.63 in1003.4 mb 0.00 in0.0 mm 0.00 in/hr0.0 mm/hr 0.00 in0.0 mm
02:30 AM 48.7°F9.3°C 48.5°F9.2°C 99% 0.6 mph WSW1.0 kmh WSW 2.2 mph3.5 kmh 29.62 in1003.0 mb 0.00 in0.0 mm 0.00 in/hr0.0 mm/hr 0.00 in0.0 mm
02:29 AM 48.7°F9.3°C 48.5°F9.2°C 99% 0.9 mph WSW1.4 kmh WSW 3.1 mph5.0 kmh 29.63 in1003.4 mb 0.00 in0.0 mm 0.00 in/hr0.0 mm/hr 0.00 in0.0 mm
02:28 AM 48.6°F9.2°C 48.3°F9.1°C 99% 1.1 mph SW1.8 kmh SW 3.1 mph5.0 kmh 29.63 in1003.4 mb 0.00 in0.0 mm 0.00 in/hr0.0 mm/hr 0.00 in0.0 mm
02:27 AM 48.6°F9.2°C 48.3°F9.1°C 99% 1.1 mph SW1.8 kmh SW 3.1 mph5.0 kmh 29.63 in1003.4 mb 0.00 in0.0 mm 0.00 in/hr0.0 mm/hr 0.00 in0.0 mm
02:26 AM 48.6°F9.2°C 48.3°F9.1°C 99% 1.1 mph SW1.8 kmh SW 3.1 mph5.0 kmh 29.63 in1003.4 mb 0.00 in0.0 mm 0.00 in/hr0.0 mm/hr 0.00 in0.0 mm
02:25 AM 48.6°F9.2°C 48.3°F9.1°C 99% 1.2 mph SW1.9 kmh SW 3.1 mph5.0 kmh 29.63 in1003.4 mb 0.00 in0.0 mm 0.00 in/hr0.0 mm/hr 0.00 in0.0 mm
02:24 AM 48.6°F9.2°C 48.3°F9.1°C 99% 1.3 mph SW2.1 kmh SW 3.1 mph5.0 kmh 29.63 in1003.4 mb 0.00 in0.0 mm 0.00 in/hr0.0 mm/hr 0.00 in0.0 mm
02:23 AM 48.6°F9.2°C 48.3°F9.1°C 99% 1.3 mph SW2.1 kmh SW 3.1 mph5.0 kmh 29.63 in1003.4 mb 0.00 in0.0 mm 0.00 in/hr0.0 mm/hr 0.00 in0.0 mm
02:22 AM 48.4°F9.1°C 48.1°F8.9°C 99% 1.4 mph SW2.3 kmh SW 3.1 mph5.0 kmh 29.64 in1003.7 mb 0.00 in0.0 mm 0.00 in/hr0.0 mm/hr 0.00 in0.0 mm
02:21 AM 48.4°F9.1°C 48.1°F8.9°C 99% 1.5 mph SW2.4 kmh SW 3.1 mph5.0 kmh 29.63 in1003.4 mb 0.00 in0.0 mm 0.00 in/hr0.0 mm/hr 0.00 in0.0 mm
02:20 AM 48.4°F9.1°C 48.1°F8.9°C 99% 1.4 mph WSW2.3 kmh WSW 3.1 mph5.0 kmh 29.63 in1003.4 mb 0.00 in0.0 mm 0.00 in/hr0.0 mm/hr 0.00 in0.0 mm
02:19 AM 48.4°F9.1°C 48.1°F8.9°C 99% 1.1 mph WSW1.8 kmh WSW 3.1 mph5.0 kmh 29.63 in1003.4 mb 0.00 in0.0 mm 0.00 in/hr0.0 mm/hr 0.00 in0.0 mm
02:18 AM 48.2°F9.0°C 47.9°F8.8°C 99% 1.0 mph WSW1.6 kmh WSW 1.6 mph2.6 kmh 29.63 in1003.4 mb 0.00 in0.0 mm 0.00 in/hr0.0 mm/hr 0.00 in0.0 mm
02:17 AM 48.2°F9.0°C 47.9°F8.8°C 99% 1.0 mph WSW1.6 kmh WSW 1.6 mph2.6 kmh 29.63 in1003.4 mb 0.00 in0.0 mm 0.00 in/hr0.0 mm/hr 0.00 in0.0 mm
02:16 AM 48.2°F9.0°C 47.9°F8.8°C 99% 0.9 mph WSW1.4 kmh WSW 1.6 mph2.6 kmh 29.63 in1003.4 mb 0.00 in0.0 mm 0.00 in/hr0.0 mm/hr 0.00 in0.0 mm
02:15 AM 48.0°F8.9°C 47.8°F8.8°C 99% 0.8 mph WSW1.3 kmh WSW 1.6 mph2.6 kmh 29.63 in1003.4 mb 0.00 in0.0 mm 0.00 in/hr0.0 mm/hr 0.00 in0.0 mm
02:14 AM 48.0°F8.9°C 47.8°F8.8°C 99% 0.7 mph W1.1 kmh W 1.6 mph2.6 kmh 29.63 in1003.4 mb 0.00 in0.0 mm 0.00 in/hr0.0 mm/hr 0.00 in0.0 mm
02:13 AM 47.8°F8.8°C 47.6°F8.7°C 99% 0.7 mph WNW1.1 kmh WNW 1.6 mph2.6 kmh 29.64 in1003.7 mb 0.00 in0.0 mm 0.00 in/hr0.0 mm/hr 0.00 in0.0 mm
02:12 AM 47.8°F8.8°C 47.6°F8.7°C 99% 0.7 mph NW1.1 kmh NW 1.6 mph2.6 kmh 29.64 in1003.7 mb 0.00 in0.0 mm 0.00 in/hr0.0 mm/hr 0.00 in0.0 mm
02:11 AM 47.8°F8.8°C 47.6°F8.7°C 99% 0.7 mph NW1.1 kmh NW 1.6 mph2.6 kmh 29.63 in1003.4 mb 0.00 in0.0 mm 0.00 in/hr0.0 mm/hr 0.00 in0.0 mm
02:10 AM 47.7°F8.7°C 47.4°F8.6°C 99% 0.6 mph NW1.0 kmh NW 1.6 mph2.6 kmh 29.64 in1003.7 mb 0.00 in0.0 mm 0.00 in/hr0.0 mm/hr 0.00 in0.0 mm
02:09 AM 47.7°F8.7°C 47.4°F8.6°C 99% 0.7 mph NW1.1 kmh NW 1.6 mph2.6 kmh 29.63 in1003.4 mb 0.00 in0.0 mm 0.00 in/hr0.0 mm/hr 0.00 in0.0 mm
02:08 AM 47.7°F8.7°C 47.4°F8.6°C 99% 0.7 mph NW1.1 kmh NW 1.6 mph2.6 kmh 29.64 in1003.7 mb 0.00 in0.0 mm 0.00 in/hr0.0 mm/hr 0.00 in0.0 mm
02:07 AM 47.7°F8.7°C 47.4°F8.6°C 99% 0.8 mph NW1.3 kmh NW 1.6 mph2.6 kmh 29.64 in1003.7 mb 0.00 in0.0 mm 0.00 in/hr0.0 mm/hr 0.00 in0.0 mm
02:06 AM 47.7°F8.7°C 47.4°F8.6°C 99% 0.9 mph NW1.4 kmh NW 1.6 mph2.6 kmh 29.64 in1003.7 mb 0.00 in0.0 mm 0.00 in/hr0.0 mm/hr 0.00 in0.0 mm
02:05 AM 47.5°F8.6°C 47.2°F8.4°C 99% 1.0 mph NW1.6 kmh NW 1.6 mph2.6 kmh 29.64 in1003.7 mb 0.00 in0.0 mm 0.00 in/hr0.0 mm/hr 0.00 in0.0 mm
02:04 AM 47.5°F8.6°C 47.2°F8.4°C 99% 1.1 mph NNW1.8 kmh NNW 1.6 mph2.6 kmh 29.64 in1003.7 mb 0.00 in0.0 mm 0.00 in/hr0.0 mm/hr 0.00 in0.0 mm
02:03 AM 47.5°F8.6°C 47.2°F8.4°C 99% 1.1 mph NNW1.8 kmh NNW 1.6 mph2.6 kmh 29.64 in1003.7 mb 0.00 in0.0 mm 0.00 in/hr0.0 mm/hr 0.00 in0.0 mm
02:02 AM 47.5°F8.6°C 47.2°F8.4°C 99% 0.9 mph NNW1.4 kmh NNW 1.6 mph2.6 kmh 29.64 in1003.7 mb 0.00 in0.0 mm 0.00 in/hr0.0 mm/hr 0.00 in0.0 mm
02:01 AM 47.5°F8.6°C 47.2°F8.4°C 99% 0.8 mph NNW1.3 kmh NNW 1.6 mph2.6 kmh 29.64 in1003.7 mb 0.00 in0.0 mm 0.00 in/hr0.0 mm/hr 0.00 in0.0 mm
02:00 AM 47.5°F8.6°C 47.2°F8.4°C 99% 0.7 mph N1.1 kmh N 1.6 mph2.6 kmh 29.64 in1003.7 mb 0.00 in0.0 mm 0.00 in/hr0.0 mm/hr 0.00 in0.0 mm
01:59 AM 47.5°F8.6°C 47.2°F8.4°C 99% 0.7 mph N1.1 kmh N 1.6 mph2.6 kmh 29.64 in1003.7 mb 0.00 in0.0 mm 0.00 in/hr0.0 mm/hr 0.00 in0.0 mm
01:58 AM 47.5°F8.6°C 47.2°F8.4°C 99% 0.6 mph N1.0 kmh N 1.6 mph2.6 kmh 29.64 in1003.7 mb 0.00 in0.0 mm 0.00 in/hr0.0 mm/hr 0.00 in0.0 mm
01:57 AM 47.5°F8.6°C 47.2°F8.4°C 99% 0.5 mph N0.8 kmh N 1.6 mph2.6 kmh 29.64 in1003.7 mb 0.00 in0.0 mm 0.00 in/hr0.0 mm/hr 0.00 in0.0 mm
01:56 AM 47.5°F8.6°C 47.2°F8.4°C 99% 0.3 mph N0.5 kmh N 1.6 mph2.6 kmh 29.64 in1003.7 mb 0.00 in0.0 mm 0.00 in/hr0.0 mm/hr 0.00 in0.0 mm
01:55 AM 47.7°F8.7°C 47.4°F8.6°C 99% 0.2 mph N0.3 kmh N 1.6 mph2.6 kmh 29.64 in1003.7 mb 0.00 in0.0 mm 0.00 in/hr0.0 mm/hr 0.00 in0.0 mm
01:54 AM 47.7°F8.7°C 47.4°F8.6°C 99% Calm Calm 0.7 mph1.1 kmh 29.64 in1003.7 mb 0.00 in0.0 mm 0.00 in/hr0.0 mm/hr 0.00 in0.0 mm
01:53 AM 47.7°F8.7°C 47.4°F8.6°C 99% Calm Calm -- 29.63 in1003.4 mb 0.00 in0.0 mm 0.00 in/hr0.0 mm/hr 0.00 in0.0 mm
01:52 AM 47.7°F8.7°C 47.4°F8.6°C 99% Calm Calm -- 29.63 in1003.4 mb 0.00 in0.0 mm 0.00 in/hr0.0 mm/hr 0.00 in0.0 mm
01:51 AM 47.8°F8.8°C 47.6°F8.7°C 99% Calm Calm -- 29.63 in1003.4 mb 0.00 in0.0 mm 0.00 in/hr0.0 mm/hr 0.00 in0.0 mm
01:50 AM 47.8°F8.8°C 47.6°F8.7°C 99% Calm Calm -- 29.63 in1003.4 mb 0.00 in0.0 mm 0.00 in/hr0.0 mm/hr 0.00 in0.0 mm
01:49 AM 47.8°F8.8°C 47.6°F8.7°C 99% Calm Calm -- 29.63 in1003.4 mb 0.00 in0.0 mm 0.00 in/hr0.0 mm/hr 0.00 in0.0 mm
01:48 AM 47.8°F8.8°C 47.6°F8.7°C 99% Calm Calm -- 29.63 in1003.4 mb 0.00 in0.0 mm 0.00 in/hr0.0 mm/hr 0.00 in0.0 mm
01:47 AM 47.8°F8.8°C 47.6°F8.7°C 99% Calm Calm -- 29.63 in1003.4 mb 0.00 in0.0 mm 0.00 in/hr0.0 mm/hr 0.00 in0.0 mm
01:46 AM 48.0°F8.9°C 47.8°F8.8°C 99% Calm Calm -- 29.63 in1003.4 mb 0.00 in0.0 mm 0.00 in/hr0.0 mm/hr 0.00 in0.0 mm
01:45 AM 48.0°F8.9°C 47.8°F8.8°C 99% Calm Calm -- 29.63 in1003.4 mb 0.00 in0.0 mm 0.00 in/hr0.0 mm/hr 0.00 in0.0 mm
01:44 AM 48.0°F8.9°C 47.8°F8.8°C 99% Calm Calm -- 29.63 in1003.4 mb 0.00 in0.0 mm 0.00 in/hr0.0 mm/hr 0.00 in0.0 mm
01:43 AM 48.0°F8.9°C 47.8°F8.8°C 99% Calm Calm -- 29.63 in1003.4 mb 0.00 in0.0 mm 0.00 in/hr0.0 mm/hr 0.00 in0.0 mm
01:42 AM 48.2°F9.0°C 47.9°F8.8°C 99% Calm Calm 0.7 mph1.1 kmh 29.63 in1003.4 mb 0.00 in0.0 mm 0.00 in/hr0.0 mm/hr 0.00 in0.0 mm
01:41 AM 48.2°F9.0°C 47.9°F8.8°C 99% 0.1 mph N0.2 kmh N 0.7 mph1.1 kmh 29.63 in1003.4 mb 0.00 in0.0 mm 0.00 in/hr0.0 mm/hr 0.00 in0.0 mm
01:40 AM 48.2°F9.0°C 47.9°F8.8°C 99% 0.1 mph N0.2 kmh N 0.7 mph1.1 kmh 29.63 in1003.4 mb 0.00 in0.0 mm 0.00 in/hr0.0 mm/hr 0.00 in0.0 mm
01:39 AM 48.2°F9.0°C 47.9°F8.8°C 99% 0.1 mph N0.2 kmh N 0.7 mph1.1 kmh 29.63 in1003.4 mb 0.00 in0.0 mm 0.00 in/hr0.0 mm/hr 0.00 in0.0 mm
01:38 AM 48.2°F9.0°C 47.9°F8.8°C 99% 0.2 mph NNW0.3 kmh NNW 0.7 mph1.1 kmh 29.63 in1003.4 mb 0.00 in0.0 mm 0.00 in/hr0.0 mm/hr 0.00 in0.0 mm
01:37 AM 48.4°F9.1°C 48.1°F8.9°C 99% 0.2 mph NNW0.3 kmh NNW 0.7 mph1.1 kmh 29.62 in1003.0 mb 0.00 in0.0 mm 0.00 in/hr0.0 mm/hr 0.00 in0.0 mm
01:36 AM 48.4°F9.1°C 48.1°F8.9°C 99% 0.2 mph NNW0.3 kmh NNW 0.7 mph1.1 kmh 29.63 in1003.4 mb 0.00 in0.0 mm 0.00 in/hr0.0 mm/hr 0.00 in0.0 mm
01:35 AM 48.4°F9.1°C 48.1°F8.9°C 99% 0.3 mph NNW0.5 kmh NNW 0.7 mph1.1 kmh 29.63 in1003.4 mb 0.00 in0.0 mm 0.00 in/hr0.0 mm/hr 0.00 in0.0 mm
01:34 AM 48.4°F9.1°C 48.1°F8.9°C 99% 0.4 mph NW0.6 kmh NW 0.7 mph1.1 kmh 29.63 in1003.4 mb 0.00 in0.0 mm 0.00 in/hr0.0 mm/hr 0.00 in0.0 mm
01:33 AM 48.4°F9.1°C 48.1°F8.9°C 99% 0.4 mph NW0.6 kmh NW 0.7 mph1.1 kmh 29.63 in1003.4 mb 0.00 in0.0 mm 0.00 in/hr0.0 mm/hr 0.00 in0.0 mm
01:32 AM 48.4°F9.1°C 48.1°F8.9°C 99% 0.3 mph NW0.5 kmh NW 0.7 mph1.1 kmh 29.63 in1003.4 mb 0.00 in0.0 mm 0.00 in/hr0.0 mm/hr 0.00 in0.0 mm
01:31 AM 48.6°F9.2°C 48.3°F9.1°C 99% 0.3 mph NW0.5 kmh NW 0.7 mph1.1 kmh 29.63 in1003.4 mb 0.00 in0.0 mm 0.00 in/hr0.0 mm/hr 0.00 in0.0 mm
01:30 AM 48.6°F9.2°C 48.3°F9.1°C 99% 0.3 mph NW0.5 kmh NW 0.7 mph1.1 kmh 29.63 in1003.4 mb 0.00 in0.0 mm 0.00 in/hr0.0 mm/hr 0.00 in0.0 mm
01:29 AM 48.6°F9.2°C 48.3°F9.1°C 99% 0.3 mph NW0.5 kmh NW 0.7 mph1.1 kmh 29.63 in1003.4 mb 0.00 in0.0 mm 0.00 in/hr0.0 mm/hr 0.00 in0.0 mm
01:28 AM 48.6°F9.2°C 48.3°F9.1°C 99% 0.3 mph NW0.5 kmh NW 0.7 mph1.1 kmh 29.63 in1003.4 mb 0.00 in0.0 mm 0.00 in/hr0.0 mm/hr 0.00 in0.0 mm
01:27 AM 48.6°F9.2°C 48.3°F9.1°C 99% 0.3 mph NW0.5 kmh NW 0.7 mph1.1 kmh 29.63 in1003.4 mb 0.00 in0.0 mm 0.00 in/hr0.0 mm/hr 0.00 in0.0 mm
01:26 AM 48.6°F9.2°C 48.3°F9.1°C 99% 0.3 mph NW0.5 kmh NW 0.7 mph1.1 kmh 29.63 in1003.4 mb 0.00 in0.0 mm 0.00 in/hr0.0 mm/hr 0.00 in0.0 mm
01:25 AM 48.6°F9.2°C 48.3°F9.1°C 99% 0.4 mph NW0.6 kmh NW 1.6 mph2.6 kmh 29.62 in1003.0 mb 0.00 in0.0 mm 0.00 in/hr0.0 mm/hr 0.00 in0.0 mm
01:24 AM 48.6°F9.2°C 48.3°F9.1°C 99% 0.4 mph NW0.6 kmh NW 1.6 mph2.6 kmh 29.63 in1003.4 mb 0.00 in0.0 mm 0.00 in/hr0.0 mm/hr 0.00 in0.0 mm
01:23 AM 48.6°F9.2°C 48.3°F9.1°C 99% 0.4 mph NW0.6 kmh NW 1.6 mph2.6 kmh 29.62 in1003.0 mb 0.00 in0.0 mm 0.00 in/hr0.0 mm/hr 0.00 in0.0 mm
01:22 AM 48.7°F9.3°C 48.5°F9.2°C 99% 0.5 mph NW0.8 kmh NW 1.6 mph2.6 kmh 29.62 in1003.0 mb 0.00 in0.0 mm 0.00 in/hr0.0 mm/hr 0.00 in0.0 mm
01:21 AM 48.7°F9.3°C 48.5°F9.2°C 99% 0.6 mph NW1.0 kmh NW 1.6 mph2.6 kmh 29.63 in1003.4 mb 0.00 in0.0 mm 0.00 in/hr0.0 mm/hr 0.00 in0.0 mm
01:20 AM 48.7°F9.3°C 48.5°F9.2°C 99% 0.8 mph NW1.3 kmh NW 1.6 mph2.6 kmh 29.62 in1003.0 mb 0.00 in0.0 mm 0.00 in/hr0.0 mm/hr 0.00 in0.0 mm
01:19 AM 48.7°F9.3°C 48.5°F9.2°C 99% 0.9 mph NW1.4 kmh NW 1.6 mph2.6 kmh 29.63 in1003.4 mb 0.00 in0.0 mm 0.00 in/hr0.0 mm/hr 0.00 in0.0 mm
01:18 AM 48.7°F9.3°C 48.5°F9.2°C 99% 1.0 mph NW1.6 kmh NW 1.6 mph2.6 kmh 29.62 in1003.0 mb 0.00 in0.0 mm 0.00 in/hr0.0 mm/hr 0.00 in0.0 mm
01:17 AM 48.7°F9.3°C 48.5°F9.2°C 99% 1.0 mph NW1.6 kmh NW 1.6 mph2.6 kmh 29.63 in1003.4 mb 0.00 in0.0 mm 0.00 in/hr0.0 mm/hr 0.00 in0.0 mm
01:16 AM 48.7°F9.3°C 48.5°F9.2°C 99% 1.0 mph NW1.6 kmh NW 1.6 mph2.6 kmh 29.63 in1003.4 mb 0.00 in0.0 mm 0.00 in/hr0.0 mm/hr 0.00 in0.0 mm
01:15 AM 48.7°F9.3°C 48.5°F9.2°C 99% 1.0 mph NW1.6 kmh NW 1.6 mph2.6 kmh 29.63 in1003.4 mb 0.00 in0.0 mm 0.00 in/hr0.0 mm/hr 0.00 in0.0 mm
01:14 AM 48.7°F9.3°C 48.5°F9.2°C 99% 0.9 mph NW1.4 kmh NW 1.6 mph2.6 kmh 29.63 in1003.4 mb 0.00 in0.0 mm 0.00 in/hr0.0 mm/hr 0.00 in0.0 mm
01:13 AM 48.7°F9.3°C 48.5°F9.2°C 99% 0.9 mph NW1.4 kmh NW 1.6 mph2.6 kmh 29.63 in1003.4 mb 0.00 in0.0 mm 0.00 in/hr0.0 mm/hr 0.00 in0.0 mm
01:12 AM 48.9°F9.4°C 48.7°F9.3°C 99% 0.8 mph NW1.3 kmh NW 1.6 mph2.6 kmh 29.63 in1003.4 mb 0.00 in0.0 mm 0.00 in/hr0.0 mm/hr 0.00 in0.0 mm
01:11 AM 48.9°F9.4°C 48.7°F9.3°C 99% 0.8 mph NW1.3 kmh NW 1.6 mph2.6 kmh 29.63 in1003.4 mb 0.00 in0.0 mm 0.00 in/hr0.0 mm/hr 0.00 in0.0 mm
01:10 AM 48.9°F9.4°C 48.7°F9.3°C 99% 0.7 mph NW1.1 kmh NW 1.6 mph2.6 kmh 29.63 in1003.4 mb 0.00 in0.0 mm 0.00 in/hr0.0 mm/hr 0.00 in0.0 mm
01:09 AM 48.9°F9.4°C 48.7°F9.3°C 99% 0.7 mph NW1.1 kmh NW 1.6 mph2.6 kmh 29.63 in1003.4 mb 0.00 in0.0 mm 0.00 in/hr0.0 mm/hr 0.00 in0.0 mm
01:08 AM 48.9°F9.4°C 48.7°F9.3°C 99% 0.6 mph NW1.0 kmh NW 1.6 mph2.6 kmh 29.63 in1003.4 mb 0.00 in0.0 mm 0.00 in/hr0.0 mm/hr 0.00 in0.0 mm
01:07 AM 48.9°F9.4°C 48.7°F9.3°C 99% 0.6 mph NW1.0 kmh NW 1.6 mph2.6 kmh 29.63 in1003.4 mb 0.00 in0.0 mm 0.00 in/hr0.0 mm/hr 0.00 in0.0 mm
01:06 AM 48.9°F9.4°C 48.7°F9.3°C 99% 0.5 mph NW0.8 kmh NW 1.6 mph2.6 kmh 29.63 in1003.4 mb 0.00 in0.0 mm 0.00 in/hr0.0 mm/hr 0.00 in0.0 mm
01:05 AM 48.9°F9.4°C 48.7°F9.3°C 99% 0.5 mph NW0.8 kmh NW 1.6 mph2.6 kmh 29.63 in1003.4 mb 0.00 in0.0 mm 0.00 in/hr0.0 mm/hr 0.00 in0.0 mm
01:04 AM 48.9°F9.4°C 48.7°F9.3°C 99% 0.6 mph NW1.0 kmh NW 1.6 mph2.6 kmh 29.63 in1003.4 mb 0.00 in0.0 mm 0.00 in/hr0.0 mm/hr 0.00 in0.0 mm
01:03 AM 48.9°F9.4°C 48.7°F9.3°C 99% 0.6 mph NW1.0 kmh NW 1.6 mph2.6 kmh 29.62 in1003.0 mb 0.00 in0.0 mm 0.00 in/hr0.0 mm/hr 0.00 in0.0 mm
01:02 AM 48.9°F9.4°C 48.7°F9.3°C 99% 0.7 mph NNW1.1 kmh NNW 1.6 mph2.6 kmh 29.63 in1003.4 mb 0.00 in0.0 mm 0.00 in/hr0.0 mm/hr 0.00 in0.0 mm
01:01 AM 48.9°F9.4°C 48.7°F9.3°C 99% 0.7 mph NNW1.1 kmh NNW 1.6 mph2.6 kmh 29.63 in1003.4 mb 0.00 in0.0 mm 0.00 in/hr0.0 mm/hr 0.00 in0.0 mm
01:00 AM 48.9°F9.4°C 48.7°F9.3°C 99% 0.7 mph N1.1 kmh N 1.6 mph2.6 kmh 29.63 in1003.4 mb 0.00 in0.0 mm 0.00 in/hr0.0 mm/hr 0.00 in0.0 mm
12:59 AM 48.9°F9.4°C 48.7°F9.3°C 99% 0.7 mph N1.1 kmh N 1.6 mph2.6 kmh 29.63 in1003.4 mb 0.00 in0.0 mm 0.00 in/hr0.0 mm/hr 0.00 in0.0 mm
12:58 AM 48.9°F9.4°C 48.7°F9.3°C 99% 0.6 mph N1.0 kmh N 1.6 mph2.6 kmh 29.63 in1003.4 mb 0.00 in0.0 mm 0.00 in/hr0.0 mm/hr 0.00 in0.0 mm
12:57 AM 48.9°F9.4°C 48.7°F9.3°C 99% 0.7 mph N1.1 kmh N 1.6 mph2.6 kmh 29.63 in1003.4 mb 0.00 in0.0 mm 0.00 in/hr0.0 mm/hr 0.00 in0.0 mm
12:56 AM 48.9°F9.4°C 48.7°F9.3°C 99% 0.8 mph N1.3 kmh N 1.6 mph2.6 kmh 29.63 in1003.4 mb 0.00 in0.0 mm 0.00 in/hr0.0 mm/hr 0.00 in0.0 mm
12:55 AM 49.1°F9.5°C 48.8°F9.3°C 99% 0.7 mph N1.1 kmh N 1.6 mph2.6 kmh 29.63 in1003.4 mb 0.00 in0.0 mm 0.00 in/hr0.0 mm/hr 0.00 in0.0 mm
12:54 AM 49.1°F9.5°C 48.8°F9.3°C 99% 0.7 mph NNW1.1 kmh NNW 1.6 mph2.6 kmh 29.63 in1003.4 mb 0.00 in0.0 mm 0.00 in/hr0.0 mm/hr 0.00 in0.0 mm
12:53 AM 49.1°F9.5°C 48.8°F9.3°C 99% 0.7 mph NNW1.1 kmh NNW 1.6 mph2.6 kmh 29.63 in1003.4 mb 0.00 in0.0 mm 0.00 in/hr0.0 mm/hr 0.00 in0.0 mm
12:52 AM 49.1°F9.5°C 48.8°F9.3°C 99% 0.6 mph NNW1.0 kmh NNW 1.6 mph2.6 kmh 29.63 in1003.4 mb 0.00 in0.0 mm 0.00 in/hr0.0 mm/hr 0.00 in0.0 mm
12:51 AM 49.3°F9.6°C 49.0°F9.4°C 99% 0.5 mph NNW0.8 kmh NNW 1.6 mph2.6 kmh 29.63 in1003.4 mb 0.00 in0.0 mm 0.00 in/hr0.0 mm/hr 0.00 in0.0 mm
12:50 AM 49.3°F9.6°C 49.0°F9.4°C 99% 0.4 mph NW0.6 kmh NW 1.6 mph2.6 kmh 29.63 in1003.4 mb 0.00 in0.0 mm 0.00 in/hr0.0 mm/hr 0.00 in0.0 mm
12:49 AM 49.3°F9.6°C 49.0°F9.4°C 99% 0.3 mph NW0.5 kmh NW 1.6 mph2.6 kmh 29.63 in1003.4 mb 0.00 in0.0 mm 0.00 in/hr0.0 mm/hr 0.00 in0.0 mm
12:48 AM 49.3°F9.6°C 49.0°F9.4°C 99% 0.3 mph NW0.5 kmh NW 1.6 mph2.6 kmh 29.63 in1003.4 mb 0.00 in0.0 mm 0.00 in/hr0.0 mm/hr 0.00 in0.0 mm
12:47 AM 49.3°F9.6°C 49.0°F9.4°C 99% 0.3 mph NW0.5 kmh NW 1.6 mph2.6 kmh 29.63 in1003.4 mb 0.00 in0.0 mm 0.00 in/hr0.0 mm/hr 0.00 in0.0 mm
12:46 AM 49.3°F9.6°C 49.0°F9.4°C 99% 0.2 mph NW0.3 kmh NW 0.7 mph1.1 kmh 29.63 in1003.4 mb 0.00 in0.0 mm 0.00 in/hr0.0 mm/hr 0.00 in0.0 mm
12:45 AM 49.5°F9.7°C 49.2°F9.6°C 99% 0.3 mph NW0.5 kmh NW 0.7 mph1.1 kmh 29.63 in1003.4 mb 0.00 in0.0 mm 0.00 in/hr0.0 mm/hr 0.00 in0.0 mm
12:44 AM 49.5°F9.7°C 49.2°F9.6°C 99% 0.3 mph NW0.5 kmh NW 0.7 mph1.1 kmh 29.63 in1003.4 mb 0.00 in0.0 mm 0.00 in/hr0.0 mm/hr 0.00 in0.0 mm
12:43 AM 49.6°F9.8°C 49.4°F9.7°C 99% 0.4 mph NW0.6 kmh NW 1.6 mph2.6 kmh 29.63 in1003.4 mb 0.00 in0.0 mm 0.00 in/hr0.0 mm/hr 0.00 in0.0 mm
12:42 AM 49.6°F9.8°C 49.4°F9.7°C 99% 0.6 mph WNW1.0 kmh WNW 2.2 mph3.5 kmh 29.63 in1003.4 mb 0.00 in0.0 mm 0.00 in/hr0.0 mm/hr 0.00 in0.0 mm
12:41 AM 49.6°F9.8°C 49.4°F9.7°C 99% 0.8 mph W1.3 kmh W 2.2 mph3.5 kmh 29.63 in1003.4 mb 0.00 in0.0 mm 0.00 in/hr0.0 mm/hr 0.00 in0.0 mm
12:40 AM 49.6°F9.8°C 49.4°F9.7°C 99% 1.1 mph W1.8 kmh W 3.1 mph5.0 kmh 29.63 in1003.4 mb 0.00 in0.0 mm 0.00 in/hr0.0 mm/hr 0.00 in0.0 mm
12:39 AM 49.6°F9.8°C 49.4°F9.7°C 99% 1.3 mph WSW2.1 kmh WSW 3.1 mph5.0 kmh 29.63 in1003.4 mb 0.00 in0.0 mm 0.00 in/hr0.0 mm/hr 0.00 in0.0 mm
12:38 AM 49.6°F9.8°C 49.4°F9.7°C 99% 1.5 mph WSW2.4 kmh WSW 3.1 mph5.0 kmh 29.63 in1003.4 mb 0.00 in0.0 mm 0.00 in/hr0.0 mm/hr 0.00 in0.0 mm
12:37 AM 49.6°F9.8°C 49.4°F9.7°C 99% 1.5 mph WSW2.4 kmh WSW 3.1 mph5.0 kmh 29.63 in1003.4 mb 0.00 in0.0 mm 0.00 in/hr0.0 mm/hr 0.00 in0.0 mm
12:36 AM 49.8°F9.9°C 49.6°F9.8°C 99% 1.8 mph WSW2.9 kmh WSW 3.8 mph6.1 kmh 29.63 in1003.4 mb 0.00 in0.0 mm 0.00 in/hr0.0 mm/hr 0.00 in0.0 mm
12:35 AM 49.6°F9.8°C 49.4°F9.7°C 99% 2.0 mph WSW3.2 kmh WSW 3.8 mph6.1 kmh 29.63 in1003.4 mb 0.00 in0.0 mm 0.00 in/hr0.0 mm/hr 0.00 in0.0 mm
12:34 AM 49.6°F9.8°C 49.4°F9.7°C 99% 2.2 mph WSW3.5 kmh WSW 3.8 mph6.1 kmh 29.63 in1003.4 mb 0.00 in0.0 mm 0.00 in/hr0.0 mm/hr 0.00 in0.0 mm
12:33 AM 49.6°F9.8°C 49.4°F9.7°C 99% 2.3 mph WSW3.7 kmh WSW 3.8 mph6.1 kmh 29.62 in1003.0 mb 0.00 in0.0 mm 0.00 in/hr0.0 mm/hr 0.00 in0.0 mm
12:32 AM 49.6°F9.8°C 49.4°F9.7°C 99% 2.3 mph WSW3.7 kmh WSW 3.8 mph6.1 kmh 29.62 in1003.0 mb 0.00 in0.0 mm 0.00 in/hr0.0 mm/hr 0.00 in0.0 mm
12:31 AM 49.6°F9.8°C 49.4°F9.7°C 99% 2.4 mph WSW3.9 kmh WSW 3.8 mph6.1 kmh 29.62 in1003.0 mb 0.00 in0.0 mm 0.00 in/hr0.0 mm/hr 0.00 in0.0 mm
12:30 AM 49.6°F9.8°C 49.4°F9.7°C 99% 2.2 mph WSW3.5 kmh WSW 3.8 mph6.1 kmh 29.62 in1003.0 mb 0.00 in0.0 mm 0.00 in/hr0.0 mm/hr 0.00 in0.0 mm
12:29 AM 49.6°F9.8°C 49.4°F9.7°C 99% 2.0 mph WSW3.2 kmh WSW 3.8 mph6.1 kmh 29.63 in1003.4 mb 0.00 in0.0 mm 0.00 in/hr0.0 mm/hr 0.00 in0.0 mm
12:28 AM 49.6°F9.8°C 49.4°F9.7°C 99% 1.9 mph WSW3.1 kmh WSW 3.8 mph6.1 kmh 29.62 in1003.0 mb 0.00 in0.0 mm 0.00 in/hr0.0 mm/hr 0.00 in0.0 mm
12:27 AM 49.6°F9.8°C 49.4°F9.7°C 99% 1.9 mph W3.1 kmh W 3.8 mph6.1 kmh 29.63 in1003.4 mb 0.00 in0.0 mm 0.00 in/hr0.0 mm/hr 0.00 in0.0 mm
12:26 AM 49.6°F9.8°C 49.4°F9.7°C 99% 1.7 mph W2.7 kmh W 3.1 mph5.0 kmh 29.62 in1003.0 mb 0.00 in0.0 mm 0.00 in/hr0.0 mm/hr 0.00 in0.0 mm
12:25 AM 49.6°F9.8°C 49.4°F9.7°C 99% 1.6 mph WNW2.6 kmh WNW 3.1 mph5.0 kmh 29.63 in1003.4 mb 0.00 in0.0 mm 0.00 in/hr0.0 mm/hr 0.00 in0.0 mm
12:24 AM 49.6°F9.8°C 49.4°F9.7°C 99% 1.6 mph NW2.6 kmh NW 3.1 mph5.0 kmh 29.63 in1003.4 mb 0.00 in0.0 mm 0.00 in/hr0.0 mm/hr 0.00 in0.0 mm
12:23 AM 49.6°F9.8°C 49.4°F9.7°C 99% 1.5 mph NW2.4 kmh NW 3.1 mph5.0 kmh 29.63 in1003.4 mb 0.00 in0.0 mm 0.00 in/hr0.0 mm/hr 0.00 in0.0 mm
12:22 AM 49.5°F9.7°C 49.2°F9.6°C 99% 1.5 mph NW2.4 kmh NW 3.1 mph5.0 kmh 29.63 in1003.4 mb 0.00 in0.0 mm 0.00 in/hr0.0 mm/hr 0.00 in0.0 mm
12:21 AM 49.5°F9.7°C 49.2°F9.6°C 99% 1.3 mph NW2.1 kmh NW 2.2 mph3.5 kmh 29.63 in1003.4 mb 0.00 in0.0 mm 0.00 in/hr0.0 mm/hr 0.00 in0.0 mm
12:20 AM 49.5°F9.7°C 49.2°F9.6°C 99% 1.3 mph NNW2.1 kmh NNW 2.2 mph3.5 kmh 29.63 in1003.4 mb 0.00 in0.0 mm 0.00 in/hr0.0 mm/hr 0.00 in0.0 mm
12:19 AM 49.5°F9.7°C 49.2°F9.6°C 99% 1.5 mph NNW2.4 kmh NNW 2.2 mph3.5 kmh 29.63 in1003.4 mb 0.00 in0.0 mm 0.00 in/hr0.0 mm/hr 0.00 in0.0 mm
12:18 AM 49.5°F9.7°C 49.2°F9.6°C 99% 1.5 mph NNW2.4 kmh NNW 2.2 mph3.5 kmh 29.63 in1003.4 mb 0.00 in0.0 mm 0.00 in/hr0.0 mm/hr 0.00 in0.0 mm
12:17 AM 49.5°F9.7°C 49.2°F9.6°C 99% 1.4 mph NNW2.3 kmh NNW 2.2 mph3.5 kmh 29.64 in1003.7 mb 0.00 in0.0 mm 0.00 in/hr0.0 mm/hr 0.00 in0.0 mm
12:16 AM 49.5°F9.7°C 49.2°F9.6°C 99% 1.5 mph N2.4 kmh N 3.1 mph5.0 kmh 29.64 in1003.7 mb 0.00 in0.0 mm 0.00 in/hr0.0 mm/hr 0.00 in0.0 mm
12:15 AM 49.3°F9.6°C 49.0°F9.4°C 99% 1.6 mph N2.6 kmh N 3.1 mph5.0 kmh 29.64 in1003.7 mb 0.00 in0.0 mm 0.00 in/hr0.0 mm/hr 0.00 in0.0 mm
12:14 AM 49.3°F9.6°C 49.0°F9.4°C 99% 1.6 mph N2.6 kmh N 3.1 mph5.0 kmh 29.64 in1003.7 mb 0.00 in0.0 mm 0.00 in/hr0.0 mm/hr 0.00 in0.0 mm
12:13 AM 49.3°F9.6°C 49.0°F9.4°C 99% 1.5 mph N2.4 kmh N 3.1 mph5.0 kmh 29.64 in1003.7 mb 0.00 in0.0 mm 0.00 in/hr0.0 mm/hr 0.00 in0.0 mm
12:12 AM 49.3°F9.6°C 49.0°F9.4°C 99% 1.3 mph NNE2.1 kmh NNE 3.1 mph5.0 kmh 29.64 in1003.7 mb 0.00 in0.0 mm 0.00 in/hr0.0 mm/hr 0.00 in0.0 mm
12:11 AM 49.1°F9.5°C 48.8°F9.3°C 99% 1.3 mph NNE2.1 kmh NNE 3.1 mph5.0 kmh 29.64 in1003.7 mb 0.00 in0.0 mm 0.00 in/hr0.0 mm/hr 0.00 in0.0 mm
12:10 AM 49.1°F9.5°C 48.8°F9.3°C 99% 1.1 mph NNE1.8 kmh NNE 3.1 mph5.0 kmh 29.64 in1003.7 mb 0.00 in0.0 mm 0.00 in/hr0.0 mm/hr 0.00 in0.0 mm
12:09 AM 49.1°F9.5°C 48.8°F9.3°C 99% 1.1 mph NNE1.8 kmh NNE 3.1 mph5.0 kmh 29.64 in1003.7 mb 0.00 in0.0 mm 0.00 in/hr0.0 mm/hr 0.00 in0.0 mm
12:08 AM 49.1°F9.5°C 48.8°F9.3°C 99% 1.0 mph NNE1.6 kmh NNE 3.1 mph5.0 kmh 29.64 in1003.7 mb 0.00 in0.0 mm 0.00 in/hr0.0 mm/hr 0.00 in0.0 mm
12:07 AM 48.9°F9.4°C 48.7°F9.3°C 99% 1.1 mph NNE1.8 kmh NNE 3.1 mph5.0 kmh 29.64 in1003.7 mb 0.00 in0.0 mm 0.00 in/hr0.0 mm/hr 0.00 in0.0 mm
12:06 AM 48.9°F9.4°C 48.7°F9.3°C 99% 0.9 mph N1.4 kmh N 2.2 mph3.5 kmh 29.64 in1003.7 mb 0.00 in0.0 mm 0.00 in/hr0.0 mm/hr 0.00 in0.0 mm
12:05 AM 48.9°F9.4°C 48.7°F9.3°C 99% 0.9 mph N1.4 kmh N 1.6 mph2.6 kmh 29.64 in1003.7 mb 0.00 in0.0 mm 0.00 in/hr0.0 mm/hr 0.00 in0.0 mm
12:04 AM 48.9°F9.4°C 48.7°F9.3°C 99% 0.8 mph N1.3 kmh N 1.6 mph2.6 kmh 29.64 in1003.7 mb 0.00 in0.0 mm 0.00 in/hr0.0 mm/hr 0.00 in0.0 mm
12:03 AM 48.9°F9.4°C 48.7°F9.3°C 99% 0.9 mph N1.4 kmh N 1.6 mph2.6 kmh 29.63 in1003.4 mb 0.00 in0.0 mm 0.00 in/hr0.0 mm/hr 0.00 in0.0 mm
12:02 AM 48.9°F9.4°C 48.7°F9.3°C 99% 0.9 mph N1.4 kmh N 1.6 mph2.6 kmh 29.64 in1003.7 mb 0.00 in0.0 mm 0.00 in/hr0.0 mm/hr 0.00 in0.0 mm
12:01 AM 48.9°F9.4°C 48.7°F9.3°C 99% 0.9 mph N1.4 kmh N 1.6 mph2.6 kmh 29.63 in1003.4 mb 0.00 in0.0 mm 0.00 in/hr0.0 mm/hr 0.00 in0.0 mm
12:00 AM 48.9°F9.4°C 48.7°F9.3°C 99% 0.9 mph N1.4 kmh N 1.6 mph2.6 kmh 29.63 in1003.4 mb 0.00 in0.0 mm 0.00 in/hr0.0 mm/hr 0.01 in0.3 mm